<?xml version="1.0" encoding="UTF-8" standalone="no" ?>
<gpx xmlns="http://www.topografix.com/GPX/1/1" xmlns:xsi="http://www.w3.org/2001/XMLSchema-instance" xsi:schemaLocation="http://www.topografix.com/GPX/1/1 http://www.topografix.com/GPX/1/1/gpx.xsd" version="1.1" creator="VisuGPX - https://www.visugpx.com">
  <metadata>
    <name>sortie raquette Tamié</name>
    <desc><![CDATA[Petite ballade familiale en raquettes de 5 km, vous pouvez vous garer au point de départ de ma balades vous trouvez de la place mais je conseille plus de se stationner au foyer de ski de fond. Attention, éviter de marcher sur les pistes réservées aux skieurs. Bonne ballade.]]></desc>
  </metadata>
  <trk>
    <name><![CDATA[Sequence 1]]></name>
    <trkseg>
      <trkpt lat="45.70057" lon="6.31">
        <ele>797</ele>
        <time>2019-02-12T13:15:07Z</time>
      </trkpt>
      <trkpt lat="45.70059" lon="6.30999">
        <ele>796</ele>
        <time>2019-02-12T13:15:09Z</time>
      </trkpt>
      <trkpt lat="45.70062" lon="6.31">
        <ele>791</ele>
        <time>2019-02-12T13:15:15Z</time>
      </trkpt>
      <trkpt lat="45.7007" lon="6.31006">
        <ele>784</ele>
        <time>2019-02-12T13:15:21Z</time>
      </trkpt>
      <trkpt lat="45.70079" lon="6.3101">
        <ele>776</ele>
        <time>2019-02-12T13:15:28Z</time>
      </trkpt>
      <trkpt lat="45.70083" lon="6.31013">
        <ele>777</ele>
        <time>2019-02-12T13:15:33Z</time>
      </trkpt>
      <trkpt lat="45.70083" lon="6.31015">
        <ele>778</ele>
        <time>2019-02-12T13:15:39Z</time>
      </trkpt>
      <trkpt lat="45.70084" lon="6.31014">
        <ele>776</ele>
        <time>2019-02-12T13:15:45Z</time>
      </trkpt>
      <trkpt lat="45.70084" lon="6.31014">
        <ele>775</ele>
        <time>2019-02-12T13:15:56Z</time>
      </trkpt>
      <trkpt lat="45.70084" lon="6.31014">
        <ele>775</ele>
        <time>2019-02-12T13:15:57Z</time>
      </trkpt>
      <trkpt lat="45.70083" lon="6.31014">
        <ele>775</ele>
        <time>2019-02-12T13:16:03Z</time>
      </trkpt>
      <trkpt lat="45.70083" lon="6.31014">
        <ele>775</ele>
        <time>2019-02-12T13:16:14Z</time>
      </trkpt>
      <trkpt lat="45.70084" lon="6.31014">
        <ele>775</ele>
        <time>2019-02-12T13:16:16Z</time>
      </trkpt>
      <trkpt lat="45.70084" lon="6.31014">
        <ele>775</ele>
        <time>2019-02-12T13:16:21Z</time>
      </trkpt>
      <trkpt lat="45.70084" lon="6.31014">
        <ele>775</ele>
        <time>2019-02-12T13:16:29Z</time>
      </trkpt>
      <trkpt lat="45.70084" lon="6.31014">
        <ele>775</ele>
        <time>2019-02-12T13:16:33Z</time>
      </trkpt>
      <trkpt lat="45.70086" lon="6.31017">
        <ele>773</ele>
        <time>2019-02-12T13:16:39Z</time>
      </trkpt>
      <trkpt lat="45.70094" lon="6.31023">
        <ele>774</ele>
        <time>2019-02-12T13:16:50Z</time>
      </trkpt>
      <trkpt lat="45.70095" lon="6.31023">
        <ele>776</ele>
        <time>2019-02-12T13:16:51Z</time>
      </trkpt>
      <trkpt lat="45.70098" lon="6.31025">
        <ele>777</ele>
        <time>2019-02-12T13:16:57Z</time>
      </trkpt>
      <trkpt lat="45.70101" lon="6.31033">
        <ele>777</ele>
        <time>2019-02-12T13:17:07Z</time>
      </trkpt>
      <trkpt lat="45.70104" lon="6.31036">
        <ele>779</ele>
        <time>2019-02-12T13:17:10Z</time>
      </trkpt>
      <trkpt lat="45.70108" lon="6.3104">
        <ele>781</ele>
        <time>2019-02-12T13:17:15Z</time>
      </trkpt>
      <trkpt lat="45.70115" lon="6.31043">
        <ele>780</ele>
        <time>2019-02-12T13:17:23Z</time>
      </trkpt>
      <trkpt lat="45.70118" lon="6.31044">
        <ele>781</ele>
        <time>2019-02-12T13:17:27Z</time>
      </trkpt>
      <trkpt lat="45.70122" lon="6.31043">
        <ele>781</ele>
        <time>2019-02-12T13:17:33Z</time>
      </trkpt>
      <trkpt lat="45.70128" lon="6.31045">
        <ele>777</ele>
        <time>2019-02-12T13:17:44Z</time>
      </trkpt>
      <trkpt lat="45.70129" lon="6.31046">
        <ele>779</ele>
        <time>2019-02-12T13:17:48Z</time>
      </trkpt>
      <trkpt lat="45.70129" lon="6.31045">
        <ele>779</ele>
        <time>2019-02-12T13:17:51Z</time>
      </trkpt>
      <trkpt lat="45.70129" lon="6.31045">
        <ele>780</ele>
        <time>2019-02-12T13:17:58Z</time>
      </trkpt>
      <trkpt lat="45.70129" lon="6.31045">
        <ele>780</ele>
        <time>2019-02-12T13:18:03Z</time>
      </trkpt>
      <trkpt lat="45.70131" lon="6.31045">
        <ele>783</ele>
        <time>2019-02-12T13:18:14Z</time>
      </trkpt>
      <trkpt lat="45.70133" lon="6.31044">
        <ele>786</ele>
        <time>2019-02-12T13:18:18Z</time>
      </trkpt>
      <trkpt lat="45.70138" lon="6.31043">
        <ele>790</ele>
        <time>2019-02-12T13:18:26Z</time>
      </trkpt>
      <trkpt lat="45.70143" lon="6.31042">
        <ele>787</ele>
        <time>2019-02-12T13:18:31Z</time>
      </trkpt>
      <trkpt lat="45.70145" lon="6.31042">
        <ele>787</ele>
        <time>2019-02-12T13:18:34Z</time>
      </trkpt>
      <trkpt lat="45.70149" lon="6.31042">
        <ele>784</ele>
        <time>2019-02-12T13:18:39Z</time>
      </trkpt>
      <trkpt lat="45.70152" lon="6.31039">
        <ele>781</ele>
        <time>2019-02-12T13:18:45Z</time>
      </trkpt>
      <trkpt lat="45.70156" lon="6.31039">
        <ele>781</ele>
        <time>2019-02-12T13:18:51Z</time>
      </trkpt>
      <trkpt lat="45.70164" lon="6.31041">
        <ele>781</ele>
        <time>2019-02-12T13:19:01Z</time>
      </trkpt>
      <trkpt lat="45.70164" lon="6.31041">
        <ele>780</ele>
        <time>2019-02-12T13:19:03Z</time>
      </trkpt>
      <trkpt lat="45.70171" lon="6.31044">
        <ele>779</ele>
        <time>2019-02-12T13:19:13Z</time>
      </trkpt>
      <trkpt lat="45.70179" lon="6.31043">
        <ele>778</ele>
        <time>2019-02-12T13:19:20Z</time>
      </trkpt>
      <trkpt lat="45.7018" lon="6.31044">
        <ele>778</ele>
        <time>2019-02-12T13:19:21Z</time>
      </trkpt>
      <trkpt lat="45.70186" lon="6.31044">
        <ele>781</ele>
        <time>2019-02-12T13:19:27Z</time>
      </trkpt>
      <trkpt lat="45.7019" lon="6.31043">
        <ele>782</ele>
        <time>2019-02-12T13:19:33Z</time>
      </trkpt>
      <trkpt lat="45.70197" lon="6.31045">
        <ele>789</ele>
        <time>2019-02-12T13:19:39Z</time>
      </trkpt>
      <trkpt lat="45.70203" lon="6.31047">
        <ele>787</ele>
        <time>2019-02-12T13:19:45Z</time>
      </trkpt>
      <trkpt lat="45.70207" lon="6.31048">
        <ele>787</ele>
        <time>2019-02-12T13:19:51Z</time>
      </trkpt>
      <trkpt lat="45.70212" lon="6.31047">
        <ele>788</ele>
        <time>2019-02-12T13:20:01Z</time>
      </trkpt>
      <trkpt lat="45.70209" lon="6.3105">
        <ele>787</ele>
        <time>2019-02-12T13:20:08Z</time>
      </trkpt>
      <trkpt lat="45.70209" lon="6.3105">
        <ele>788</ele>
        <time>2019-02-12T13:20:09Z</time>
      </trkpt>
      <trkpt lat="45.70211" lon="6.31049">
        <ele>787</ele>
        <time>2019-02-12T13:20:19Z</time>
      </trkpt>
      <trkpt lat="45.70215" lon="6.31049">
        <ele>788</ele>
        <time>2019-02-12T13:20:23Z</time>
      </trkpt>
      <trkpt lat="45.70219" lon="6.31049">
        <ele>790</ele>
        <time>2019-02-12T13:20:27Z</time>
      </trkpt>
      <trkpt lat="45.70224" lon="6.31053">
        <ele>788</ele>
        <time>2019-02-12T13:20:36Z</time>
      </trkpt>
      <trkpt lat="45.70226" lon="6.31051">
        <ele>787</ele>
        <time>2019-02-12T13:20:39Z</time>
      </trkpt>
      <trkpt lat="45.70229" lon="6.31055">
        <ele>788</ele>
        <time>2019-02-12T13:20:45Z</time>
      </trkpt>
      <trkpt lat="45.7023" lon="6.31056">
        <ele>790</ele>
        <time>2019-02-12T13:20:51Z</time>
      </trkpt>
      <trkpt lat="45.70235" lon="6.3106">
        <ele>787</ele>
        <time>2019-02-12T13:20:59Z</time>
      </trkpt>
      <trkpt lat="45.70239" lon="6.31062">
        <ele>787</ele>
        <time>2019-02-12T13:21:04Z</time>
      </trkpt>
      <trkpt lat="45.70246" lon="6.31069">
        <ele>786</ele>
        <time>2019-02-12T13:21:12Z</time>
      </trkpt>
      <trkpt lat="45.70248" lon="6.31071">
        <ele>785</ele>
        <time>2019-02-12T13:21:16Z</time>
      </trkpt>
      <trkpt lat="45.70252" lon="6.31074">
        <ele>785</ele>
        <time>2019-02-12T13:21:21Z</time>
      </trkpt>
      <trkpt lat="45.70255" lon="6.31076">
        <ele>785</ele>
        <time>2019-02-12T13:21:27Z</time>
      </trkpt>
      <trkpt lat="45.70258" lon="6.3108">
        <ele>786</ele>
        <time>2019-02-12T13:21:34Z</time>
      </trkpt>
      <trkpt lat="45.70261" lon="6.31084">
        <ele>789</ele>
        <time>2019-02-12T13:21:39Z</time>
      </trkpt>
      <trkpt lat="45.70265" lon="6.31087">
        <ele>789</ele>
        <time>2019-02-12T13:21:48Z</time>
      </trkpt>
      <trkpt lat="45.70269" lon="6.31088">
        <ele>788</ele>
        <time>2019-02-12T13:21:54Z</time>
      </trkpt>
      <trkpt lat="45.70273" lon="6.31091">
        <ele>787</ele>
        <time>2019-02-12T13:22:02Z</time>
      </trkpt>
      <trkpt lat="45.70276" lon="6.31092">
        <ele>788</ele>
        <time>2019-02-12T13:22:05Z</time>
      </trkpt>
      <trkpt lat="45.70279" lon="6.31095">
        <ele>789</ele>
        <time>2019-02-12T13:22:09Z</time>
      </trkpt>
      <trkpt lat="45.70285" lon="6.31097">
        <ele>790</ele>
        <time>2019-02-12T13:22:15Z</time>
      </trkpt>
      <trkpt lat="45.70288" lon="6.31099">
        <ele>792</ele>
        <time>2019-02-12T13:22:21Z</time>
      </trkpt>
      <trkpt lat="45.70295" lon="6.31101">
        <ele>796</ele>
        <time>2019-02-12T13:22:29Z</time>
      </trkpt>
      <trkpt lat="45.70305" lon="6.31104">
        <ele>796</ele>
        <time>2019-02-12T13:22:38Z</time>
      </trkpt>
      <trkpt lat="45.70306" lon="6.31105">
        <ele>796</ele>
        <time>2019-02-12T13:22:39Z</time>
      </trkpt>
      <trkpt lat="45.70311" lon="6.31109">
        <ele>796</ele>
        <time>2019-02-12T13:22:47Z</time>
      </trkpt>
      <trkpt lat="45.70319" lon="6.31107">
        <ele>795</ele>
        <time>2019-02-12T13:22:56Z</time>
      </trkpt>
      <trkpt lat="45.70323" lon="6.31106">
        <ele>796</ele>
        <time>2019-02-12T13:23:00Z</time>
      </trkpt>
      <trkpt lat="45.70328" lon="6.31107">
        <ele>795</ele>
        <time>2019-02-12T13:23:05Z</time>
      </trkpt>
      <trkpt lat="45.70333" lon="6.31111">
        <ele>794</ele>
        <time>2019-02-12T13:23:10Z</time>
      </trkpt>
      <trkpt lat="45.70341" lon="6.31119">
        <ele>798</ele>
        <time>2019-02-12T13:23:18Z</time>
      </trkpt>
      <trkpt lat="45.70344" lon="6.31122">
        <ele>798</ele>
        <time>2019-02-12T13:23:21Z</time>
      </trkpt>
      <trkpt lat="45.70351" lon="6.31127">
        <ele>801</ele>
        <time>2019-02-12T13:23:27Z</time>
      </trkpt>
      <trkpt lat="45.70358" lon="6.31133">
        <ele>801</ele>
        <time>2019-02-12T13:23:37Z</time>
      </trkpt>
      <trkpt lat="45.7036" lon="6.31133">
        <ele>801</ele>
        <time>2019-02-12T13:23:39Z</time>
      </trkpt>
      <trkpt lat="45.70365" lon="6.31138">
        <ele>803</ele>
        <time>2019-02-12T13:23:45Z</time>
      </trkpt>
      <trkpt lat="45.7037" lon="6.31139">
        <ele>803</ele>
        <time>2019-02-12T13:23:51Z</time>
      </trkpt>
      <trkpt lat="45.70374" lon="6.31141">
        <ele>804</ele>
        <time>2019-02-12T13:23:57Z</time>
      </trkpt>
      <trkpt lat="45.70381" lon="6.31146">
        <ele>804</ele>
        <time>2019-02-12T13:24:06Z</time>
      </trkpt>
      <trkpt lat="45.70383" lon="6.31146">
        <ele>805</ele>
        <time>2019-02-12T13:24:09Z</time>
      </trkpt>
      <trkpt lat="45.70387" lon="6.31148">
        <ele>805</ele>
        <time>2019-02-12T13:24:15Z</time>
      </trkpt>
      <trkpt lat="45.70394" lon="6.31155">
        <ele>805</ele>
        <time>2019-02-12T13:24:25Z</time>
      </trkpt>
      <trkpt lat="45.70394" lon="6.31156">
        <ele>805</ele>
        <time>2019-02-12T13:24:27Z</time>
      </trkpt>
      <trkpt lat="45.70398" lon="6.31158">
        <ele>806</ele>
        <time>2019-02-12T13:24:33Z</time>
      </trkpt>
      <trkpt lat="45.704" lon="6.31163">
        <ele>806</ele>
        <time>2019-02-12T13:24:39Z</time>
      </trkpt>
      <trkpt lat="45.70402" lon="6.31165">
        <ele>806</ele>
        <time>2019-02-12T13:24:45Z</time>
      </trkpt>
      <trkpt lat="45.70404" lon="6.31168">
        <ele>807</ele>
        <time>2019-02-12T13:24:51Z</time>
      </trkpt>
      <trkpt lat="45.70405" lon="6.31173">
        <ele>807</ele>
        <time>2019-02-12T13:24:57Z</time>
      </trkpt>
      <trkpt lat="45.70405" lon="6.31174">
        <ele>807</ele>
        <time>2019-02-12T13:25:03Z</time>
      </trkpt>
      <trkpt lat="45.70406" lon="6.31174">
        <ele>807</ele>
        <time>2019-02-12T13:25:09Z</time>
      </trkpt>
      <trkpt lat="45.7041" lon="6.31182">
        <ele>806</ele>
        <time>2019-02-12T13:25:20Z</time>
      </trkpt>
      <trkpt lat="45.7041" lon="6.31182">
        <ele>806</ele>
        <time>2019-02-12T13:25:21Z</time>
      </trkpt>
      <trkpt lat="45.70412" lon="6.3119">
        <ele>808</ele>
        <time>2019-02-12T13:25:28Z</time>
      </trkpt>
      <trkpt lat="45.70413" lon="6.31192">
        <ele>809</ele>
        <time>2019-02-12T13:25:33Z</time>
      </trkpt>
      <trkpt lat="45.70415" lon="6.31195">
        <ele>809</ele>
        <time>2019-02-12T13:25:39Z</time>
      </trkpt>
      <trkpt lat="45.70416" lon="6.31199">
        <ele>808</ele>
        <time>2019-02-12T13:25:45Z</time>
      </trkpt>
      <trkpt lat="45.70416" lon="6.31201">
        <ele>808</ele>
        <time>2019-02-12T13:25:51Z</time>
      </trkpt>
      <trkpt lat="45.70417" lon="6.31202">
        <ele>808</ele>
        <time>2019-02-12T13:25:57Z</time>
      </trkpt>
      <trkpt lat="45.70419" lon="6.31205">
        <ele>810</ele>
        <time>2019-02-12T13:26:03Z</time>
      </trkpt>
      <trkpt lat="45.7042" lon="6.31207">
        <ele>811</ele>
        <time>2019-02-12T13:26:09Z</time>
      </trkpt>
      <trkpt lat="45.70421" lon="6.31209">
        <ele>811</ele>
        <time>2019-02-12T13:26:15Z</time>
      </trkpt>
      <trkpt lat="45.70422" lon="6.31211">
        <ele>811</ele>
        <time>2019-02-12T13:26:21Z</time>
      </trkpt>
      <trkpt lat="45.70423" lon="6.31215">
        <ele>811</ele>
        <time>2019-02-12T13:26:27Z</time>
      </trkpt>
      <trkpt lat="45.70425" lon="6.31217">
        <ele>812</ele>
        <time>2019-02-12T13:26:33Z</time>
      </trkpt>
      <trkpt lat="45.70428" lon="6.3122">
        <ele>812</ele>
        <time>2019-02-12T13:26:39Z</time>
      </trkpt>
      <trkpt lat="45.7043" lon="6.31223">
        <ele>812</ele>
        <time>2019-02-12T13:26:45Z</time>
      </trkpt>
      <trkpt lat="45.70434" lon="6.31226">
        <ele>815</ele>
        <time>2019-02-12T13:26:51Z</time>
      </trkpt>
      <trkpt lat="45.70439" lon="6.31231">
        <ele>816</ele>
        <time>2019-02-12T13:27:02Z</time>
      </trkpt>
      <trkpt lat="45.7044" lon="6.31232">
        <ele>817</ele>
        <time>2019-02-12T13:27:03Z</time>
      </trkpt>
      <trkpt lat="45.70443" lon="6.31233">
        <ele>818</ele>
        <time>2019-02-12T13:27:09Z</time>
      </trkpt>
      <trkpt lat="45.70443" lon="6.31235">
        <ele>818</ele>
        <time>2019-02-12T13:27:15Z</time>
      </trkpt>
      <trkpt lat="45.70446" lon="6.31235">
        <ele>823</ele>
        <time>2019-02-12T13:27:21Z</time>
      </trkpt>
      <trkpt lat="45.70448" lon="6.31236">
        <ele>825</ele>
        <time>2019-02-12T13:27:32Z</time>
      </trkpt>
      <trkpt lat="45.70448" lon="6.31236">
        <ele>825</ele>
        <time>2019-02-12T13:27:38Z</time>
      </trkpt>
      <trkpt lat="45.70448" lon="6.31236">
        <ele>825</ele>
        <time>2019-02-12T13:27:39Z</time>
      </trkpt>
      <trkpt lat="45.70448" lon="6.31236">
        <ele>825</ele>
        <time>2019-02-12T13:27:45Z</time>
      </trkpt>
      <trkpt lat="45.70448" lon="6.31237">
        <ele>825</ele>
        <time>2019-02-12T13:27:51Z</time>
      </trkpt>
      <trkpt lat="45.70448" lon="6.31237">
        <ele>826</ele>
        <time>2019-02-12T13:28:02Z</time>
      </trkpt>
      <trkpt lat="45.70448" lon="6.31237">
        <ele>826</ele>
        <time>2019-02-12T13:28:06Z</time>
      </trkpt>
      <trkpt lat="45.70448" lon="6.31237">
        <ele>826</ele>
        <time>2019-02-12T13:28:11Z</time>
      </trkpt>
      <trkpt lat="45.70448" lon="6.31237">
        <ele>826</ele>
        <time>2019-02-12T13:28:15Z</time>
      </trkpt>
      <trkpt lat="45.70448" lon="6.31237">
        <ele>826</ele>
        <time>2019-02-12T13:28:21Z</time>
      </trkpt>
      <trkpt lat="45.70448" lon="6.31237">
        <ele>826</ele>
        <time>2019-02-12T13:28:27Z</time>
      </trkpt>
      <trkpt lat="45.70448" lon="6.31238">
        <ele>826</ele>
        <time>2019-02-12T13:28:34Z</time>
      </trkpt>
      <trkpt lat="45.70448" lon="6.31238">
        <ele>826</ele>
        <time>2019-02-12T13:28:39Z</time>
      </trkpt>
      <trkpt lat="45.70448" lon="6.31238">
        <ele>826</ele>
        <time>2019-02-12T13:28:47Z</time>
      </trkpt>
      <trkpt lat="45.70448" lon="6.31238">
        <ele>826</ele>
        <time>2019-02-12T13:28:51Z</time>
      </trkpt>
      <trkpt lat="45.70449" lon="6.31238">
        <ele>826</ele>
        <time>2019-02-12T13:28:57Z</time>
      </trkpt>
      <trkpt lat="45.70449" lon="6.31238">
        <ele>826</ele>
        <time>2019-02-12T13:29:03Z</time>
      </trkpt>
      <trkpt lat="45.70449" lon="6.31238">
        <ele>827</ele>
        <time>2019-02-12T13:29:14Z</time>
      </trkpt>
      <trkpt lat="45.70449" lon="6.31238">
        <ele>827</ele>
        <time>2019-02-12T13:29:15Z</time>
      </trkpt>
      <trkpt lat="45.70449" lon="6.31238">
        <ele>827</ele>
        <time>2019-02-12T13:29:22Z</time>
      </trkpt>
      <trkpt lat="45.70449" lon="6.31238">
        <ele>827</ele>
        <time>2019-02-12T13:29:27Z</time>
      </trkpt>
      <trkpt lat="45.70449" lon="6.31238">
        <ele>827</ele>
        <time>2019-02-12T13:29:38Z</time>
      </trkpt>
      <trkpt lat="45.70449" lon="6.31238">
        <ele>827</ele>
        <time>2019-02-12T13:29:39Z</time>
      </trkpt>
      <trkpt lat="45.70449" lon="6.31238">
        <ele>826</ele>
        <time>2019-02-12T13:29:45Z</time>
      </trkpt>
      <trkpt lat="45.70449" lon="6.31238">
        <ele>826</ele>
        <time>2019-02-12T13:29:51Z</time>
      </trkpt>
      <trkpt lat="45.70449" lon="6.31238">
        <ele>826</ele>
        <time>2019-02-12T13:29:57Z</time>
      </trkpt>
      <trkpt lat="45.70452" lon="6.31236">
        <ele>826</ele>
        <time>2019-02-12T13:30:05Z</time>
      </trkpt>
      <trkpt lat="45.70454" lon="6.31237">
        <ele>824</ele>
        <time>2019-02-12T13:30:13Z</time>
      </trkpt>
      <trkpt lat="45.70456" lon="6.3124">
        <ele>823</ele>
        <time>2019-02-12T13:30:19Z</time>
      </trkpt>
      <trkpt lat="45.70457" lon="6.31241">
        <ele>822</ele>
        <time>2019-02-12T13:30:21Z</time>
      </trkpt>
      <trkpt lat="45.70459" lon="6.31243">
        <ele>822</ele>
        <time>2019-02-12T13:30:27Z</time>
      </trkpt>
      <trkpt lat="45.70463" lon="6.31243">
        <ele>820</ele>
        <time>2019-02-12T13:30:33Z</time>
      </trkpt>
      <trkpt lat="45.70468" lon="6.31246">
        <ele>816</ele>
        <time>2019-02-12T13:30:39Z</time>
      </trkpt>
      <trkpt lat="45.70471" lon="6.31248">
        <ele>815</ele>
        <time>2019-02-12T13:30:45Z</time>
      </trkpt>
      <trkpt lat="45.70475" lon="6.31232">
        <ele>818</ele>
        <time>2019-02-12T13:30:55Z</time>
      </trkpt>
      <trkpt lat="45.7048" lon="6.31226">
        <ele>818</ele>
        <time>2019-02-12T13:31:02Z</time>
      </trkpt>
      <trkpt lat="45.70484" lon="6.31222">
        <ele>818</ele>
        <time>2019-02-12T13:31:06Z</time>
      </trkpt>
      <trkpt lat="45.7049" lon="6.3122">
        <ele>817</ele>
        <time>2019-02-12T13:31:12Z</time>
      </trkpt>
      <trkpt lat="45.70493" lon="6.31219">
        <ele>817</ele>
        <time>2019-02-12T13:31:15Z</time>
      </trkpt>
      <trkpt lat="45.70497" lon="6.31219">
        <ele>817</ele>
        <time>2019-02-12T13:31:21Z</time>
      </trkpt>
      <trkpt lat="45.70505" lon="6.31223">
        <ele>820</ele>
        <time>2019-02-12T13:31:31Z</time>
      </trkpt>
      <trkpt lat="45.70509" lon="6.31223">
        <ele>820</ele>
        <time>2019-02-12T13:31:35Z</time>
      </trkpt>
      <trkpt lat="45.70512" lon="6.31225">
        <ele>820</ele>
        <time>2019-02-12T13:31:39Z</time>
      </trkpt>
      <trkpt lat="45.70517" lon="6.31227">
        <ele>819</ele>
        <time>2019-02-12T13:31:45Z</time>
      </trkpt>
      <trkpt lat="45.70519" lon="6.31229">
        <ele>820</ele>
        <time>2019-02-12T13:31:51Z</time>
      </trkpt>
      <trkpt lat="45.70522" lon="6.31231">
        <ele>817</ele>
        <time>2019-02-12T13:31:57Z</time>
      </trkpt>
      <trkpt lat="45.70524" lon="6.31232">
        <ele>816</ele>
        <time>2019-02-12T13:32:03Z</time>
      </trkpt>
      <trkpt lat="45.70528" lon="6.31234">
        <ele>815</ele>
        <time>2019-02-12T13:32:09Z</time>
      </trkpt>
      <trkpt lat="45.70538" lon="6.3124">
        <ele>818</ele>
        <time>2019-02-12T13:32:20Z</time>
      </trkpt>
      <trkpt lat="45.70538" lon="6.31241">
        <ele>818</ele>
        <time>2019-02-12T13:32:21Z</time>
      </trkpt>
      <trkpt lat="45.70547" lon="6.31245">
        <ele>821</ele>
        <time>2019-02-12T13:32:32Z</time>
      </trkpt>
      <trkpt lat="45.70547" lon="6.31245">
        <ele>821</ele>
        <time>2019-02-12T13:32:33Z</time>
      </trkpt>
      <trkpt lat="45.70551" lon="6.31247">
        <ele>821</ele>
        <time>2019-02-12T13:32:39Z</time>
      </trkpt>
      <trkpt lat="45.70557" lon="6.31249">
        <ele>821</ele>
        <time>2019-02-12T13:32:45Z</time>
      </trkpt>
      <trkpt lat="45.70563" lon="6.31251">
        <ele>823</ele>
        <time>2019-02-12T13:32:51Z</time>
      </trkpt>
      <trkpt lat="45.70567" lon="6.31254">
        <ele>823</ele>
        <time>2019-02-12T13:32:57Z</time>
      </trkpt>
      <trkpt lat="45.70571" lon="6.31256">
        <ele>823</ele>
        <time>2019-02-12T13:33:03Z</time>
      </trkpt>
      <trkpt lat="45.70576" lon="6.31258">
        <ele>824</ele>
        <time>2019-02-12T13:33:09Z</time>
      </trkpt>
      <trkpt lat="45.7058" lon="6.3126">
        <ele>825</ele>
        <time>2019-02-12T13:33:15Z</time>
      </trkpt>
      <trkpt lat="45.70584" lon="6.31262">
        <ele>825</ele>
        <time>2019-02-12T13:33:21Z</time>
      </trkpt>
      <trkpt lat="45.70587" lon="6.31264">
        <ele>822</ele>
        <time>2019-02-12T13:33:27Z</time>
      </trkpt>
      <trkpt lat="45.70591" lon="6.31266">
        <ele>824</ele>
        <time>2019-02-12T13:33:33Z</time>
      </trkpt>
      <trkpt lat="45.70598" lon="6.31267">
        <ele>826</ele>
        <time>2019-02-12T13:33:44Z</time>
      </trkpt>
      <trkpt lat="45.70599" lon="6.31266">
        <ele>826</ele>
        <time>2019-02-12T13:33:45Z</time>
      </trkpt>
      <trkpt lat="45.70605" lon="6.31268">
        <ele>826</ele>
        <time>2019-02-12T13:33:53Z</time>
      </trkpt>
      <trkpt lat="45.70611" lon="6.3127">
        <ele>829</ele>
        <time>2019-02-12T13:33:59Z</time>
      </trkpt>
      <trkpt lat="45.70619" lon="6.31269">
        <ele>831</ele>
        <time>2019-02-12T13:34:08Z</time>
      </trkpt>
      <trkpt lat="45.7062" lon="6.31269">
        <ele>831</ele>
        <time>2019-02-12T13:34:09Z</time>
      </trkpt>
      <trkpt lat="45.70626" lon="6.31271">
        <ele>833</ele>
        <time>2019-02-12T13:34:15Z</time>
      </trkpt>
      <trkpt lat="45.7063" lon="6.31271">
        <ele>834</ele>
        <time>2019-02-12T13:34:21Z</time>
      </trkpt>
      <trkpt lat="45.70635" lon="6.31271">
        <ele>835</ele>
        <time>2019-02-12T13:34:27Z</time>
      </trkpt>
      <trkpt lat="45.70643" lon="6.31274">
        <ele>834</ele>
        <time>2019-02-12T13:34:38Z</time>
      </trkpt>
      <trkpt lat="45.70647" lon="6.31275">
        <ele>835</ele>
        <time>2019-02-12T13:34:42Z</time>
      </trkpt>
      <trkpt lat="45.70649" lon="6.31276">
        <ele>835</ele>
        <time>2019-02-12T13:34:45Z</time>
      </trkpt>
      <trkpt lat="45.70655" lon="6.31277">
        <ele>832</ele>
        <time>2019-02-12T13:34:53Z</time>
      </trkpt>
      <trkpt lat="45.7066" lon="6.3128">
        <ele>830</ele>
        <time>2019-02-12T13:35:00Z</time>
      </trkpt>
      <trkpt lat="45.70662" lon="6.3128">
        <ele>831</ele>
        <time>2019-02-12T13:35:03Z</time>
      </trkpt>
      <trkpt lat="45.70666" lon="6.31281">
        <ele>831</ele>
        <time>2019-02-12T13:35:09Z</time>
      </trkpt>
      <trkpt lat="45.7067" lon="6.31282">
        <ele>829</ele>
        <time>2019-02-12T13:35:15Z</time>
      </trkpt>
      <trkpt lat="45.70673" lon="6.31283">
        <ele>831</ele>
        <time>2019-02-12T13:35:21Z</time>
      </trkpt>
      <trkpt lat="45.70679" lon="6.31285">
        <ele>832</ele>
        <time>2019-02-12T13:35:27Z</time>
      </trkpt>
      <trkpt lat="45.70683" lon="6.31284">
        <ele>832</ele>
        <time>2019-02-12T13:35:36Z</time>
      </trkpt>
      <trkpt lat="45.70685" lon="6.31285">
        <ele>833</ele>
        <time>2019-02-12T13:35:39Z</time>
      </trkpt>
      <trkpt lat="45.70689" lon="6.31287">
        <ele>832</ele>
        <time>2019-02-12T13:35:45Z</time>
      </trkpt>
      <trkpt lat="45.70692" lon="6.31288">
        <ele>831</ele>
        <time>2019-02-12T13:35:52Z</time>
      </trkpt>
      <trkpt lat="45.70701" lon="6.31287">
        <ele>831</ele>
        <time>2019-02-12T13:36:01Z</time>
      </trkpt>
      <trkpt lat="45.70702" lon="6.31288">
        <ele>833</ele>
        <time>2019-02-12T13:36:03Z</time>
      </trkpt>
      <trkpt lat="45.7071" lon="6.3129">
        <ele>834</ele>
        <time>2019-02-12T13:36:13Z</time>
      </trkpt>
      <trkpt lat="45.70714" lon="6.31286">
        <ele>835</ele>
        <time>2019-02-12T13:36:19Z</time>
      </trkpt>
      <trkpt lat="45.70715" lon="6.31287">
        <ele>835</ele>
        <time>2019-02-12T13:36:21Z</time>
      </trkpt>
      <trkpt lat="45.7072" lon="6.31289">
        <ele>833</ele>
        <time>2019-02-12T13:36:27Z</time>
      </trkpt>
      <trkpt lat="45.70729" lon="6.3129">
        <ele>833</ele>
        <time>2019-02-12T13:36:38Z</time>
      </trkpt>
      <trkpt lat="45.7073" lon="6.31289">
        <ele>834</ele>
        <time>2019-02-12T13:36:40Z</time>
      </trkpt>
      <trkpt lat="45.70734" lon="6.31287">
        <ele>836</ele>
        <time>2019-02-12T13:36:45Z</time>
      </trkpt>
      <trkpt lat="45.70739" lon="6.31287">
        <ele>838</ele>
        <time>2019-02-12T13:36:51Z</time>
      </trkpt>
      <trkpt lat="45.70747" lon="6.31287">
        <ele>840</ele>
        <time>2019-02-12T13:36:58Z</time>
      </trkpt>
      <trkpt lat="45.7075" lon="6.31288">
        <ele>840</ele>
        <time>2019-02-12T13:37:03Z</time>
      </trkpt>
      <trkpt lat="45.70758" lon="6.3128">
        <ele>840</ele>
        <time>2019-02-12T13:37:13Z</time>
      </trkpt>
      <trkpt lat="45.7076" lon="6.3128">
        <ele>841</ele>
        <time>2019-02-12T13:37:15Z</time>
      </trkpt>
      <trkpt lat="45.70763" lon="6.31277">
        <ele>842</ele>
        <time>2019-02-12T13:37:21Z</time>
      </trkpt>
      <trkpt lat="45.7077" lon="6.31275">
        <ele>842</ele>
        <time>2019-02-12T13:37:28Z</time>
      </trkpt>
      <trkpt lat="45.70773" lon="6.3127">
        <ele>843</ele>
        <time>2019-02-12T13:37:33Z</time>
      </trkpt>
      <trkpt lat="45.70778" lon="6.31262">
        <ele>844</ele>
        <time>2019-02-12T13:37:42Z</time>
      </trkpt>
      <trkpt lat="45.70782" lon="6.31257">
        <ele>845</ele>
        <time>2019-02-12T13:37:48Z</time>
      </trkpt>
      <trkpt lat="45.70783" lon="6.31256">
        <ele>844</ele>
        <time>2019-02-12T13:37:51Z</time>
      </trkpt>
      <trkpt lat="45.70787" lon="6.31254">
        <ele>842</ele>
        <time>2019-02-12T13:38:00Z</time>
      </trkpt>
      <trkpt lat="45.70788" lon="6.31254">
        <ele>841</ele>
        <time>2019-02-12T13:38:06Z</time>
      </trkpt>
      <trkpt lat="45.70789" lon="6.31255">
        <ele>839</ele>
        <time>2019-02-12T13:38:09Z</time>
      </trkpt>
      <trkpt lat="45.70789" lon="6.31253">
        <ele>841</ele>
        <time>2019-02-12T13:38:15Z</time>
      </trkpt>
      <trkpt lat="45.7079" lon="6.31252">
        <ele>840</ele>
        <time>2019-02-12T13:38:24Z</time>
      </trkpt>
      <trkpt lat="45.70791" lon="6.31253">
        <ele>839</ele>
        <time>2019-02-12T13:38:28Z</time>
      </trkpt>
      <trkpt lat="45.70791" lon="6.31252">
        <ele>838</ele>
        <time>2019-02-12T13:38:36Z</time>
      </trkpt>
      <trkpt lat="45.70791" lon="6.31253">
        <ele>838</ele>
        <time>2019-02-12T13:38:39Z</time>
      </trkpt>
      <trkpt lat="45.70791" lon="6.31253">
        <ele>837</ele>
        <time>2019-02-12T13:38:45Z</time>
      </trkpt>
      <trkpt lat="45.70791" lon="6.31253">
        <ele>837</ele>
        <time>2019-02-12T13:38:51Z</time>
      </trkpt>
      <trkpt lat="45.70791" lon="6.31253">
        <ele>837</ele>
        <time>2019-02-12T13:38:57Z</time>
      </trkpt>
      <trkpt lat="45.70791" lon="6.31253">
        <ele>837</ele>
        <time>2019-02-12T13:39:03Z</time>
      </trkpt>
      <trkpt lat="45.70791" lon="6.31253">
        <ele>837</ele>
        <time>2019-02-12T13:39:13Z</time>
      </trkpt>
      <trkpt lat="45.70791" lon="6.31253">
        <ele>837</ele>
        <time>2019-02-12T13:39:15Z</time>
      </trkpt>
      <trkpt lat="45.70791" lon="6.31253">
        <ele>837</ele>
        <time>2019-02-12T13:39:21Z</time>
      </trkpt>
      <trkpt lat="45.70793" lon="6.31252">
        <ele>842</ele>
        <time>2019-02-12T13:39:31Z</time>
      </trkpt>
      <trkpt lat="45.70794" lon="6.31253">
        <ele>844</ele>
        <time>2019-02-12T13:39:33Z</time>
      </trkpt>
      <trkpt lat="45.70794" lon="6.31252">
        <ele>844</ele>
        <time>2019-02-12T13:39:39Z</time>
      </trkpt>
      <trkpt lat="45.70794" lon="6.31252">
        <ele>844</ele>
        <time>2019-02-12T13:39:45Z</time>
      </trkpt>
      <trkpt lat="45.70794" lon="6.31252">
        <ele>844</ele>
        <time>2019-02-12T13:39:51Z</time>
      </trkpt>
      <trkpt lat="45.70794" lon="6.31252">
        <ele>844</ele>
        <time>2019-02-12T13:40:02Z</time>
      </trkpt>
      <trkpt lat="45.70793" lon="6.31253">
        <ele>843</ele>
        <time>2019-02-12T13:40:07Z</time>
      </trkpt>
      <trkpt lat="45.70793" lon="6.31253">
        <ele>843</ele>
        <time>2019-02-12T13:40:09Z</time>
      </trkpt>
      <trkpt lat="45.70794" lon="6.31253">
        <ele>843</ele>
        <time>2019-02-12T13:40:15Z</time>
      </trkpt>
      <trkpt lat="45.70794" lon="6.31253">
        <ele>843</ele>
        <time>2019-02-12T13:40:21Z</time>
      </trkpt>
      <trkpt lat="45.70793" lon="6.31253">
        <ele>842</ele>
        <time>2019-02-12T13:40:27Z</time>
      </trkpt>
      <trkpt lat="45.70793" lon="6.31253">
        <ele>842</ele>
        <time>2019-02-12T13:40:33Z</time>
      </trkpt>
      <trkpt lat="45.70793" lon="6.31253">
        <ele>842</ele>
        <time>2019-02-12T13:40:39Z</time>
      </trkpt>
      <trkpt lat="45.70792" lon="6.31243">
        <ele>841</ele>
        <time>2019-02-12T13:40:49Z</time>
      </trkpt>
      <trkpt lat="45.70793" lon="6.31242">
        <ele>842</ele>
        <time>2019-02-12T13:40:52Z</time>
      </trkpt>
      <trkpt lat="45.70795" lon="6.31248">
        <ele>842</ele>
        <time>2019-02-12T13:40:59Z</time>
      </trkpt>
      <trkpt lat="45.70795" lon="6.31247">
        <ele>844</ele>
        <time>2019-02-12T13:41:08Z</time>
      </trkpt>
      <trkpt lat="45.70796" lon="6.31247">
        <ele>843</ele>
        <time>2019-02-12T13:41:14Z</time>
      </trkpt>
      <trkpt lat="45.70795" lon="6.31247">
        <ele>841</ele>
        <time>2019-02-12T13:41:18Z</time>
      </trkpt>
      <trkpt lat="45.70796" lon="6.31245">
        <ele>838</ele>
        <time>2019-02-12T13:41:21Z</time>
      </trkpt>
      <trkpt lat="45.70799" lon="6.31242">
        <ele>835</ele>
        <time>2019-02-12T13:41:27Z</time>
      </trkpt>
      <trkpt lat="45.70799" lon="6.3124">
        <ele>834</ele>
        <time>2019-02-12T13:41:33Z</time>
      </trkpt>
      <trkpt lat="45.708" lon="6.3124">
        <ele>834</ele>
        <time>2019-02-12T13:41:39Z</time>
      </trkpt>
      <trkpt lat="45.708" lon="6.31239">
        <ele>835</ele>
        <time>2019-02-12T13:41:45Z</time>
      </trkpt>
      <trkpt lat="45.70804" lon="6.31234">
        <ele>833</ele>
        <time>2019-02-12T13:41:51Z</time>
      </trkpt>
      <trkpt lat="45.70807" lon="6.31233">
        <ele>831</ele>
        <time>2019-02-12T13:41:57Z</time>
      </trkpt>
      <trkpt lat="45.70812" lon="6.31233">
        <ele>833</ele>
        <time>2019-02-12T13:42:06Z</time>
      </trkpt>
      <trkpt lat="45.70815" lon="6.31232">
        <ele>832</ele>
        <time>2019-02-12T13:42:10Z</time>
      </trkpt>
      <trkpt lat="45.70816" lon="6.31233">
        <ele>832</ele>
        <time>2019-02-12T13:42:15Z</time>
      </trkpt>
      <trkpt lat="45.70816" lon="6.31232">
        <ele>833</ele>
        <time>2019-02-12T13:42:23Z</time>
      </trkpt>
      <trkpt lat="45.70818" lon="6.31233">
        <ele>833</ele>
        <time>2019-02-12T13:42:27Z</time>
      </trkpt>
      <trkpt lat="45.70826" lon="6.31238">
        <ele>833</ele>
        <time>2019-02-12T13:42:38Z</time>
      </trkpt>
      <trkpt lat="45.70829" lon="6.31237">
        <ele>838</ele>
        <time>2019-02-12T13:42:43Z</time>
      </trkpt>
      <trkpt lat="45.70834" lon="6.31237">
        <ele>836</ele>
        <time>2019-02-12T13:42:49Z</time>
      </trkpt>
      <trkpt lat="45.70837" lon="6.31237">
        <ele>836</ele>
        <time>2019-02-12T13:42:51Z</time>
      </trkpt>
      <trkpt lat="45.70842" lon="6.31239">
        <ele>835</ele>
        <time>2019-02-12T13:42:59Z</time>
      </trkpt>
      <trkpt lat="45.70844" lon="6.31239">
        <ele>834</ele>
        <time>2019-02-12T13:43:03Z</time>
      </trkpt>
      <trkpt lat="45.70845" lon="6.3124">
        <ele>834</ele>
        <time>2019-02-12T13:43:09Z</time>
      </trkpt>
      <trkpt lat="45.70852" lon="6.31237">
        <ele>837</ele>
        <time>2019-02-12T13:43:15Z</time>
      </trkpt>
      <trkpt lat="45.70858" lon="6.31237">
        <ele>837</ele>
        <time>2019-02-12T13:43:21Z</time>
      </trkpt>
      <trkpt lat="45.70863" lon="6.31238">
        <ele>838</ele>
        <time>2019-02-12T13:43:28Z</time>
      </trkpt>
      <trkpt lat="45.70867" lon="6.31241">
        <ele>836</ele>
        <time>2019-02-12T13:43:33Z</time>
      </trkpt>
      <trkpt lat="45.7087" lon="6.31243">
        <ele>835</ele>
        <time>2019-02-12T13:43:39Z</time>
      </trkpt>
      <trkpt lat="45.70875" lon="6.31245">
        <ele>840</ele>
        <time>2019-02-12T13:43:46Z</time>
      </trkpt>
      <trkpt lat="45.70874" lon="6.31241">
        <ele>841</ele>
        <time>2019-02-12T13:43:51Z</time>
      </trkpt>
      <trkpt lat="45.7088" lon="6.31239">
        <ele>842</ele>
        <time>2019-02-12T13:43:59Z</time>
      </trkpt>
      <trkpt lat="45.7088" lon="6.31239">
        <ele>842</ele>
        <time>2019-02-12T13:44:03Z</time>
      </trkpt>
      <trkpt lat="45.70884" lon="6.31243">
        <ele>844</ele>
        <time>2019-02-12T13:44:10Z</time>
      </trkpt>
      <trkpt lat="45.70886" lon="6.31247">
        <ele>842</ele>
        <time>2019-02-12T13:44:15Z</time>
      </trkpt>
      <trkpt lat="45.70893" lon="6.31256">
        <ele>839</ele>
        <time>2019-02-12T13:44:26Z</time>
      </trkpt>
      <trkpt lat="45.70896" lon="6.31259">
        <ele>841</ele>
        <time>2019-02-12T13:44:30Z</time>
      </trkpt>
      <trkpt lat="45.70898" lon="6.31262">
        <ele>842</ele>
        <time>2019-02-12T13:44:34Z</time>
      </trkpt>
      <trkpt lat="45.70901" lon="6.31265">
        <ele>842</ele>
        <time>2019-02-12T13:44:39Z</time>
      </trkpt>
      <trkpt lat="45.70904" lon="6.31269">
        <ele>843</ele>
        <time>2019-02-12T13:44:45Z</time>
      </trkpt>
      <trkpt lat="45.70906" lon="6.31273">
        <ele>842</ele>
        <time>2019-02-12T13:44:51Z</time>
      </trkpt>
      <trkpt lat="45.70911" lon="6.3128">
        <ele>841</ele>
        <time>2019-02-12T13:44:57Z</time>
      </trkpt>
      <trkpt lat="45.70913" lon="6.31285">
        <ele>841</ele>
        <time>2019-02-12T13:45:03Z</time>
      </trkpt>
      <trkpt lat="45.70913" lon="6.31292">
        <ele>842</ele>
        <time>2019-02-12T13:45:09Z</time>
      </trkpt>
      <trkpt lat="45.70913" lon="6.31307">
        <ele>850</ele>
        <time>2019-02-12T13:45:20Z</time>
      </trkpt>
      <trkpt lat="45.70914" lon="6.31314">
        <ele>847</ele>
        <time>2019-02-12T13:45:26Z</time>
      </trkpt>
      <trkpt lat="45.70915" lon="6.31317">
        <ele>845</ele>
        <time>2019-02-12T13:45:29Z</time>
      </trkpt>
      <trkpt lat="45.70915" lon="6.31319">
        <ele>845</ele>
        <time>2019-02-12T13:45:35Z</time>
      </trkpt>
      <trkpt lat="45.70915" lon="6.31321">
        <ele>846</ele>
        <time>2019-02-12T13:45:39Z</time>
      </trkpt>
      <trkpt lat="45.70913" lon="6.31324">
        <ele>845</ele>
        <time>2019-02-12T13:45:48Z</time>
      </trkpt>
      <trkpt lat="45.70913" lon="6.31322">
        <ele>847</ele>
        <time>2019-02-12T13:45:56Z</time>
      </trkpt>
      <trkpt lat="45.70913" lon="6.31323">
        <ele>847</ele>
        <time>2019-02-12T13:45:57Z</time>
      </trkpt>
      <trkpt lat="45.70913" lon="6.31322">
        <ele>847</ele>
        <time>2019-02-12T13:46:03Z</time>
      </trkpt>
      <trkpt lat="45.70913" lon="6.31322">
        <ele>847</ele>
        <time>2019-02-12T13:46:09Z</time>
      </trkpt>
      <trkpt lat="45.70913" lon="6.31322">
        <ele>847</ele>
        <time>2019-02-12T13:46:20Z</time>
      </trkpt>
      <trkpt lat="45.70913" lon="6.31322">
        <ele>847</ele>
        <time>2019-02-12T13:46:21Z</time>
      </trkpt>
      <trkpt lat="45.70913" lon="6.31322">
        <ele>847</ele>
        <time>2019-02-12T13:46:28Z</time>
      </trkpt>
      <trkpt lat="45.70913" lon="6.31319">
        <ele>846</ele>
        <time>2019-02-12T13:46:33Z</time>
      </trkpt>
      <trkpt lat="45.70912" lon="6.31319">
        <ele>845</ele>
        <time>2019-02-12T13:46:39Z</time>
      </trkpt>
      <trkpt lat="45.70913" lon="6.31315">
        <ele>843</ele>
        <time>2019-02-12T13:46:45Z</time>
      </trkpt>
      <trkpt lat="45.70913" lon="6.31307">
        <ele>842</ele>
        <time>2019-02-12T13:46:51Z</time>
      </trkpt>
      <trkpt lat="45.7091" lon="6.3129">
        <ele>846</ele>
        <time>2019-02-12T13:47:02Z</time>
      </trkpt>
      <trkpt lat="45.7091" lon="6.31286">
        <ele>843</ele>
        <time>2019-02-12T13:47:08Z</time>
      </trkpt>
      <trkpt lat="45.70912" lon="6.31286">
        <ele>844</ele>
        <time>2019-02-12T13:47:12Z</time>
      </trkpt>
      <trkpt lat="45.70913" lon="6.31286">
        <ele>845</ele>
        <time>2019-02-12T13:47:15Z</time>
      </trkpt>
      <trkpt lat="45.70913" lon="6.31282">
        <ele>844</ele>
        <time>2019-02-12T13:47:21Z</time>
      </trkpt>
      <trkpt lat="45.70915" lon="6.31278">
        <ele>846</ele>
        <time>2019-02-12T13:47:27Z</time>
      </trkpt>
      <trkpt lat="45.70915" lon="6.31272">
        <ele>847</ele>
        <time>2019-02-12T13:47:34Z</time>
      </trkpt>
      <trkpt lat="45.70915" lon="6.31272">
        <ele>847</ele>
        <time>2019-02-12T13:47:39Z</time>
      </trkpt>
      <trkpt lat="45.70916" lon="6.31265">
        <ele>848</ele>
        <time>2019-02-12T13:47:45Z</time>
      </trkpt>
      <trkpt lat="45.70917" lon="6.31261">
        <ele>848</ele>
        <time>2019-02-12T13:47:51Z</time>
      </trkpt>
      <trkpt lat="45.70917" lon="6.31251">
        <ele>842</ele>
        <time>2019-02-12T13:48:02Z</time>
      </trkpt>
      <trkpt lat="45.70917" lon="6.3125">
        <ele>842</ele>
        <time>2019-02-12T13:48:03Z</time>
      </trkpt>
      <trkpt lat="45.70919" lon="6.31245">
        <ele>841</ele>
        <time>2019-02-12T13:48:10Z</time>
      </trkpt>
      <trkpt lat="45.70918" lon="6.31241">
        <ele>842</ele>
        <time>2019-02-12T13:48:17Z</time>
      </trkpt>
      <trkpt lat="45.70922" lon="6.31239">
        <ele>842</ele>
        <time>2019-02-12T13:48:21Z</time>
      </trkpt>
      <trkpt lat="45.70931" lon="6.31241">
        <ele>840</ele>
        <time>2019-02-12T13:48:32Z</time>
      </trkpt>
      <trkpt lat="45.70931" lon="6.31241">
        <ele>840</ele>
        <time>2019-02-12T13:48:33Z</time>
      </trkpt>
      <trkpt lat="45.70933" lon="6.31242">
        <ele>839</ele>
        <time>2019-02-12T13:48:39Z</time>
      </trkpt>
      <trkpt lat="45.70935" lon="6.31237">
        <ele>842</ele>
        <time>2019-02-12T13:48:49Z</time>
      </trkpt>
      <trkpt lat="45.70939" lon="6.31236">
        <ele>841</ele>
        <time>2019-02-12T13:48:56Z</time>
      </trkpt>
      <trkpt lat="45.70939" lon="6.31236">
        <ele>841</ele>
        <time>2019-02-12T13:48:57Z</time>
      </trkpt>
      <trkpt lat="45.70945" lon="6.31229">
        <ele>845</ele>
        <time>2019-02-12T13:49:06Z</time>
      </trkpt>
      <trkpt lat="45.70948" lon="6.31226">
        <ele>847</ele>
        <time>2019-02-12T13:49:12Z</time>
      </trkpt>
      <trkpt lat="45.70954" lon="6.31218">
        <ele>848</ele>
        <time>2019-02-12T13:49:20Z</time>
      </trkpt>
      <trkpt lat="45.70955" lon="6.31216">
        <ele>848</ele>
        <time>2019-02-12T13:49:22Z</time>
      </trkpt>
      <trkpt lat="45.70958" lon="6.31213">
        <ele>850</ele>
        <time>2019-02-12T13:49:27Z</time>
      </trkpt>
      <trkpt lat="45.70959" lon="6.3121">
        <ele>849</ele>
        <time>2019-02-12T13:49:33Z</time>
      </trkpt>
      <trkpt lat="45.70963" lon="6.31212">
        <ele>846</ele>
        <time>2019-02-12T13:49:39Z</time>
      </trkpt>
      <trkpt lat="45.70969" lon="6.31203">
        <ele>844</ele>
        <time>2019-02-12T13:49:49Z</time>
      </trkpt>
      <trkpt lat="45.70973" lon="6.31199">
        <ele>843</ele>
        <time>2019-02-12T13:49:54Z</time>
      </trkpt>
      <trkpt lat="45.70975" lon="6.31196">
        <ele>843</ele>
        <time>2019-02-12T13:49:57Z</time>
      </trkpt>
      <trkpt lat="45.70979" lon="6.31191">
        <ele>842</ele>
        <time>2019-02-12T13:50:03Z</time>
      </trkpt>
      <trkpt lat="45.7099" lon="6.31182">
        <ele>841</ele>
        <time>2019-02-12T13:50:14Z</time>
      </trkpt>
      <trkpt lat="45.70992" lon="6.31174">
        <ele>845</ele>
        <time>2019-02-12T13:50:19Z</time>
      </trkpt>
      <trkpt lat="45.70997" lon="6.31172">
        <ele>840</ele>
        <time>2019-02-12T13:50:26Z</time>
      </trkpt>
      <trkpt lat="45.70997" lon="6.31171">
        <ele>840</ele>
        <time>2019-02-12T13:50:27Z</time>
      </trkpt>
      <trkpt lat="45.71" lon="6.31167">
        <ele>836</ele>
        <time>2019-02-12T13:50:33Z</time>
      </trkpt>
      <trkpt lat="45.71007" lon="6.31154">
        <ele>838</ele>
        <time>2019-02-12T13:50:41Z</time>
      </trkpt>
      <trkpt lat="45.71014" lon="6.31138">
        <ele>841</ele>
        <time>2019-02-12T13:50:50Z</time>
      </trkpt>
      <trkpt lat="45.71016" lon="6.31136">
        <ele>842</ele>
        <time>2019-02-12T13:50:52Z</time>
      </trkpt>
      <trkpt lat="45.71019" lon="6.31125">
        <ele>846</ele>
        <time>2019-02-12T13:50:57Z</time>
      </trkpt>
      <trkpt lat="45.71025" lon="6.31119">
        <ele>846</ele>
        <time>2019-02-12T13:51:03Z</time>
      </trkpt>
      <trkpt lat="45.7103" lon="6.31109">
        <ele>848</ele>
        <time>2019-02-12T13:51:09Z</time>
      </trkpt>
      <trkpt lat="45.71034" lon="6.31112">
        <ele>843</ele>
        <time>2019-02-12T13:51:15Z</time>
      </trkpt>
      <trkpt lat="45.71037" lon="6.31117">
        <ele>839</ele>
        <time>2019-02-12T13:51:21Z</time>
      </trkpt>
      <trkpt lat="45.71043" lon="6.31111">
        <ele>838</ele>
        <time>2019-02-12T13:51:32Z</time>
      </trkpt>
      <trkpt lat="45.71047" lon="6.31109">
        <ele>839</ele>
        <time>2019-02-12T13:51:36Z</time>
      </trkpt>
      <trkpt lat="45.7105" lon="6.31109">
        <ele>838</ele>
        <time>2019-02-12T13:51:39Z</time>
      </trkpt>
      <trkpt lat="45.7105" lon="6.31109">
        <ele>837</ele>
        <time>2019-02-12T13:51:50Z</time>
      </trkpt>
      <trkpt lat="45.7105" lon="6.31109">
        <ele>837</ele>
        <time>2019-02-12T13:51:51Z</time>
      </trkpt>
      <trkpt lat="45.7105" lon="6.31107">
        <ele>839</ele>
        <time>2019-02-12T13:51:57Z</time>
      </trkpt>
      <trkpt lat="45.7105" lon="6.31106">
        <ele>840</ele>
        <time>2019-02-12T13:52:03Z</time>
      </trkpt>
      <trkpt lat="45.71049" lon="6.31105">
        <ele>840</ele>
        <time>2019-02-12T13:52:09Z</time>
      </trkpt>
      <trkpt lat="45.71048" lon="6.31103">
        <ele>841</ele>
        <time>2019-02-12T13:52:15Z</time>
      </trkpt>
      <trkpt lat="45.71048" lon="6.31104">
        <ele>839</ele>
        <time>2019-02-12T13:52:25Z</time>
      </trkpt>
      <trkpt lat="45.71047" lon="6.31103">
        <ele>840</ele>
        <time>2019-02-12T13:52:27Z</time>
      </trkpt>
      <trkpt lat="45.71048" lon="6.31104">
        <ele>841</ele>
        <time>2019-02-12T13:52:33Z</time>
      </trkpt>
      <trkpt lat="45.71048" lon="6.31104">
        <ele>841</ele>
        <time>2019-02-12T13:52:39Z</time>
      </trkpt>
      <trkpt lat="45.71053" lon="6.31111">
        <ele>838</ele>
        <time>2019-02-12T13:52:50Z</time>
      </trkpt>
      <trkpt lat="45.71059" lon="6.31114">
        <ele>837</ele>
        <time>2019-02-12T13:52:54Z</time>
      </trkpt>
      <trkpt lat="45.71068" lon="6.31113">
        <ele>837</ele>
        <time>2019-02-12T13:53:01Z</time>
      </trkpt>
      <trkpt lat="45.7107" lon="6.31112">
        <ele>838</ele>
        <time>2019-02-12T13:53:03Z</time>
      </trkpt>
      <trkpt lat="45.71076" lon="6.31111">
        <ele>836</ele>
        <time>2019-02-12T13:53:10Z</time>
      </trkpt>
      <trkpt lat="45.71081" lon="6.31112">
        <ele>834</ele>
        <time>2019-02-12T13:53:15Z</time>
      </trkpt>
      <trkpt lat="45.71087" lon="6.3111">
        <ele>835</ele>
        <time>2019-02-12T13:53:22Z</time>
      </trkpt>
      <trkpt lat="45.71094" lon="6.31108">
        <ele>836</ele>
        <time>2019-02-12T13:53:29Z</time>
      </trkpt>
      <trkpt lat="45.71098" lon="6.31106">
        <ele>838</ele>
        <time>2019-02-12T13:53:33Z</time>
      </trkpt>
      <trkpt lat="45.71102" lon="6.31105">
        <ele>838</ele>
        <time>2019-02-12T13:53:39Z</time>
      </trkpt>
      <trkpt lat="45.71107" lon="6.31104">
        <ele>840</ele>
        <time>2019-02-12T13:53:45Z</time>
      </trkpt>
      <trkpt lat="45.71111" lon="6.31113">
        <ele>834</ele>
        <time>2019-02-12T13:53:51Z</time>
      </trkpt>
      <trkpt lat="45.71116" lon="6.31115">
        <ele>835</ele>
        <time>2019-02-12T13:53:57Z</time>
      </trkpt>
      <trkpt lat="45.71121" lon="6.31112">
        <ele>837</ele>
        <time>2019-02-12T13:54:03Z</time>
      </trkpt>
      <trkpt lat="45.71127" lon="6.31107">
        <ele>840</ele>
        <time>2019-02-12T13:54:10Z</time>
      </trkpt>
      <trkpt lat="45.71133" lon="6.311">
        <ele>844</ele>
        <time>2019-02-12T13:54:15Z</time>
      </trkpt>
      <trkpt lat="45.7114" lon="6.31093">
        <ele>848</ele>
        <time>2019-02-12T13:54:24Z</time>
      </trkpt>
      <trkpt lat="45.71143" lon="6.3109">
        <ele>849</ele>
        <time>2019-02-12T13:54:27Z</time>
      </trkpt>
      <trkpt lat="45.71149" lon="6.31083">
        <ele>850</ele>
        <time>2019-02-12T13:54:34Z</time>
      </trkpt>
      <trkpt lat="45.71155" lon="6.31081">
        <ele>848</ele>
        <time>2019-02-12T13:54:44Z</time>
      </trkpt>
      <trkpt lat="45.71156" lon="6.31081">
        <ele>847</ele>
        <time>2019-02-12T13:54:45Z</time>
      </trkpt>
      <trkpt lat="45.71164" lon="6.31079">
        <ele>846</ele>
        <time>2019-02-12T13:54:55Z</time>
      </trkpt>
      <trkpt lat="45.71165" lon="6.3108">
        <ele>844</ele>
        <time>2019-02-12T13:54:57Z</time>
      </trkpt>
      <trkpt lat="45.71172" lon="6.31083">
        <ele>843</ele>
        <time>2019-02-12T13:55:03Z</time>
      </trkpt>
      <trkpt lat="45.71181" lon="6.31085">
        <ele>842</ele>
        <time>2019-02-12T13:55:12Z</time>
      </trkpt>
      <trkpt lat="45.71188" lon="6.31094">
        <ele>833</ele>
        <time>2019-02-12T13:55:20Z</time>
      </trkpt>
      <trkpt lat="45.71189" lon="6.31092">
        <ele>833</ele>
        <time>2019-02-12T13:55:21Z</time>
      </trkpt>
      <trkpt lat="45.71197" lon="6.31087">
        <ele>833</ele>
        <time>2019-02-12T13:55:31Z</time>
      </trkpt>
      <trkpt lat="45.71199" lon="6.31087">
        <ele>833</ele>
        <time>2019-02-12T13:55:33Z</time>
      </trkpt>
      <trkpt lat="45.71204" lon="6.31087">
        <ele>830</ele>
        <time>2019-02-12T13:55:39Z</time>
      </trkpt>
      <trkpt lat="45.7121" lon="6.31084">
        <ele>829</ele>
        <time>2019-02-12T13:55:47Z</time>
      </trkpt>
      <trkpt lat="45.71212" lon="6.3108">
        <ele>829</ele>
        <time>2019-02-12T13:55:51Z</time>
      </trkpt>
      <trkpt lat="45.71216" lon="6.31075">
        <ele>829</ele>
        <time>2019-02-12T13:55:57Z</time>
      </trkpt>
      <trkpt lat="45.71222" lon="6.31073">
        <ele>829</ele>
        <time>2019-02-12T13:56:03Z</time>
      </trkpt>
      <trkpt lat="45.71227" lon="6.31068">
        <ele>830</ele>
        <time>2019-02-12T13:56:09Z</time>
      </trkpt>
      <trkpt lat="45.71231" lon="6.31065">
        <ele>829</ele>
        <time>2019-02-12T13:56:15Z</time>
      </trkpt>
      <trkpt lat="45.71235" lon="6.31062">
        <ele>828</ele>
        <time>2019-02-12T13:56:21Z</time>
      </trkpt>
      <trkpt lat="45.71237" lon="6.31059">
        <ele>829</ele>
        <time>2019-02-12T13:56:27Z</time>
      </trkpt>
      <trkpt lat="45.71238" lon="6.31058">
        <ele>828</ele>
        <time>2019-02-12T13:56:33Z</time>
      </trkpt>
      <trkpt lat="45.71244" lon="6.31051">
        <ele>830</ele>
        <time>2019-02-12T13:56:40Z</time>
      </trkpt>
      <trkpt lat="45.71247" lon="6.31049">
        <ele>830</ele>
        <time>2019-02-12T13:56:45Z</time>
      </trkpt>
      <trkpt lat="45.71251" lon="6.31046">
        <ele>837</ele>
        <time>2019-02-12T13:56:56Z</time>
      </trkpt>
      <trkpt lat="45.71259" lon="6.31042">
        <ele>837</ele>
        <time>2019-02-12T13:57:02Z</time>
      </trkpt>
      <trkpt lat="45.71261" lon="6.31041">
        <ele>835</ele>
        <time>2019-02-12T13:57:04Z</time>
      </trkpt>
      <trkpt lat="45.71266" lon="6.31049">
        <ele>829</ele>
        <time>2019-02-12T13:57:14Z</time>
      </trkpt>
      <trkpt lat="45.71267" lon="6.31051">
        <ele>831</ele>
        <time>2019-02-12T13:57:16Z</time>
      </trkpt>
      <trkpt lat="45.71268" lon="6.31061">
        <ele>834</ele>
        <time>2019-02-12T13:57:23Z</time>
      </trkpt>
      <trkpt lat="45.71266" lon="6.31065">
        <ele>834</ele>
        <time>2019-02-12T13:57:28Z</time>
      </trkpt>
      <trkpt lat="45.71262" lon="6.31066">
        <ele>834</ele>
        <time>2019-02-12T13:57:33Z</time>
      </trkpt>
      <trkpt lat="45.71257" lon="6.31065">
        <ele>833</ele>
        <time>2019-02-12T13:57:39Z</time>
      </trkpt>
      <trkpt lat="45.71249" lon="6.31062">
        <ele>832</ele>
        <time>2019-02-12T13:57:47Z</time>
      </trkpt>
      <trkpt lat="45.7124" lon="6.31064">
        <ele>837</ele>
        <time>2019-02-12T13:57:56Z</time>
      </trkpt>
      <trkpt lat="45.7124" lon="6.31064">
        <ele>837</ele>
        <time>2019-02-12T13:57:57Z</time>
      </trkpt>
      <trkpt lat="45.71242" lon="6.31059">
        <ele>838</ele>
        <time>2019-02-12T13:58:03Z</time>
      </trkpt>
      <trkpt lat="45.71245" lon="6.31055">
        <ele>835</ele>
        <time>2019-02-12T13:58:09Z</time>
      </trkpt>
      <trkpt lat="45.71248" lon="6.31052">
        <ele>833</ele>
        <time>2019-02-12T13:58:16Z</time>
      </trkpt>
      <trkpt lat="45.71249" lon="6.3105">
        <ele>833</ele>
        <time>2019-02-12T13:58:21Z</time>
      </trkpt>
      <trkpt lat="45.71251" lon="6.31047">
        <ele>834</ele>
        <time>2019-02-12T13:58:29Z</time>
      </trkpt>
      <trkpt lat="45.71251" lon="6.31047">
        <ele>834</ele>
        <time>2019-02-12T13:58:33Z</time>
      </trkpt>
      <trkpt lat="45.71251" lon="6.31046">
        <ele>834</ele>
        <time>2019-02-12T13:58:44Z</time>
      </trkpt>
      <trkpt lat="45.71256" lon="6.31043">
        <ele>825</ele>
        <time>2019-02-12T13:58:50Z</time>
      </trkpt>
      <trkpt lat="45.71257" lon="6.31042">
        <ele>824</ele>
        <time>2019-02-12T13:58:51Z</time>
      </trkpt>
      <trkpt lat="45.71255" lon="6.31041">
        <ele>826</ele>
        <time>2019-02-12T13:58:57Z</time>
      </trkpt>
      <trkpt lat="45.71255" lon="6.3104">
        <ele>825</ele>
        <time>2019-02-12T13:59:03Z</time>
      </trkpt>
      <trkpt lat="45.71255" lon="6.3104">
        <ele>825</ele>
        <time>2019-02-12T13:59:12Z</time>
      </trkpt>
      <trkpt lat="45.71256" lon="6.31041">
        <ele>826</ele>
        <time>2019-02-12T13:59:15Z</time>
      </trkpt>
      <trkpt lat="45.7126" lon="6.31048">
        <ele>831</ele>
        <time>2019-02-12T13:59:24Z</time>
      </trkpt>
      <trkpt lat="45.7126" lon="6.31039">
        <ele>829</ele>
        <time>2019-02-12T13:59:31Z</time>
      </trkpt>
      <trkpt lat="45.7126" lon="6.31039">
        <ele>831</ele>
        <time>2019-02-12T13:59:33Z</time>
      </trkpt>
      <trkpt lat="45.71265" lon="6.31037">
        <ele>835</ele>
        <time>2019-02-12T13:59:44Z</time>
      </trkpt>
      <trkpt lat="45.71267" lon="6.31034">
        <ele>833</ele>
        <time>2019-02-12T13:59:47Z</time>
      </trkpt>
      <trkpt lat="45.71268" lon="6.3103">
        <ele>830</ele>
        <time>2019-02-12T13:59:51Z</time>
      </trkpt>
      <trkpt lat="45.71269" lon="6.31025">
        <ele>831</ele>
        <time>2019-02-12T13:59:57Z</time>
      </trkpt>
      <trkpt lat="45.71272" lon="6.31015">
        <ele>828</ele>
        <time>2019-02-12T14:00:08Z</time>
      </trkpt>
      <trkpt lat="45.71271" lon="6.31014">
        <ele>829</ele>
        <time>2019-02-12T14:00:09Z</time>
      </trkpt>
      <trkpt lat="45.71275" lon="6.31007">
        <ele>822</ele>
        <time>2019-02-12T14:00:20Z</time>
      </trkpt>
      <trkpt lat="45.71275" lon="6.31007">
        <ele>822</ele>
        <time>2019-02-12T14:00:21Z</time>
      </trkpt>
      <trkpt lat="45.71277" lon="6.31005">
        <ele>825</ele>
        <time>2019-02-12T14:00:27Z</time>
      </trkpt>
      <trkpt lat="45.7128" lon="6.31004">
        <ele>826</ele>
        <time>2019-02-12T14:00:33Z</time>
      </trkpt>
      <trkpt lat="45.71283" lon="6.31002">
        <ele>829</ele>
        <time>2019-02-12T14:00:39Z</time>
      </trkpt>
      <trkpt lat="45.71285" lon="6.30998">
        <ele>830</ele>
        <time>2019-02-12T14:00:45Z</time>
      </trkpt>
      <trkpt lat="45.71288" lon="6.30996">
        <ele>828</ele>
        <time>2019-02-12T14:00:51Z</time>
      </trkpt>
      <trkpt lat="45.71293" lon="6.30993">
        <ele>827</ele>
        <time>2019-02-12T14:00:57Z</time>
      </trkpt>
      <trkpt lat="45.71297" lon="6.3099">
        <ele>825</ele>
        <time>2019-02-12T14:01:04Z</time>
      </trkpt>
      <trkpt lat="45.71302" lon="6.30985">
        <ele>824</ele>
        <time>2019-02-12T14:01:13Z</time>
      </trkpt>
      <trkpt lat="45.71307" lon="6.30979">
        <ele>824</ele>
        <time>2019-02-12T14:01:18Z</time>
      </trkpt>
      <trkpt lat="45.71311" lon="6.30976">
        <ele>823</ele>
        <time>2019-02-12T14:01:22Z</time>
      </trkpt>
      <trkpt lat="45.71315" lon="6.30969">
        <ele>824</ele>
        <time>2019-02-12T14:01:27Z</time>
      </trkpt>
      <trkpt lat="45.71318" lon="6.30964">
        <ele>823</ele>
        <time>2019-02-12T14:01:33Z</time>
      </trkpt>
      <trkpt lat="45.7132" lon="6.30954">
        <ele>823</ele>
        <time>2019-02-12T14:01:41Z</time>
      </trkpt>
      <trkpt lat="45.71321" lon="6.30947">
        <ele>824</ele>
        <time>2019-02-12T14:01:46Z</time>
      </trkpt>
      <trkpt lat="45.71322" lon="6.3094">
        <ele>826</ele>
        <time>2019-02-12T14:01:51Z</time>
      </trkpt>
      <trkpt lat="45.71324" lon="6.30933">
        <ele>827</ele>
        <time>2019-02-12T14:01:57Z</time>
      </trkpt>
      <trkpt lat="45.7133" lon="6.30927">
        <ele>827</ele>
        <time>2019-02-12T14:02:04Z</time>
      </trkpt>
      <trkpt lat="45.71334" lon="6.30928">
        <ele>828</ele>
        <time>2019-02-12T14:02:11Z</time>
      </trkpt>
      <trkpt lat="45.71338" lon="6.30936">
        <ele>827</ele>
        <time>2019-02-12T14:02:18Z</time>
      </trkpt>
      <trkpt lat="45.71344" lon="6.30935">
        <ele>827</ele>
        <time>2019-02-12T14:02:24Z</time>
      </trkpt>
      <trkpt lat="45.71347" lon="6.30935">
        <ele>827</ele>
        <time>2019-02-12T14:02:27Z</time>
      </trkpt>
      <trkpt lat="45.71347" lon="6.30937">
        <ele>826</ele>
        <time>2019-02-12T14:02:33Z</time>
      </trkpt>
      <trkpt lat="45.71346" lon="6.30937">
        <ele>825</ele>
        <time>2019-02-12T14:02:41Z</time>
      </trkpt>
      <trkpt lat="45.71347" lon="6.30937">
        <ele>825</ele>
        <time>2019-02-12T14:02:48Z</time>
      </trkpt>
      <trkpt lat="45.7135" lon="6.30935">
        <ele>824</ele>
        <time>2019-02-12T14:02:51Z</time>
      </trkpt>
      <trkpt lat="45.71355" lon="6.30933">
        <ele>823</ele>
        <time>2019-02-12T14:02:57Z</time>
      </trkpt>
      <trkpt lat="45.71361" lon="6.30934">
        <ele>823</ele>
        <time>2019-02-12T14:03:03Z</time>
      </trkpt>
      <trkpt lat="45.71366" lon="6.30932">
        <ele>825</ele>
        <time>2019-02-12T14:03:09Z</time>
      </trkpt>
      <trkpt lat="45.71371" lon="6.30931">
        <ele>825</ele>
        <time>2019-02-12T14:03:15Z</time>
      </trkpt>
      <trkpt lat="45.71376" lon="6.30931">
        <ele>826</ele>
        <time>2019-02-12T14:03:21Z</time>
      </trkpt>
      <trkpt lat="45.7138" lon="6.30933">
        <ele>827</ele>
        <time>2019-02-12T14:03:27Z</time>
      </trkpt>
      <trkpt lat="45.71385" lon="6.30934">
        <ele>828</ele>
        <time>2019-02-12T14:03:34Z</time>
      </trkpt>
      <trkpt lat="45.71389" lon="6.30933">
        <ele>827</ele>
        <time>2019-02-12T14:03:41Z</time>
      </trkpt>
      <trkpt lat="45.71389" lon="6.30934">
        <ele>827</ele>
        <time>2019-02-12T14:03:45Z</time>
      </trkpt>
      <trkpt lat="45.71391" lon="6.30936">
        <ele>827</ele>
        <time>2019-02-12T14:03:51Z</time>
      </trkpt>
      <trkpt lat="45.71394" lon="6.30938">
        <ele>828</ele>
        <time>2019-02-12T14:03:57Z</time>
      </trkpt>
      <trkpt lat="45.71397" lon="6.30947">
        <ele>825</ele>
        <time>2019-02-12T14:04:06Z</time>
      </trkpt>
      <trkpt lat="45.71397" lon="6.30948">
        <ele>826</ele>
        <time>2019-02-12T14:04:09Z</time>
      </trkpt>
      <trkpt lat="45.71399" lon="6.30952">
        <ele>824</ele>
        <time>2019-02-12T14:04:19Z</time>
      </trkpt>
      <trkpt lat="45.71399" lon="6.30954">
        <ele>825</ele>
        <time>2019-02-12T14:04:26Z</time>
      </trkpt>
      <trkpt lat="45.71401" lon="6.30955">
        <ele>825</ele>
        <time>2019-02-12T14:04:29Z</time>
      </trkpt>
      <trkpt lat="45.71402" lon="6.30956">
        <ele>826</ele>
        <time>2019-02-12T14:04:33Z</time>
      </trkpt>
      <trkpt lat="45.71404" lon="6.30956">
        <ele>828</ele>
        <time>2019-02-12T14:04:39Z</time>
      </trkpt>
      <trkpt lat="45.71405" lon="6.30958">
        <ele>831</ele>
        <time>2019-02-12T14:04:45Z</time>
      </trkpt>
      <trkpt lat="45.71411" lon="6.30962">
        <ele>832</ele>
        <time>2019-02-12T14:04:52Z</time>
      </trkpt>
      <trkpt lat="45.71412" lon="6.30966">
        <ele>834</ele>
        <time>2019-02-12T14:04:59Z</time>
      </trkpt>
      <trkpt lat="45.71416" lon="6.3097">
        <ele>837</ele>
        <time>2019-02-12T14:05:03Z</time>
      </trkpt>
      <trkpt lat="45.71421" lon="6.30973">
        <ele>835</ele>
        <time>2019-02-12T14:05:09Z</time>
      </trkpt>
      <trkpt lat="45.71423" lon="6.30976">
        <ele>834</ele>
        <time>2019-02-12T14:05:15Z</time>
      </trkpt>
      <trkpt lat="45.7143" lon="6.30988">
        <ele>831</ele>
        <time>2019-02-12T14:05:25Z</time>
      </trkpt>
      <trkpt lat="45.71433" lon="6.30989">
        <ele>831</ele>
        <time>2019-02-12T14:05:27Z</time>
      </trkpt>
      <trkpt lat="45.71436" lon="6.30995">
        <ele>830</ele>
        <time>2019-02-12T14:05:33Z</time>
      </trkpt>
      <trkpt lat="45.71444" lon="6.31002">
        <ele>836</ele>
        <time>2019-02-12T14:05:42Z</time>
      </trkpt>
      <trkpt lat="45.71448" lon="6.31001">
        <ele>834</ele>
        <time>2019-02-12T14:05:49Z</time>
      </trkpt>
      <trkpt lat="45.71449" lon="6.31004">
        <ele>836</ele>
        <time>2019-02-12T14:05:51Z</time>
      </trkpt>
      <trkpt lat="45.71454" lon="6.3101">
        <ele>836</ele>
        <time>2019-02-12T14:05:58Z</time>
      </trkpt>
      <trkpt lat="45.71459" lon="6.31016">
        <ele>839</ele>
        <time>2019-02-12T14:06:03Z</time>
      </trkpt>
      <trkpt lat="45.71463" lon="6.31019">
        <ele>843</ele>
        <time>2019-02-12T14:06:09Z</time>
      </trkpt>
      <trkpt lat="45.71472" lon="6.31026">
        <ele>842</ele>
        <time>2019-02-12T14:06:19Z</time>
      </trkpt>
      <trkpt lat="45.71472" lon="6.31028">
        <ele>843</ele>
        <time>2019-02-12T14:06:21Z</time>
      </trkpt>
      <trkpt lat="45.7148" lon="6.31029">
        <ele>837</ele>
        <time>2019-02-12T14:06:30Z</time>
      </trkpt>
      <trkpt lat="45.71482" lon="6.31028">
        <ele>838</ele>
        <time>2019-02-12T14:06:35Z</time>
      </trkpt>
      <trkpt lat="45.71484" lon="6.31032">
        <ele>840</ele>
        <time>2019-02-12T14:06:39Z</time>
      </trkpt>
      <trkpt lat="45.71491" lon="6.31045">
        <ele>839</ele>
        <time>2019-02-12T14:06:50Z</time>
      </trkpt>
      <trkpt lat="45.71491" lon="6.31047">
        <ele>839</ele>
        <time>2019-02-12T14:06:51Z</time>
      </trkpt>
      <trkpt lat="45.71497" lon="6.3105">
        <ele>836</ele>
        <time>2019-02-12T14:06:57Z</time>
      </trkpt>
      <trkpt lat="45.71497" lon="6.31058">
        <ele>837</ele>
        <time>2019-02-12T14:07:03Z</time>
      </trkpt>
      <trkpt lat="45.71504" lon="6.31062">
        <ele>833</ele>
        <time>2019-02-12T14:07:10Z</time>
      </trkpt>
      <trkpt lat="45.71509" lon="6.31063">
        <ele>830</ele>
        <time>2019-02-12T14:07:15Z</time>
      </trkpt>
      <trkpt lat="45.7152" lon="6.31067">
        <ele>834</ele>
        <time>2019-02-12T14:07:26Z</time>
      </trkpt>
      <trkpt lat="45.71523" lon="6.31067">
        <ele>834</ele>
        <time>2019-02-12T14:07:29Z</time>
      </trkpt>
      <trkpt lat="45.71526" lon="6.31072">
        <ele>832</ele>
        <time>2019-02-12T14:07:33Z</time>
      </trkpt>
      <trkpt lat="45.71528" lon="6.31081">
        <ele>835</ele>
        <time>2019-02-12T14:07:39Z</time>
      </trkpt>
      <trkpt lat="45.71532" lon="6.31086">
        <ele>833</ele>
        <time>2019-02-12T14:07:46Z</time>
      </trkpt>
      <trkpt lat="45.71536" lon="6.31094">
        <ele>833</ele>
        <time>2019-02-12T14:07:53Z</time>
      </trkpt>
      <trkpt lat="45.71538" lon="6.31106">
        <ele>833</ele>
        <time>2019-02-12T14:08:01Z</time>
      </trkpt>
      <trkpt lat="45.7154" lon="6.31106">
        <ele>831</ele>
        <time>2019-02-12T14:08:03Z</time>
      </trkpt>
      <trkpt lat="45.71545" lon="6.31114">
        <ele>828</ele>
        <time>2019-02-12T14:08:12Z</time>
      </trkpt>
      <trkpt lat="45.71547" lon="6.31118">
        <ele>828</ele>
        <time>2019-02-12T14:08:20Z</time>
      </trkpt>
      <trkpt lat="45.71546" lon="6.31118">
        <ele>828</ele>
        <time>2019-02-12T14:08:21Z</time>
      </trkpt>
      <trkpt lat="45.71543" lon="6.3112">
        <ele>830</ele>
        <time>2019-02-12T14:08:27Z</time>
      </trkpt>
      <trkpt lat="45.71544" lon="6.31122">
        <ele>829</ele>
        <time>2019-02-12T14:08:34Z</time>
      </trkpt>
      <trkpt lat="45.71546" lon="6.31132">
        <ele>828</ele>
        <time>2019-02-12T14:08:39Z</time>
      </trkpt>
      <trkpt lat="45.71555" lon="6.31139">
        <ele>823</ele>
        <time>2019-02-12T14:08:45Z</time>
      </trkpt>
      <trkpt lat="45.71562" lon="6.31145">
        <ele>822</ele>
        <time>2019-02-12T14:08:53Z</time>
      </trkpt>
      <trkpt lat="45.71565" lon="6.31149">
        <ele>822</ele>
        <time>2019-02-12T14:08:57Z</time>
      </trkpt>
      <trkpt lat="45.71569" lon="6.31151">
        <ele>822</ele>
        <time>2019-02-12T14:09:04Z</time>
      </trkpt>
      <trkpt lat="45.7157" lon="6.31151">
        <ele>820</ele>
        <time>2019-02-12T14:09:10Z</time>
      </trkpt>
      <trkpt lat="45.71572" lon="6.31153">
        <ele>817</ele>
        <time>2019-02-12T14:09:15Z</time>
      </trkpt>
      <trkpt lat="45.71576" lon="6.31161">
        <ele>817</ele>
        <time>2019-02-12T14:09:26Z</time>
      </trkpt>
      <trkpt lat="45.71577" lon="6.31161">
        <ele>818</ele>
        <time>2019-02-12T14:09:27Z</time>
      </trkpt>
      <trkpt lat="45.71579" lon="6.31168">
        <ele>817</ele>
        <time>2019-02-12T14:09:35Z</time>
      </trkpt>
      <trkpt lat="45.71579" lon="6.31169">
        <ele>818</ele>
        <time>2019-02-12T14:09:41Z</time>
      </trkpt>
      <trkpt lat="45.7158" lon="6.31172">
        <ele>819</ele>
        <time>2019-02-12T14:09:45Z</time>
      </trkpt>
      <trkpt lat="45.71584" lon="6.31181">
        <ele>819</ele>
        <time>2019-02-12T14:09:51Z</time>
      </trkpt>
      <trkpt lat="45.71587" lon="6.31192">
        <ele>823</ele>
        <time>2019-02-12T14:09:58Z</time>
      </trkpt>
      <trkpt lat="45.71587" lon="6.31199">
        <ele>823</ele>
        <time>2019-02-12T14:10:03Z</time>
      </trkpt>
      <trkpt lat="45.7159" lon="6.31209">
        <ele>822</ele>
        <time>2019-02-12T14:10:11Z</time>
      </trkpt>
      <trkpt lat="45.71593" lon="6.31221">
        <ele>822</ele>
        <time>2019-02-12T14:10:20Z</time>
      </trkpt>
      <trkpt lat="45.71592" lon="6.31222">
        <ele>823</ele>
        <time>2019-02-12T14:10:21Z</time>
      </trkpt>
      <trkpt lat="45.71592" lon="6.31224">
        <ele>826</ele>
        <time>2019-02-12T14:10:27Z</time>
      </trkpt>
      <trkpt lat="45.7159" lon="6.3122">
        <ele>822</ele>
        <time>2019-02-12T14:10:34Z</time>
      </trkpt>
      <trkpt lat="45.71587" lon="6.3122">
        <ele>821</ele>
        <time>2019-02-12T14:10:39Z</time>
      </trkpt>
      <trkpt lat="45.71583" lon="6.31217">
        <ele>819</ele>
        <time>2019-02-12T14:10:45Z</time>
      </trkpt>
      <trkpt lat="45.71582" lon="6.31219">
        <ele>821</ele>
        <time>2019-02-12T14:10:56Z</time>
      </trkpt>
      <trkpt lat="45.71582" lon="6.31219">
        <ele>820</ele>
        <time>2019-02-12T14:10:57Z</time>
      </trkpt>
      <trkpt lat="45.71582" lon="6.31219">
        <ele>821</ele>
        <time>2019-02-12T14:11:03Z</time>
      </trkpt>
      <trkpt lat="45.71583" lon="6.31221">
        <ele>822</ele>
        <time>2019-02-12T14:11:09Z</time>
      </trkpt>
      <trkpt lat="45.71582" lon="6.31223">
        <ele>823</ele>
        <time>2019-02-12T14:11:15Z</time>
      </trkpt>
      <trkpt lat="45.71577" lon="6.31227">
        <ele>829</ele>
        <time>2019-02-12T14:11:21Z</time>
      </trkpt>
      <trkpt lat="45.71573" lon="6.31236">
        <ele>826</ele>
        <time>2019-02-12T14:11:29Z</time>
      </trkpt>
      <trkpt lat="45.71567" lon="6.31243">
        <ele>828</ele>
        <time>2019-02-12T14:11:35Z</time>
      </trkpt>
      <trkpt lat="45.71564" lon="6.31247">
        <ele>828</ele>
        <time>2019-02-12T14:11:39Z</time>
      </trkpt>
      <trkpt lat="45.71559" lon="6.3125">
        <ele>827</ele>
        <time>2019-02-12T14:11:45Z</time>
      </trkpt>
      <trkpt lat="45.71556" lon="6.31255">
        <ele>826</ele>
        <time>2019-02-12T14:11:51Z</time>
      </trkpt>
      <trkpt lat="45.71553" lon="6.31261">
        <ele>822</ele>
        <time>2019-02-12T14:11:57Z</time>
      </trkpt>
      <trkpt lat="45.71551" lon="6.31266">
        <ele>821</ele>
        <time>2019-02-12T14:12:03Z</time>
      </trkpt>
      <trkpt lat="45.71546" lon="6.31269">
        <ele>820</ele>
        <time>2019-02-12T14:12:10Z</time>
      </trkpt>
      <trkpt lat="45.71544" lon="6.31271">
        <ele>821</ele>
        <time>2019-02-12T14:12:15Z</time>
      </trkpt>
      <trkpt lat="45.71539" lon="6.31274">
        <ele>820</ele>
        <time>2019-02-12T14:12:22Z</time>
      </trkpt>
      <trkpt lat="45.71536" lon="6.31275">
        <ele>821</ele>
        <time>2019-02-12T14:12:31Z</time>
      </trkpt>
      <trkpt lat="45.71535" lon="6.31276">
        <ele>820</ele>
        <time>2019-02-12T14:12:38Z</time>
      </trkpt>
      <trkpt lat="45.71535" lon="6.31276">
        <ele>820</ele>
        <time>2019-02-12T14:12:39Z</time>
      </trkpt>
      <trkpt lat="45.71531" lon="6.31279">
        <ele>823</ele>
        <time>2019-02-12T14:12:47Z</time>
      </trkpt>
      <trkpt lat="45.71527" lon="6.31281">
        <ele>826</ele>
        <time>2019-02-12T14:12:54Z</time>
      </trkpt>
      <trkpt lat="45.71526" lon="6.31281">
        <ele>825</ele>
        <time>2019-02-12T14:12:57Z</time>
      </trkpt>
      <trkpt lat="45.71525" lon="6.31283">
        <ele>829</ele>
        <time>2019-02-12T14:13:04Z</time>
      </trkpt>
      <trkpt lat="45.71525" lon="6.31283">
        <ele>829</ele>
        <time>2019-02-12T14:13:11Z</time>
      </trkpt>
      <trkpt lat="45.71519" lon="6.31282">
        <ele>828</ele>
        <time>2019-02-12T14:13:20Z</time>
      </trkpt>
      <trkpt lat="45.71519" lon="6.31282">
        <ele>828</ele>
        <time>2019-02-12T14:13:21Z</time>
      </trkpt>
      <trkpt lat="45.71511" lon="6.31284">
        <ele>823</ele>
        <time>2019-02-12T14:13:30Z</time>
      </trkpt>
      <trkpt lat="45.71507" lon="6.31286">
        <ele>827</ele>
        <time>2019-02-12T14:13:33Z</time>
      </trkpt>
      <trkpt lat="45.71498" lon="6.31292">
        <ele>829</ele>
        <time>2019-02-12T14:13:39Z</time>
      </trkpt>
      <trkpt lat="45.7149" lon="6.31297">
        <ele>829</ele>
        <time>2019-02-12T14:13:46Z</time>
      </trkpt>
      <trkpt lat="45.71487" lon="6.313">
        <ele>834</ele>
        <time>2019-02-12T14:13:51Z</time>
      </trkpt>
      <trkpt lat="45.7148" lon="6.31303">
        <ele>836</ele>
        <time>2019-02-12T14:14:01Z</time>
      </trkpt>
      <trkpt lat="45.71479" lon="6.31303">
        <ele>836</ele>
        <time>2019-02-12T14:14:03Z</time>
      </trkpt>
      <trkpt lat="45.71474" lon="6.31305">
        <ele>835</ele>
        <time>2019-02-12T14:14:09Z</time>
      </trkpt>
      <trkpt lat="45.71471" lon="6.31304">
        <ele>832</ele>
        <time>2019-02-12T14:14:15Z</time>
      </trkpt>
      <trkpt lat="45.71466" lon="6.31305">
        <ele>831</ele>
        <time>2019-02-12T14:14:26Z</time>
      </trkpt>
      <trkpt lat="45.71465" lon="6.31305">
        <ele>830</ele>
        <time>2019-02-12T14:14:27Z</time>
      </trkpt>
      <trkpt lat="45.7146" lon="6.31304">
        <ele>830</ele>
        <time>2019-02-12T14:14:33Z</time>
      </trkpt>
      <trkpt lat="45.71454" lon="6.31306">
        <ele>832</ele>
        <time>2019-02-12T14:14:41Z</time>
      </trkpt>
      <trkpt lat="45.71451" lon="6.31306">
        <ele>833</ele>
        <time>2019-02-12T14:14:45Z</time>
      </trkpt>
      <trkpt lat="45.71445" lon="6.31305">
        <ele>831</ele>
        <time>2019-02-12T14:14:51Z</time>
      </trkpt>
      <trkpt lat="45.71438" lon="6.31306">
        <ele>829</ele>
        <time>2019-02-12T14:14:59Z</time>
      </trkpt>
      <trkpt lat="45.71434" lon="6.31306">
        <ele>828</ele>
        <time>2019-02-12T14:15:03Z</time>
      </trkpt>
      <trkpt lat="45.71429" lon="6.31303">
        <ele>826</ele>
        <time>2019-02-12T14:15:09Z</time>
      </trkpt>
      <trkpt lat="45.71421" lon="6.31299">
        <ele>829</ele>
        <time>2019-02-12T14:15:19Z</time>
      </trkpt>
      <trkpt lat="45.71416" lon="6.31299">
        <ele>830</ele>
        <time>2019-02-12T14:15:24Z</time>
      </trkpt>
      <trkpt lat="45.71412" lon="6.31295">
        <ele>834</ele>
        <time>2019-02-12T14:15:32Z</time>
      </trkpt>
      <trkpt lat="45.71412" lon="6.31294">
        <ele>835</ele>
        <time>2019-02-12T14:15:33Z</time>
      </trkpt>
      <trkpt lat="45.71408" lon="6.31289">
        <ele>835</ele>
        <time>2019-02-12T14:15:39Z</time>
      </trkpt>
      <trkpt lat="45.71407" lon="6.31297">
        <ele>836</ele>
        <time>2019-02-12T14:15:45Z</time>
      </trkpt>
      <trkpt lat="45.71405" lon="6.31303">
        <ele>836</ele>
        <time>2019-02-12T14:15:52Z</time>
      </trkpt>
      <trkpt lat="45.71405" lon="6.31302">
        <ele>836</ele>
        <time>2019-02-12T14:15:59Z</time>
      </trkpt>
      <trkpt lat="45.71405" lon="6.31301">
        <ele>836</ele>
        <time>2019-02-12T14:16:03Z</time>
      </trkpt>
      <trkpt lat="45.71406" lon="6.313">
        <ele>837</ele>
        <time>2019-02-12T14:16:09Z</time>
      </trkpt>
      <trkpt lat="45.71407" lon="6.31299">
        <ele>837</ele>
        <time>2019-02-12T14:16:15Z</time>
      </trkpt>
      <trkpt lat="45.71407" lon="6.31298">
        <ele>838</ele>
        <time>2019-02-12T14:16:21Z</time>
      </trkpt>
      <trkpt lat="45.71407" lon="6.31297">
        <ele>838</ele>
        <time>2019-02-12T14:16:29Z</time>
      </trkpt>
      <trkpt lat="45.71407" lon="6.31297">
        <ele>838</ele>
        <time>2019-02-12T14:16:33Z</time>
      </trkpt>
      <trkpt lat="45.71407" lon="6.31297">
        <ele>838</ele>
        <time>2019-02-12T14:16:39Z</time>
      </trkpt>
      <trkpt lat="45.71407" lon="6.31297">
        <ele>838</ele>
        <time>2019-02-12T14:16:48Z</time>
      </trkpt>
      <trkpt lat="45.71407" lon="6.31297">
        <ele>838</ele>
        <time>2019-02-12T14:16:51Z</time>
      </trkpt>
      <trkpt lat="45.71407" lon="6.31297">
        <ele>838</ele>
        <time>2019-02-12T14:16:57Z</time>
      </trkpt>
      <trkpt lat="45.71407" lon="6.31297">
        <ele>838</ele>
        <time>2019-02-12T14:17:03Z</time>
      </trkpt>
      <trkpt lat="45.71407" lon="6.31297">
        <ele>838</ele>
        <time>2019-02-12T14:17:09Z</time>
      </trkpt>
      <trkpt lat="45.71407" lon="6.31297">
        <ele>838</ele>
        <time>2019-02-12T14:17:15Z</time>
      </trkpt>
      <trkpt lat="45.71407" lon="6.31298">
        <ele>838</ele>
        <time>2019-02-12T14:17:21Z</time>
      </trkpt>
      <trkpt lat="45.71407" lon="6.31298">
        <ele>838</ele>
        <time>2019-02-12T14:17:32Z</time>
      </trkpt>
      <trkpt lat="45.71407" lon="6.31298">
        <ele>838</ele>
        <time>2019-02-12T14:17:36Z</time>
      </trkpt>
      <trkpt lat="45.71407" lon="6.31298">
        <ele>838</ele>
        <time>2019-02-12T14:17:39Z</time>
      </trkpt>
      <trkpt lat="45.71407" lon="6.31298">
        <ele>838</ele>
        <time>2019-02-12T14:17:48Z</time>
      </trkpt>
      <trkpt lat="45.71407" lon="6.31298">
        <ele>838</ele>
        <time>2019-02-12T14:17:51Z</time>
      </trkpt>
      <trkpt lat="45.71407" lon="6.31298">
        <ele>838</ele>
        <time>2019-02-12T14:17:57Z</time>
      </trkpt>
      <trkpt lat="45.71407" lon="6.31298">
        <ele>838</ele>
        <time>2019-02-12T14:18:03Z</time>
      </trkpt>
      <trkpt lat="45.71407" lon="6.31298">
        <ele>838</ele>
        <time>2019-02-12T14:18:09Z</time>
      </trkpt>
      <trkpt lat="45.71407" lon="6.31298">
        <ele>838</ele>
        <time>2019-02-12T14:18:15Z</time>
      </trkpt>
      <trkpt lat="45.71407" lon="6.31298">
        <ele>838</ele>
        <time>2019-02-12T14:18:21Z</time>
      </trkpt>
      <trkpt lat="45.71407" lon="6.31298">
        <ele>838</ele>
        <time>2019-02-12T14:18:27Z</time>
      </trkpt>
      <trkpt lat="45.71407" lon="6.31298">
        <ele>838</ele>
        <time>2019-02-12T14:18:33Z</time>
      </trkpt>
      <trkpt lat="45.71407" lon="6.31298">
        <ele>838</ele>
        <time>2019-02-12T14:18:39Z</time>
      </trkpt>
      <trkpt lat="45.71407" lon="6.31298">
        <ele>838</ele>
        <time>2019-02-12T14:18:45Z</time>
      </trkpt>
      <trkpt lat="45.71403" lon="6.31299">
        <ele>833</ele>
        <time>2019-02-12T14:18:54Z</time>
      </trkpt>
      <trkpt lat="45.71399" lon="6.31306">
        <ele>832</ele>
        <time>2019-02-12T14:19:02Z</time>
      </trkpt>
      <trkpt lat="45.71399" lon="6.31307">
        <ele>832</ele>
        <time>2019-02-12T14:19:03Z</time>
      </trkpt>
      <trkpt lat="45.714" lon="6.31307">
        <ele>835</ele>
        <time>2019-02-12T14:19:09Z</time>
      </trkpt>
      <trkpt lat="45.714" lon="6.31306">
        <ele>835</ele>
        <time>2019-02-12T14:19:15Z</time>
      </trkpt>
      <trkpt lat="45.714" lon="6.31306">
        <ele>835</ele>
        <time>2019-02-12T14:19:21Z</time>
      </trkpt>
      <trkpt lat="45.714" lon="6.31306">
        <ele>835</ele>
        <time>2019-02-12T14:19:27Z</time>
      </trkpt>
      <trkpt lat="45.71401" lon="6.31311">
        <ele>835</ele>
        <time>2019-02-12T14:19:37Z</time>
      </trkpt>
      <trkpt lat="45.71401" lon="6.31311">
        <ele>836</ele>
        <time>2019-02-12T14:19:39Z</time>
      </trkpt>
      <trkpt lat="45.71399" lon="6.31309">
        <ele>837</ele>
        <time>2019-02-12T14:19:45Z</time>
      </trkpt>
      <trkpt lat="45.71399" lon="6.31311">
        <ele>835</ele>
        <time>2019-02-12T14:19:51Z</time>
      </trkpt>
      <trkpt lat="45.71399" lon="6.31311">
        <ele>836</ele>
        <time>2019-02-12T14:20:01Z</time>
      </trkpt>
      <trkpt lat="45.71399" lon="6.31311">
        <ele>836</ele>
        <time>2019-02-12T14:20:03Z</time>
      </trkpt>
      <trkpt lat="45.71399" lon="6.31311">
        <ele>836</ele>
        <time>2019-02-12T14:20:14Z</time>
      </trkpt>
      <trkpt lat="45.71398" lon="6.31312">
        <ele>836</ele>
        <time>2019-02-12T14:20:16Z</time>
      </trkpt>
      <trkpt lat="45.714" lon="6.3131">
        <ele>837</ele>
        <time>2019-02-12T14:20:21Z</time>
      </trkpt>
      <trkpt lat="45.71401" lon="6.31308">
        <ele>840</ele>
        <time>2019-02-12T14:20:30Z</time>
      </trkpt>
      <trkpt lat="45.71401" lon="6.31308">
        <ele>840</ele>
        <time>2019-02-12T14:20:34Z</time>
      </trkpt>
      <trkpt lat="45.71401" lon="6.31308">
        <ele>840</ele>
        <time>2019-02-12T14:20:41Z</time>
      </trkpt>
      <trkpt lat="45.714" lon="6.31309">
        <ele>842</ele>
        <time>2019-02-12T14:20:45Z</time>
      </trkpt>
      <trkpt lat="45.714" lon="6.31311">
        <ele>838</ele>
        <time>2019-02-12T14:20:51Z</time>
      </trkpt>
      <trkpt lat="45.71402" lon="6.31311">
        <ele>837</ele>
        <time>2019-02-12T14:21:00Z</time>
      </trkpt>
      <trkpt lat="45.71402" lon="6.31311">
        <ele>837</ele>
        <time>2019-02-12T14:21:03Z</time>
      </trkpt>
      <trkpt lat="45.71402" lon="6.31311">
        <ele>837</ele>
        <time>2019-02-12T14:21:09Z</time>
      </trkpt>
      <trkpt lat="45.71402" lon="6.31312">
        <ele>837</ele>
        <time>2019-02-12T14:21:19Z</time>
      </trkpt>
      <trkpt lat="45.71402" lon="6.31312">
        <ele>837</ele>
        <time>2019-02-12T14:21:21Z</time>
      </trkpt>
      <trkpt lat="45.71402" lon="6.31312">
        <ele>837</ele>
        <time>2019-02-12T14:21:27Z</time>
      </trkpt>
      <trkpt lat="45.71402" lon="6.31311">
        <ele>837</ele>
        <time>2019-02-12T14:21:36Z</time>
      </trkpt>
      <trkpt lat="45.71402" lon="6.31311">
        <ele>837</ele>
        <time>2019-02-12T14:21:44Z</time>
      </trkpt>
      <trkpt lat="45.71402" lon="6.31311">
        <ele>837</ele>
        <time>2019-02-12T14:21:46Z</time>
      </trkpt>
      <trkpt lat="45.71402" lon="6.31311">
        <ele>837</ele>
        <time>2019-02-12T14:21:51Z</time>
      </trkpt>
      <trkpt lat="45.71402" lon="6.31311">
        <ele>837</ele>
        <time>2019-02-12T14:21:58Z</time>
      </trkpt>
      <trkpt lat="45.71399" lon="6.31315">
        <ele>838</ele>
        <time>2019-02-12T14:22:06Z</time>
      </trkpt>
      <trkpt lat="45.71397" lon="6.31318">
        <ele>839</ele>
        <time>2019-02-12T14:22:09Z</time>
      </trkpt>
      <trkpt lat="45.71396" lon="6.3132">
        <ele>836</ele>
        <time>2019-02-12T14:22:15Z</time>
      </trkpt>
      <trkpt lat="45.71396" lon="6.31322">
        <ele>838</ele>
        <time>2019-02-12T14:22:21Z</time>
      </trkpt>
      <trkpt lat="45.71396" lon="6.31325">
        <ele>838</ele>
        <time>2019-02-12T14:22:27Z</time>
      </trkpt>
      <trkpt lat="45.71395" lon="6.3133">
        <ele>837</ele>
        <time>2019-02-12T14:22:33Z</time>
      </trkpt>
      <trkpt lat="45.7139" lon="6.31345">
        <ele>832</ele>
        <time>2019-02-12T14:22:44Z</time>
      </trkpt>
      <trkpt lat="45.71388" lon="6.31353">
        <ele>829</ele>
        <time>2019-02-12T14:22:50Z</time>
      </trkpt>
      <trkpt lat="45.7139" lon="6.31361">
        <ele>830</ele>
        <time>2019-02-12T14:22:54Z</time>
      </trkpt>
      <trkpt lat="45.71391" lon="6.31367">
        <ele>831</ele>
        <time>2019-02-12T14:22:58Z</time>
      </trkpt>
      <trkpt lat="45.71393" lon="6.31378">
        <ele>829</ele>
        <time>2019-02-12T14:23:08Z</time>
      </trkpt>
      <trkpt lat="45.71393" lon="6.3138">
        <ele>830</ele>
        <time>2019-02-12T14:23:09Z</time>
      </trkpt>
      <trkpt lat="45.71393" lon="6.31387">
        <ele>833</ele>
        <time>2019-02-12T14:23:15Z</time>
      </trkpt>
      <trkpt lat="45.71389" lon="6.31388">
        <ele>835</ele>
        <time>2019-02-12T14:23:21Z</time>
      </trkpt>
      <trkpt lat="45.71384" lon="6.31389">
        <ele>833</ele>
        <time>2019-02-12T14:23:27Z</time>
      </trkpt>
      <trkpt lat="45.7138" lon="6.3139">
        <ele>832</ele>
        <time>2019-02-12T14:23:33Z</time>
      </trkpt>
      <trkpt lat="45.71377" lon="6.31391">
        <ele>832</ele>
        <time>2019-02-12T14:23:39Z</time>
      </trkpt>
      <trkpt lat="45.71373" lon="6.31392">
        <ele>831</ele>
        <time>2019-02-12T14:23:45Z</time>
      </trkpt>
      <trkpt lat="45.71372" lon="6.31393">
        <ele>832</ele>
        <time>2019-02-12T14:23:51Z</time>
      </trkpt>
      <trkpt lat="45.71372" lon="6.31401">
        <ele>837</ele>
        <time>2019-02-12T14:23:57Z</time>
      </trkpt>
      <trkpt lat="45.71373" lon="6.31411">
        <ele>839</ele>
        <time>2019-02-12T14:24:03Z</time>
      </trkpt>
      <trkpt lat="45.71371" lon="6.31416">
        <ele>840</ele>
        <time>2019-02-12T14:24:09Z</time>
      </trkpt>
      <trkpt lat="45.71371" lon="6.31418">
        <ele>840</ele>
        <time>2019-02-12T14:24:15Z</time>
      </trkpt>
      <trkpt lat="45.71365" lon="6.31419">
        <ele>840</ele>
        <time>2019-02-12T14:24:26Z</time>
      </trkpt>
      <trkpt lat="45.71365" lon="6.31419">
        <ele>841</ele>
        <time>2019-02-12T14:24:27Z</time>
      </trkpt>
      <trkpt lat="45.7136" lon="6.31422">
        <ele>842</ele>
        <time>2019-02-12T14:24:33Z</time>
      </trkpt>
      <trkpt lat="45.71358" lon="6.31428">
        <ele>846</ele>
        <time>2019-02-12T14:24:39Z</time>
      </trkpt>
      <trkpt lat="45.71356" lon="6.3143">
        <ele>846</ele>
        <time>2019-02-12T14:24:45Z</time>
      </trkpt>
      <trkpt lat="45.71348" lon="6.31438">
        <ele>843</ele>
        <time>2019-02-12T14:24:56Z</time>
      </trkpt>
      <trkpt lat="45.71341" lon="6.31445">
        <ele>841</ele>
        <time>2019-02-12T14:25:02Z</time>
      </trkpt>
      <trkpt lat="45.71337" lon="6.31448">
        <ele>839</ele>
        <time>2019-02-12T14:25:04Z</time>
      </trkpt>
      <trkpt lat="45.71328" lon="6.31453">
        <ele>835</ele>
        <time>2019-02-12T14:25:13Z</time>
      </trkpt>
      <trkpt lat="45.71322" lon="6.31458">
        <ele>835</ele>
        <time>2019-02-12T14:25:18Z</time>
      </trkpt>
      <trkpt lat="45.71318" lon="6.31461">
        <ele>835</ele>
        <time>2019-02-12T14:25:22Z</time>
      </trkpt>
      <trkpt lat="45.71311" lon="6.31466">
        <ele>835</ele>
        <time>2019-02-12T14:25:29Z</time>
      </trkpt>
      <trkpt lat="45.71307" lon="6.3147">
        <ele>833</ele>
        <time>2019-02-12T14:25:33Z</time>
      </trkpt>
      <trkpt lat="45.71303" lon="6.31471">
        <ele>836</ele>
        <time>2019-02-12T14:25:40Z</time>
      </trkpt>
      <trkpt lat="45.71302" lon="6.31469">
        <ele>834</ele>
        <time>2019-02-12T14:25:47Z</time>
      </trkpt>
      <trkpt lat="45.71302" lon="6.31469">
        <ele>833</ele>
        <time>2019-02-12T14:25:51Z</time>
      </trkpt>
      <trkpt lat="45.71302" lon="6.31469">
        <ele>832</ele>
        <time>2019-02-12T14:25:57Z</time>
      </trkpt>
      <trkpt lat="45.71301" lon="6.31473">
        <ele>835</ele>
        <time>2019-02-12T14:26:06Z</time>
      </trkpt>
      <trkpt lat="45.71301" lon="6.31474">
        <ele>835</ele>
        <time>2019-02-12T14:26:09Z</time>
      </trkpt>
      <trkpt lat="45.713" lon="6.31479">
        <ele>841</ele>
        <time>2019-02-12T14:26:19Z</time>
      </trkpt>
      <trkpt lat="45.713" lon="6.31482">
        <ele>844</ele>
        <time>2019-02-12T14:26:22Z</time>
      </trkpt>
      <trkpt lat="45.71299" lon="6.31486">
        <ele>842</ele>
        <time>2019-02-12T14:26:27Z</time>
      </trkpt>
      <trkpt lat="45.71296" lon="6.31489">
        <ele>842</ele>
        <time>2019-02-12T14:26:33Z</time>
      </trkpt>
      <trkpt lat="45.71293" lon="6.31489">
        <ele>842</ele>
        <time>2019-02-12T14:26:39Z</time>
      </trkpt>
      <trkpt lat="45.71288" lon="6.31487">
        <ele>839</ele>
        <time>2019-02-12T14:26:46Z</time>
      </trkpt>
      <trkpt lat="45.71284" lon="6.31487">
        <ele>839</ele>
        <time>2019-02-12T14:26:51Z</time>
      </trkpt>
      <trkpt lat="45.7128" lon="6.31487">
        <ele>840</ele>
        <time>2019-02-12T14:26:57Z</time>
      </trkpt>
      <trkpt lat="45.71276" lon="6.31489">
        <ele>840</ele>
        <time>2019-02-12T14:27:03Z</time>
      </trkpt>
      <trkpt lat="45.71273" lon="6.3149">
        <ele>840</ele>
        <time>2019-02-12T14:27:09Z</time>
      </trkpt>
      <trkpt lat="45.71267" lon="6.31494">
        <ele>840</ele>
        <time>2019-02-12T14:27:20Z</time>
      </trkpt>
      <trkpt lat="45.71266" lon="6.31493">
        <ele>841</ele>
        <time>2019-02-12T14:27:21Z</time>
      </trkpt>
      <trkpt lat="45.71263" lon="6.31495">
        <ele>841</ele>
        <time>2019-02-12T14:27:27Z</time>
      </trkpt>
      <trkpt lat="45.71259" lon="6.31496">
        <ele>843</ele>
        <time>2019-02-12T14:27:36Z</time>
      </trkpt>
      <trkpt lat="45.71257" lon="6.31498">
        <ele>845</ele>
        <time>2019-02-12T14:27:39Z</time>
      </trkpt>
      <trkpt lat="45.71254" lon="6.31501">
        <ele>843</ele>
        <time>2019-02-12T14:27:45Z</time>
      </trkpt>
      <trkpt lat="45.71253" lon="6.31504">
        <ele>846</ele>
        <time>2019-02-12T14:27:51Z</time>
      </trkpt>
      <trkpt lat="45.71252" lon="6.31507">
        <ele>847</ele>
        <time>2019-02-12T14:27:57Z</time>
      </trkpt>
      <trkpt lat="45.71252" lon="6.31508">
        <ele>847</ele>
        <time>2019-02-12T14:28:06Z</time>
      </trkpt>
      <trkpt lat="45.71251" lon="6.31508">
        <ele>847</ele>
        <time>2019-02-12T14:28:12Z</time>
      </trkpt>
      <trkpt lat="45.71251" lon="6.31508">
        <ele>847</ele>
        <time>2019-02-12T14:28:15Z</time>
      </trkpt>
      <trkpt lat="45.71252" lon="6.31508">
        <ele>847</ele>
        <time>2019-02-12T14:28:23Z</time>
      </trkpt>
      <trkpt lat="45.71252" lon="6.3151">
        <ele>846</ele>
        <time>2019-02-12T14:28:27Z</time>
      </trkpt>
      <trkpt lat="45.71254" lon="6.3151">
        <ele>846</ele>
        <time>2019-02-12T14:28:38Z</time>
      </trkpt>
      <trkpt lat="45.71254" lon="6.3151">
        <ele>844</ele>
        <time>2019-02-12T14:28:40Z</time>
      </trkpt>
      <trkpt lat="45.71254" lon="6.3151">
        <ele>847</ele>
        <time>2019-02-12T14:28:45Z</time>
      </trkpt>
      <trkpt lat="45.71256" lon="6.31511">
        <ele>847</ele>
        <time>2019-02-12T14:28:51Z</time>
      </trkpt>
      <trkpt lat="45.71255" lon="6.31511">
        <ele>846</ele>
        <time>2019-02-12T14:28:58Z</time>
      </trkpt>
      <trkpt lat="45.71255" lon="6.31511">
        <ele>846</ele>
        <time>2019-02-12T14:29:07Z</time>
      </trkpt>
      <trkpt lat="45.71254" lon="6.31511">
        <ele>846</ele>
        <time>2019-02-12T14:29:09Z</time>
      </trkpt>
      <trkpt lat="45.71254" lon="6.31514">
        <ele>846</ele>
        <time>2019-02-12T14:29:16Z</time>
      </trkpt>
      <trkpt lat="45.71253" lon="6.31513">
        <ele>844</ele>
        <time>2019-02-12T14:29:22Z</time>
      </trkpt>
      <trkpt lat="45.71252" lon="6.31514">
        <ele>844</ele>
        <time>2019-02-12T14:29:27Z</time>
      </trkpt>
      <trkpt lat="45.71251" lon="6.31514">
        <ele>844</ele>
        <time>2019-02-12T14:29:36Z</time>
      </trkpt>
      <trkpt lat="45.7125" lon="6.31513">
        <ele>843</ele>
        <time>2019-02-12T14:29:39Z</time>
      </trkpt>
      <trkpt lat="45.71251" lon="6.31511">
        <ele>841</ele>
        <time>2019-02-12T14:29:45Z</time>
      </trkpt>
      <trkpt lat="45.7125" lon="6.31506">
        <ele>842</ele>
        <time>2019-02-12T14:29:51Z</time>
      </trkpt>
      <trkpt lat="45.71253" lon="6.31509">
        <ele>840</ele>
        <time>2019-02-12T14:29:58Z</time>
      </trkpt>
      <trkpt lat="45.71253" lon="6.31508">
        <ele>839</ele>
        <time>2019-02-12T14:30:03Z</time>
      </trkpt>
      <trkpt lat="45.71256" lon="6.31509">
        <ele>838</ele>
        <time>2019-02-12T14:30:12Z</time>
      </trkpt>
      <trkpt lat="45.71257" lon="6.31507">
        <ele>840</ele>
        <time>2019-02-12T14:30:18Z</time>
      </trkpt>
      <trkpt lat="45.71258" lon="6.31507">
        <ele>839</ele>
        <time>2019-02-12T14:30:21Z</time>
      </trkpt>
      <trkpt lat="45.71256" lon="6.31508">
        <ele>839</ele>
        <time>2019-02-12T14:30:27Z</time>
      </trkpt>
      <trkpt lat="45.71255" lon="6.31508">
        <ele>839</ele>
        <time>2019-02-12T14:30:33Z</time>
      </trkpt>
      <trkpt lat="45.71254" lon="6.31508">
        <ele>838</ele>
        <time>2019-02-12T14:30:44Z</time>
      </trkpt>
      <trkpt lat="45.71254" lon="6.31508">
        <ele>838</ele>
        <time>2019-02-12T14:30:49Z</time>
      </trkpt>
      <trkpt lat="45.71254" lon="6.31508">
        <ele>838</ele>
        <time>2019-02-12T14:30:51Z</time>
      </trkpt>
      <trkpt lat="45.71254" lon="6.31508">
        <ele>838</ele>
        <time>2019-02-12T14:30:59Z</time>
      </trkpt>
      <trkpt lat="45.71241" lon="6.31507">
        <ele>842</ele>
        <time>2019-02-12T14:31:03Z</time>
      </trkpt>
      <trkpt lat="45.71234" lon="6.31503">
        <ele>843</ele>
        <time>2019-02-12T14:31:12Z</time>
      </trkpt>
      <trkpt lat="45.71235" lon="6.31502">
        <ele>845</ele>
        <time>2019-02-12T14:31:18Z</time>
      </trkpt>
      <trkpt lat="45.71234" lon="6.31502">
        <ele>845</ele>
        <time>2019-02-12T14:31:21Z</time>
      </trkpt>
      <trkpt lat="45.71234" lon="6.31501">
        <ele>845</ele>
        <time>2019-02-12T14:31:31Z</time>
      </trkpt>
      <trkpt lat="45.71233" lon="6.31501">
        <ele>844</ele>
        <time>2019-02-12T14:31:38Z</time>
      </trkpt>
      <trkpt lat="45.71233" lon="6.31501">
        <ele>844</ele>
        <time>2019-02-12T14:31:43Z</time>
      </trkpt>
      <trkpt lat="45.71233" lon="6.31501">
        <ele>844</ele>
        <time>2019-02-12T14:31:50Z</time>
      </trkpt>
      <trkpt lat="45.71233" lon="6.31501">
        <ele>844</ele>
        <time>2019-02-12T14:31:51Z</time>
      </trkpt>
      <trkpt lat="45.71233" lon="6.31501">
        <ele>843</ele>
        <time>2019-02-12T14:31:57Z</time>
      </trkpt>
      <trkpt lat="45.71232" lon="6.315">
        <ele>843</ele>
        <time>2019-02-12T14:32:03Z</time>
      </trkpt>
      <trkpt lat="45.71232" lon="6.31501">
        <ele>842</ele>
        <time>2019-02-12T14:32:14Z</time>
      </trkpt>
      <trkpt lat="45.71232" lon="6.31501">
        <ele>842</ele>
        <time>2019-02-12T14:32:15Z</time>
      </trkpt>
      <trkpt lat="45.71232" lon="6.315">
        <ele>842</ele>
        <time>2019-02-12T14:32:21Z</time>
      </trkpt>
      <trkpt lat="45.71232" lon="6.315">
        <ele>842</ele>
        <time>2019-02-12T14:32:27Z</time>
      </trkpt>
      <trkpt lat="45.71232" lon="6.315">
        <ele>842</ele>
        <time>2019-02-12T14:32:34Z</time>
      </trkpt>
      <trkpt lat="45.71231" lon="6.315">
        <ele>842</ele>
        <time>2019-02-12T14:32:39Z</time>
      </trkpt>
      <trkpt lat="45.71231" lon="6.315">
        <ele>842</ele>
        <time>2019-02-12T14:32:49Z</time>
      </trkpt>
      <trkpt lat="45.71231" lon="6.315">
        <ele>842</ele>
        <time>2019-02-12T14:32:53Z</time>
      </trkpt>
      <trkpt lat="45.71231" lon="6.315">
        <ele>841</ele>
        <time>2019-02-12T14:32:59Z</time>
      </trkpt>
      <trkpt lat="45.71231" lon="6.315">
        <ele>841</ele>
        <time>2019-02-12T14:33:03Z</time>
      </trkpt>
      <trkpt lat="45.71231" lon="6.315">
        <ele>841</ele>
        <time>2019-02-12T14:33:09Z</time>
      </trkpt>
      <trkpt lat="45.71231" lon="6.315">
        <ele>841</ele>
        <time>2019-02-12T14:33:19Z</time>
      </trkpt>
      <trkpt lat="45.71231" lon="6.315">
        <ele>841</ele>
        <time>2019-02-12T14:33:21Z</time>
      </trkpt>
      <trkpt lat="45.71231" lon="6.315">
        <ele>841</ele>
        <time>2019-02-12T14:33:27Z</time>
      </trkpt>
      <trkpt lat="45.71231" lon="6.315">
        <ele>841</ele>
        <time>2019-02-12T14:33:37Z</time>
      </trkpt>
      <trkpt lat="45.71231" lon="6.315">
        <ele>841</ele>
        <time>2019-02-12T14:33:41Z</time>
      </trkpt>
      <trkpt lat="45.71231" lon="6.315">
        <ele>841</ele>
        <time>2019-02-12T14:33:45Z</time>
      </trkpt>
      <trkpt lat="45.71231" lon="6.315">
        <ele>841</ele>
        <time>2019-02-12T14:34:10Z</time>
      </trkpt>
      <trkpt lat="45.71231" lon="6.315">
        <ele>841</ele>
        <time>2019-02-12T14:34:24Z</time>
      </trkpt>
      <trkpt lat="45.71231" lon="6.315">
        <ele>841</ele>
        <time>2019-02-12T14:34:27Z</time>
      </trkpt>
      <trkpt lat="45.7123" lon="6.315">
        <ele>841</ele>
        <time>2019-02-12T14:34:35Z</time>
      </trkpt>
      <trkpt lat="45.71224" lon="6.31498">
        <ele>842</ele>
        <time>2019-02-12T14:34:39Z</time>
      </trkpt>
      <trkpt lat="45.71228" lon="6.31501">
        <ele>836</ele>
        <time>2019-02-12T14:34:55Z</time>
      </trkpt>
      <trkpt lat="45.71227" lon="6.31501">
        <ele>836</ele>
        <time>2019-02-12T14:35:01Z</time>
      </trkpt>
      <trkpt lat="45.71225" lon="6.31499">
        <ele>837</ele>
        <time>2019-02-12T14:35:08Z</time>
      </trkpt>
      <trkpt lat="45.71223" lon="6.31498">
        <ele>837</ele>
        <time>2019-02-12T14:35:12Z</time>
      </trkpt>
      <trkpt lat="45.71224" lon="6.31498">
        <ele>836</ele>
        <time>2019-02-12T14:35:15Z</time>
      </trkpt>
      <trkpt lat="45.71223" lon="6.31498">
        <ele>837</ele>
        <time>2019-02-12T14:35:21Z</time>
      </trkpt>
      <trkpt lat="45.71223" lon="6.31497">
        <ele>837</ele>
        <time>2019-02-12T14:35:30Z</time>
      </trkpt>
      <trkpt lat="45.71223" lon="6.31497">
        <ele>837</ele>
        <time>2019-02-12T14:35:33Z</time>
      </trkpt>
      <trkpt lat="45.71223" lon="6.31497">
        <ele>837</ele>
        <time>2019-02-12T14:35:52Z</time>
      </trkpt>
      <trkpt lat="45.71223" lon="6.31497">
        <ele>837</ele>
        <time>2019-02-12T14:36:02Z</time>
      </trkpt>
      <trkpt lat="45.71223" lon="6.31497">
        <ele>837</ele>
        <time>2019-02-12T14:36:04Z</time>
      </trkpt>
      <trkpt lat="45.71223" lon="6.31497">
        <ele>837</ele>
        <time>2019-02-12T14:36:11Z</time>
      </trkpt>
      <trkpt lat="45.71223" lon="6.31497">
        <ele>837</ele>
        <time>2019-02-12T14:36:15Z</time>
      </trkpt>
      <trkpt lat="45.71223" lon="6.31497">
        <ele>837</ele>
        <time>2019-02-12T14:36:21Z</time>
      </trkpt>
      <trkpt lat="45.71223" lon="6.31497">
        <ele>837</ele>
        <time>2019-02-12T14:36:32Z</time>
      </trkpt>
      <trkpt lat="45.71223" lon="6.31497">
        <ele>837</ele>
        <time>2019-02-12T14:36:36Z</time>
      </trkpt>
      <trkpt lat="45.71223" lon="6.31497">
        <ele>837</ele>
        <time>2019-02-12T14:36:39Z</time>
      </trkpt>
      <trkpt lat="45.71223" lon="6.31497">
        <ele>837</ele>
        <time>2019-02-12T14:36:45Z</time>
      </trkpt>
      <trkpt lat="45.71223" lon="6.31497">
        <ele>837</ele>
        <time>2019-02-12T14:36:56Z</time>
      </trkpt>
      <trkpt lat="45.71223" lon="6.31497">
        <ele>837</ele>
        <time>2019-02-12T14:36:58Z</time>
      </trkpt>
      <trkpt lat="45.71223" lon="6.31497">
        <ele>837</ele>
        <time>2019-02-12T14:37:04Z</time>
      </trkpt>
      <trkpt lat="45.71223" lon="6.31497">
        <ele>837</ele>
        <time>2019-02-12T14:37:11Z</time>
      </trkpt>
      <trkpt lat="45.71223" lon="6.31497">
        <ele>837</ele>
        <time>2019-02-12T14:37:15Z</time>
      </trkpt>
      <trkpt lat="45.71223" lon="6.31498">
        <ele>837</ele>
        <time>2019-02-12T14:37:23Z</time>
      </trkpt>
      <trkpt lat="45.71223" lon="6.31498">
        <ele>837</ele>
        <time>2019-02-12T14:37:27Z</time>
      </trkpt>
      <trkpt lat="45.71223" lon="6.31498">
        <ele>837</ele>
        <time>2019-02-12T14:37:33Z</time>
      </trkpt>
      <trkpt lat="45.71223" lon="6.31498">
        <ele>837</ele>
        <time>2019-02-12T14:37:39Z</time>
      </trkpt>
      <trkpt lat="45.71223" lon="6.31498">
        <ele>837</ele>
        <time>2019-02-12T14:37:45Z</time>
      </trkpt>
      <trkpt lat="45.71223" lon="6.31498">
        <ele>837</ele>
        <time>2019-02-12T14:38:14Z</time>
      </trkpt>
      <trkpt lat="45.71223" lon="6.31498">
        <ele>837</ele>
        <time>2019-02-12T14:38:19Z</time>
      </trkpt>
      <trkpt lat="45.71223" lon="6.31498">
        <ele>837</ele>
        <time>2019-02-12T14:38:21Z</time>
      </trkpt>
      <trkpt lat="45.71224" lon="6.31499">
        <ele>836</ele>
        <time>2019-02-12T14:39:26Z</time>
      </trkpt>
      <trkpt lat="45.71224" lon="6.31499">
        <ele>836</ele>
        <time>2019-02-12T14:39:31Z</time>
      </trkpt>
      <trkpt lat="45.71224" lon="6.31499">
        <ele>836</ele>
        <time>2019-02-12T14:39:34Z</time>
      </trkpt>
      <trkpt lat="45.71224" lon="6.31499">
        <ele>836</ele>
        <time>2019-02-12T14:39:39Z</time>
      </trkpt>
      <trkpt lat="45.71224" lon="6.31499">
        <ele>836</ele>
        <time>2019-02-12T14:39:45Z</time>
      </trkpt>
      <trkpt lat="45.71224" lon="6.31499">
        <ele>836</ele>
        <time>2019-02-12T14:39:51Z</time>
      </trkpt>
      <trkpt lat="45.71224" lon="6.31499">
        <ele>836</ele>
        <time>2019-02-12T14:40:01Z</time>
      </trkpt>
      <trkpt lat="45.71224" lon="6.31499">
        <ele>836</ele>
        <time>2019-02-12T14:40:03Z</time>
      </trkpt>
      <trkpt lat="45.71224" lon="6.31499">
        <ele>836</ele>
        <time>2019-02-12T14:40:09Z</time>
      </trkpt>
      <trkpt lat="45.71224" lon="6.31499">
        <ele>836</ele>
        <time>2019-02-12T14:40:15Z</time>
      </trkpt>
      <trkpt lat="45.71224" lon="6.31499">
        <ele>836</ele>
        <time>2019-02-12T14:40:21Z</time>
      </trkpt>
      <trkpt lat="45.71224" lon="6.315">
        <ele>836</ele>
        <time>2019-02-12T14:40:42Z</time>
      </trkpt>
      <trkpt lat="45.71224" lon="6.315">
        <ele>836</ele>
        <time>2019-02-12T14:40:50Z</time>
      </trkpt>
      <trkpt lat="45.71224" lon="6.315">
        <ele>836</ele>
        <time>2019-02-12T14:40:51Z</time>
      </trkpt>
      <trkpt lat="45.71224" lon="6.315">
        <ele>836</ele>
        <time>2019-02-12T14:40:57Z</time>
      </trkpt>
      <trkpt lat="45.71224" lon="6.315">
        <ele>836</ele>
        <time>2019-02-12T14:41:06Z</time>
      </trkpt>
      <trkpt lat="45.71224" lon="6.315">
        <ele>836</ele>
        <time>2019-02-12T14:41:14Z</time>
      </trkpt>
      <trkpt lat="45.71224" lon="6.315">
        <ele>836</ele>
        <time>2019-02-12T14:41:17Z</time>
      </trkpt>
      <trkpt lat="45.71224" lon="6.315">
        <ele>836</ele>
        <time>2019-02-12T14:41:25Z</time>
      </trkpt>
      <trkpt lat="45.71225" lon="6.31498">
        <ele>842</ele>
        <time>2019-02-12T14:41:27Z</time>
      </trkpt>
      <trkpt lat="45.71232" lon="6.31506">
        <ele>841</ele>
        <time>2019-02-12T14:41:33Z</time>
      </trkpt>
      <trkpt lat="45.71241" lon="6.31509">
        <ele>836</ele>
        <time>2019-02-12T14:41:44Z</time>
      </trkpt>
      <trkpt lat="45.71245" lon="6.3151">
        <ele>835</ele>
        <time>2019-02-12T14:41:49Z</time>
      </trkpt>
      <trkpt lat="45.71245" lon="6.3151">
        <ele>835</ele>
        <time>2019-02-12T14:41:51Z</time>
      </trkpt>
      <trkpt lat="45.71249" lon="6.31509">
        <ele>841</ele>
        <time>2019-02-12T14:42:00Z</time>
      </trkpt>
      <trkpt lat="45.7125" lon="6.31516">
        <ele>843</ele>
        <time>2019-02-12T14:42:08Z</time>
      </trkpt>
      <trkpt lat="45.71252" lon="6.31517">
        <ele>844</ele>
        <time>2019-02-12T14:42:10Z</time>
      </trkpt>
      <trkpt lat="45.71253" lon="6.3152">
        <ele>848</ele>
        <time>2019-02-12T14:42:15Z</time>
      </trkpt>
      <trkpt lat="45.71256" lon="6.31519">
        <ele>847</ele>
        <time>2019-02-12T14:42:21Z</time>
      </trkpt>
      <trkpt lat="45.71255" lon="6.31518">
        <ele>847</ele>
        <time>2019-02-12T14:42:27Z</time>
      </trkpt>
      <trkpt lat="45.71255" lon="6.3152">
        <ele>848</ele>
        <time>2019-02-12T14:42:33Z</time>
      </trkpt>
      <trkpt lat="45.71256" lon="6.3152">
        <ele>849</ele>
        <time>2019-02-12T14:42:39Z</time>
      </trkpt>
      <trkpt lat="45.71256" lon="6.31522">
        <ele>848</ele>
        <time>2019-02-12T14:42:45Z</time>
      </trkpt>
      <trkpt lat="45.71258" lon="6.31532">
        <ele>848</ele>
        <time>2019-02-12T14:42:56Z</time>
      </trkpt>
      <trkpt lat="45.71259" lon="6.31532">
        <ele>847</ele>
        <time>2019-02-12T14:42:57Z</time>
      </trkpt>
      <trkpt lat="45.71264" lon="6.31532">
        <ele>849</ele>
        <time>2019-02-12T14:43:05Z</time>
      </trkpt>
      <trkpt lat="45.71264" lon="6.3153">
        <ele>849</ele>
        <time>2019-02-12T14:43:09Z</time>
      </trkpt>
      <trkpt lat="45.71264" lon="6.31527">
        <ele>849</ele>
        <time>2019-02-12T14:43:17Z</time>
      </trkpt>
      <trkpt lat="45.71266" lon="6.31522">
        <ele>849</ele>
        <time>2019-02-12T14:43:21Z</time>
      </trkpt>
      <trkpt lat="45.7127" lon="6.31517">
        <ele>849</ele>
        <time>2019-02-12T14:43:27Z</time>
      </trkpt>
      <trkpt lat="45.71273" lon="6.31513">
        <ele>848</ele>
        <time>2019-02-12T14:43:33Z</time>
      </trkpt>
      <trkpt lat="45.71277" lon="6.3151">
        <ele>847</ele>
        <time>2019-02-12T14:43:39Z</time>
      </trkpt>
      <trkpt lat="45.71282" lon="6.31508">
        <ele>851</ele>
        <time>2019-02-12T14:43:45Z</time>
      </trkpt>
      <trkpt lat="45.71281" lon="6.31509">
        <ele>851</ele>
        <time>2019-02-12T14:43:51Z</time>
      </trkpt>
      <trkpt lat="45.71274" lon="6.31503">
        <ele>848</ele>
        <time>2019-02-12T14:44:02Z</time>
      </trkpt>
      <trkpt lat="45.71272" lon="6.315">
        <ele>846</ele>
        <time>2019-02-12T14:44:04Z</time>
      </trkpt>
      <trkpt lat="45.7127" lon="6.31493">
        <ele>843</ele>
        <time>2019-02-12T14:44:09Z</time>
      </trkpt>
      <trkpt lat="45.71268" lon="6.31485">
        <ele>841</ele>
        <time>2019-02-12T14:44:16Z</time>
      </trkpt>
      <trkpt lat="45.71268" lon="6.31479">
        <ele>838</ele>
        <time>2019-02-12T14:44:21Z</time>
      </trkpt>
      <trkpt lat="45.71264" lon="6.31467">
        <ele>842</ele>
        <time>2019-02-12T14:44:27Z</time>
      </trkpt>
      <trkpt lat="45.71259" lon="6.31451">
        <ele>849</ele>
        <time>2019-02-12T14:44:38Z</time>
      </trkpt>
      <trkpt lat="45.71258" lon="6.3145">
        <ele>849</ele>
        <time>2019-02-12T14:44:39Z</time>
      </trkpt>
      <trkpt lat="45.7126" lon="6.31441">
        <ele>847</ele>
        <time>2019-02-12T14:44:45Z</time>
      </trkpt>
      <trkpt lat="45.71258" lon="6.31442">
        <ele>846</ele>
        <time>2019-02-12T14:44:51Z</time>
      </trkpt>
      <trkpt lat="45.71259" lon="6.31441">
        <ele>846</ele>
        <time>2019-02-12T14:44:57Z</time>
      </trkpt>
      <trkpt lat="45.71258" lon="6.31442">
        <ele>847</ele>
        <time>2019-02-12T14:45:05Z</time>
      </trkpt>
      <trkpt lat="45.71258" lon="6.31443">
        <ele>847</ele>
        <time>2019-02-12T14:45:14Z</time>
      </trkpt>
      <trkpt lat="45.71258" lon="6.31443">
        <ele>847</ele>
        <time>2019-02-12T14:45:17Z</time>
      </trkpt>
      <trkpt lat="45.71256" lon="6.31446">
        <ele>847</ele>
        <time>2019-02-12T14:45:24Z</time>
      </trkpt>
      <trkpt lat="45.71253" lon="6.31455">
        <ele>847</ele>
        <time>2019-02-12T14:45:29Z</time>
      </trkpt>
      <trkpt lat="45.71252" lon="6.31465">
        <ele>846</ele>
        <time>2019-02-12T14:45:38Z</time>
      </trkpt>
      <trkpt lat="45.71252" lon="6.31466">
        <ele>847</ele>
        <time>2019-02-12T14:45:39Z</time>
      </trkpt>
      <trkpt lat="45.71253" lon="6.31469">
        <ele>846</ele>
        <time>2019-02-12T14:45:45Z</time>
      </trkpt>
      <trkpt lat="45.71252" lon="6.31477">
        <ele>845</ele>
        <time>2019-02-12T14:45:51Z</time>
      </trkpt>
      <trkpt lat="45.71252" lon="6.31475">
        <ele>840</ele>
        <time>2019-02-12T14:46:00Z</time>
      </trkpt>
      <trkpt lat="45.71252" lon="6.3148">
        <ele>841</ele>
        <time>2019-02-12T14:46:05Z</time>
      </trkpt>
      <trkpt lat="45.71252" lon="6.31486">
        <ele>844</ele>
        <time>2019-02-12T14:46:10Z</time>
      </trkpt>
      <trkpt lat="45.71252" lon="6.3149">
        <ele>843</ele>
        <time>2019-02-12T14:46:18Z</time>
      </trkpt>
      <trkpt lat="45.71252" lon="6.31495">
        <ele>844</ele>
        <time>2019-02-12T14:46:21Z</time>
      </trkpt>
      <trkpt lat="45.7125" lon="6.31504">
        <ele>845</ele>
        <time>2019-02-12T14:46:27Z</time>
      </trkpt>
      <trkpt lat="45.7125" lon="6.31507">
        <ele>845</ele>
        <time>2019-02-12T14:46:33Z</time>
      </trkpt>
      <trkpt lat="45.7125" lon="6.31506">
        <ele>846</ele>
        <time>2019-02-12T14:46:39Z</time>
      </trkpt>
      <trkpt lat="45.7125" lon="6.31506">
        <ele>846</ele>
        <time>2019-02-12T14:46:45Z</time>
      </trkpt>
      <trkpt lat="45.7125" lon="6.31506">
        <ele>848</ele>
        <time>2019-02-12T14:46:51Z</time>
      </trkpt>
      <trkpt lat="45.7125" lon="6.31509">
        <ele>848</ele>
        <time>2019-02-12T14:47:00Z</time>
      </trkpt>
      <trkpt lat="45.7125" lon="6.31509">
        <ele>848</ele>
        <time>2019-02-12T14:47:03Z</time>
      </trkpt>
      <trkpt lat="45.71251" lon="6.3151">
        <ele>849</ele>
        <time>2019-02-12T14:47:09Z</time>
      </trkpt>
      <trkpt lat="45.71252" lon="6.31509">
        <ele>848</ele>
        <time>2019-02-12T14:47:15Z</time>
      </trkpt>
      <trkpt lat="45.71251" lon="6.3151">
        <ele>850</ele>
        <time>2019-02-12T14:47:23Z</time>
      </trkpt>
      <trkpt lat="45.7125" lon="6.31511">
        <ele>846</ele>
        <time>2019-02-12T14:47:32Z</time>
      </trkpt>
      <trkpt lat="45.71249" lon="6.3151">
        <ele>845</ele>
        <time>2019-02-12T14:47:33Z</time>
      </trkpt>
      <trkpt lat="45.71249" lon="6.31512">
        <ele>844</ele>
        <time>2019-02-12T14:47:40Z</time>
      </trkpt>
      <trkpt lat="45.71249" lon="6.31515">
        <ele>845</ele>
        <time>2019-02-12T14:47:45Z</time>
      </trkpt>
      <trkpt lat="45.71249" lon="6.31515">
        <ele>847</ele>
        <time>2019-02-12T14:47:56Z</time>
      </trkpt>
      <trkpt lat="45.71249" lon="6.31514">
        <ele>847</ele>
        <time>2019-02-12T14:47:57Z</time>
      </trkpt>
      <trkpt lat="45.7125" lon="6.31516">
        <ele>846</ele>
        <time>2019-02-12T14:48:03Z</time>
      </trkpt>
      <trkpt lat="45.7125" lon="6.31516">
        <ele>847</ele>
        <time>2019-02-12T14:48:09Z</time>
      </trkpt>
      <trkpt lat="45.7125" lon="6.31517">
        <ele>846</ele>
        <time>2019-02-12T14:48:20Z</time>
      </trkpt>
      <trkpt lat="45.7125" lon="6.31517">
        <ele>846</ele>
        <time>2019-02-12T14:48:22Z</time>
      </trkpt>
      <trkpt lat="45.7125" lon="6.31517">
        <ele>846</ele>
        <time>2019-02-12T14:48:27Z</time>
      </trkpt>
      <trkpt lat="45.71247" lon="6.31519">
        <ele>845</ele>
        <time>2019-02-12T14:48:33Z</time>
      </trkpt>
      <trkpt lat="45.71245" lon="6.3151">
        <ele>842</ele>
        <time>2019-02-12T14:48:43Z</time>
      </trkpt>
      <trkpt lat="45.71245" lon="6.3151">
        <ele>843</ele>
        <time>2019-02-12T14:48:45Z</time>
      </trkpt>
      <trkpt lat="45.71245" lon="6.3151">
        <ele>846</ele>
        <time>2019-02-12T14:48:51Z</time>
      </trkpt>
      <trkpt lat="45.71243" lon="6.31507">
        <ele>846</ele>
        <time>2019-02-12T14:48:57Z</time>
      </trkpt>
      <trkpt lat="45.7124" lon="6.31503">
        <ele>846</ele>
        <time>2019-02-12T14:49:03Z</time>
      </trkpt>
      <trkpt lat="45.71237" lon="6.31501">
        <ele>848</ele>
        <time>2019-02-12T14:49:09Z</time>
      </trkpt>
      <trkpt lat="45.71235" lon="6.31497">
        <ele>844</ele>
        <time>2019-02-12T14:49:15Z</time>
      </trkpt>
      <trkpt lat="45.7123" lon="6.31495">
        <ele>842</ele>
        <time>2019-02-12T14:49:26Z</time>
      </trkpt>
      <trkpt lat="45.71225" lon="6.3149">
        <ele>844</ele>
        <time>2019-02-12T14:49:31Z</time>
      </trkpt>
      <trkpt lat="45.71223" lon="6.31489">
        <ele>844</ele>
        <time>2019-02-12T14:49:35Z</time>
      </trkpt>
      <trkpt lat="45.71219" lon="6.31486">
        <ele>845</ele>
        <time>2019-02-12T14:49:41Z</time>
      </trkpt>
      <trkpt lat="45.71217" lon="6.31485">
        <ele>848</ele>
        <time>2019-02-12T14:49:45Z</time>
      </trkpt>
      <trkpt lat="45.71216" lon="6.31478">
        <ele>845</ele>
        <time>2019-02-12T14:49:52Z</time>
      </trkpt>
      <trkpt lat="45.71215" lon="6.31475">
        <ele>843</ele>
        <time>2019-02-12T14:49:57Z</time>
      </trkpt>
      <trkpt lat="45.71214" lon="6.3147">
        <ele>840</ele>
        <time>2019-02-12T14:50:03Z</time>
      </trkpt>
      <trkpt lat="45.71212" lon="6.31464">
        <ele>838</ele>
        <time>2019-02-12T14:50:10Z</time>
      </trkpt>
      <trkpt lat="45.71208" lon="6.31463">
        <ele>840</ele>
        <time>2019-02-12T14:50:15Z</time>
      </trkpt>
      <trkpt lat="45.71204" lon="6.31463">
        <ele>840</ele>
        <time>2019-02-12T14:50:21Z</time>
      </trkpt>
      <trkpt lat="45.71197" lon="6.31462">
        <ele>847</ele>
        <time>2019-02-12T14:50:29Z</time>
      </trkpt>
      <trkpt lat="45.71193" lon="6.3146">
        <ele>848</ele>
        <time>2019-02-12T14:50:33Z</time>
      </trkpt>
      <trkpt lat="45.71187" lon="6.31462">
        <ele>854</ele>
        <time>2019-02-12T14:50:39Z</time>
      </trkpt>
      <trkpt lat="45.71182" lon="6.3146">
        <ele>853</ele>
        <time>2019-02-12T14:50:45Z</time>
      </trkpt>
      <trkpt lat="45.7118" lon="6.31461">
        <ele>855</ele>
        <time>2019-02-12T14:50:51Z</time>
      </trkpt>
      <trkpt lat="45.71173" lon="6.31463">
        <ele>856</ele>
        <time>2019-02-12T14:50:59Z</time>
      </trkpt>
      <trkpt lat="45.71166" lon="6.31461">
        <ele>862</ele>
        <time>2019-02-12T14:51:05Z</time>
      </trkpt>
      <trkpt lat="45.71159" lon="6.31461">
        <ele>863</ele>
        <time>2019-02-12T14:51:14Z</time>
      </trkpt>
      <trkpt lat="45.71154" lon="6.31458">
        <ele>866</ele>
        <time>2019-02-12T14:51:19Z</time>
      </trkpt>
      <trkpt lat="45.71152" lon="6.31459">
        <ele>866</ele>
        <time>2019-02-12T14:51:22Z</time>
      </trkpt>
      <trkpt lat="45.71148" lon="6.31458">
        <ele>866</ele>
        <time>2019-02-12T14:51:27Z</time>
      </trkpt>
      <trkpt lat="45.71144" lon="6.31455">
        <ele>864</ele>
        <time>2019-02-12T14:51:36Z</time>
      </trkpt>
      <trkpt lat="45.71142" lon="6.31456">
        <ele>864</ele>
        <time>2019-02-12T14:51:39Z</time>
      </trkpt>
      <trkpt lat="45.71139" lon="6.31456">
        <ele>862</ele>
        <time>2019-02-12T14:51:45Z</time>
      </trkpt>
      <trkpt lat="45.71133" lon="6.31456">
        <ele>863</ele>
        <time>2019-02-12T14:51:51Z</time>
      </trkpt>
      <trkpt lat="45.71128" lon="6.31455">
        <ele>864</ele>
        <time>2019-02-12T14:51:57Z</time>
      </trkpt>
      <trkpt lat="45.71122" lon="6.31455">
        <ele>863</ele>
        <time>2019-02-12T14:52:03Z</time>
      </trkpt>
      <trkpt lat="45.71116" lon="6.31457">
        <ele>862</ele>
        <time>2019-02-12T14:52:09Z</time>
      </trkpt>
      <trkpt lat="45.7111" lon="6.31457">
        <ele>862</ele>
        <time>2019-02-12T14:52:20Z</time>
      </trkpt>
      <trkpt lat="45.71107" lon="6.31456">
        <ele>862</ele>
        <time>2019-02-12T14:52:24Z</time>
      </trkpt>
      <trkpt lat="45.71104" lon="6.31455">
        <ele>863</ele>
        <time>2019-02-12T14:52:27Z</time>
      </trkpt>
      <trkpt lat="45.71099" lon="6.31454">
        <ele>861</ele>
        <time>2019-02-12T14:52:33Z</time>
      </trkpt>
      <trkpt lat="45.71091" lon="6.31456">
        <ele>862</ele>
        <time>2019-02-12T14:52:40Z</time>
      </trkpt>
      <trkpt lat="45.71086" lon="6.31449">
        <ele>860</ele>
        <time>2019-02-12T14:52:48Z</time>
      </trkpt>
      <trkpt lat="45.71085" lon="6.31447">
        <ele>857</ele>
        <time>2019-02-12T14:52:51Z</time>
      </trkpt>
      <trkpt lat="45.71082" lon="6.31447">
        <ele>857</ele>
        <time>2019-02-12T14:52:57Z</time>
      </trkpt>
      <trkpt lat="45.71076" lon="6.31446">
        <ele>856</ele>
        <time>2019-02-12T14:53:04Z</time>
      </trkpt>
      <trkpt lat="45.71069" lon="6.31447">
        <ele>856</ele>
        <time>2019-02-12T14:53:11Z</time>
      </trkpt>
      <trkpt lat="45.71067" lon="6.31446">
        <ele>856</ele>
        <time>2019-02-12T14:53:15Z</time>
      </trkpt>
      <trkpt lat="45.7106" lon="6.31445">
        <ele>856</ele>
        <time>2019-02-12T14:53:23Z</time>
      </trkpt>
      <trkpt lat="45.71056" lon="6.31446">
        <ele>855</ele>
        <time>2019-02-12T14:53:27Z</time>
      </trkpt>
      <trkpt lat="45.7105" lon="6.31447">
        <ele>857</ele>
        <time>2019-02-12T14:53:35Z</time>
      </trkpt>
      <trkpt lat="45.71046" lon="6.31446">
        <ele>857</ele>
        <time>2019-02-12T14:53:42Z</time>
      </trkpt>
      <trkpt lat="45.71041" lon="6.31448">
        <ele>858</ele>
        <time>2019-02-12T14:53:47Z</time>
      </trkpt>
      <trkpt lat="45.71036" lon="6.31446">
        <ele>857</ele>
        <time>2019-02-12T14:53:51Z</time>
      </trkpt>
      <trkpt lat="45.7103" lon="6.31443">
        <ele>857</ele>
        <time>2019-02-12T14:54:02Z</time>
      </trkpt>
      <trkpt lat="45.7103" lon="6.31443">
        <ele>858</ele>
        <time>2019-02-12T14:54:03Z</time>
      </trkpt>
      <trkpt lat="45.71022" lon="6.31441">
        <ele>860</ele>
        <time>2019-02-12T14:54:12Z</time>
      </trkpt>
      <trkpt lat="45.71019" lon="6.31442">
        <ele>860</ele>
        <time>2019-02-12T14:54:15Z</time>
      </trkpt>
      <trkpt lat="45.71014" lon="6.31444">
        <ele>860</ele>
        <time>2019-02-12T14:54:21Z</time>
      </trkpt>
      <trkpt lat="45.71005" lon="6.31444">
        <ele>859</ele>
        <time>2019-02-12T14:54:32Z</time>
      </trkpt>
      <trkpt lat="45.71005" lon="6.31443">
        <ele>858</ele>
        <time>2019-02-12T14:54:33Z</time>
      </trkpt>
      <trkpt lat="45.71" lon="6.31442">
        <ele>858</ele>
        <time>2019-02-12T14:54:40Z</time>
      </trkpt>
      <trkpt lat="45.70992" lon="6.31438">
        <ele>855</ele>
        <time>2019-02-12T14:54:50Z</time>
      </trkpt>
      <trkpt lat="45.70989" lon="6.31438">
        <ele>855</ele>
        <time>2019-02-12T14:54:54Z</time>
      </trkpt>
      <trkpt lat="45.70989" lon="6.31435">
        <ele>851</ele>
        <time>2019-02-12T14:55:01Z</time>
      </trkpt>
      <trkpt lat="45.70987" lon="6.31436">
        <ele>851</ele>
        <time>2019-02-12T14:55:03Z</time>
      </trkpt>
      <trkpt lat="45.70987" lon="6.31436">
        <ele>852</ele>
        <time>2019-02-12T14:55:09Z</time>
      </trkpt>
      <trkpt lat="45.70988" lon="6.31436">
        <ele>852</ele>
        <time>2019-02-12T14:55:18Z</time>
      </trkpt>
      <trkpt lat="45.70988" lon="6.31436">
        <ele>852</ele>
        <time>2019-02-12T14:55:26Z</time>
      </trkpt>
      <trkpt lat="45.70988" lon="6.31436">
        <ele>852</ele>
        <time>2019-02-12T14:55:27Z</time>
      </trkpt>
      <trkpt lat="45.70987" lon="6.31435">
        <ele>852</ele>
        <time>2019-02-12T14:55:33Z</time>
      </trkpt>
      <trkpt lat="45.70987" lon="6.31434">
        <ele>853</ele>
        <time>2019-02-12T14:55:43Z</time>
      </trkpt>
      <trkpt lat="45.70986" lon="6.31433">
        <ele>853</ele>
        <time>2019-02-12T14:55:45Z</time>
      </trkpt>
      <trkpt lat="45.70982" lon="6.31429">
        <ele>850</ele>
        <time>2019-02-12T14:55:51Z</time>
      </trkpt>
      <trkpt lat="45.70974" lon="6.3143">
        <ele>853</ele>
        <time>2019-02-12T14:56:01Z</time>
      </trkpt>
      <trkpt lat="45.7097" lon="6.3143">
        <ele>853</ele>
        <time>2019-02-12T14:56:06Z</time>
      </trkpt>
      <trkpt lat="45.70968" lon="6.31429">
        <ele>854</ele>
        <time>2019-02-12T14:56:09Z</time>
      </trkpt>
      <trkpt lat="45.70962" lon="6.31431">
        <ele>853</ele>
        <time>2019-02-12T14:56:15Z</time>
      </trkpt>
      <trkpt lat="45.70956" lon="6.31435">
        <ele>854</ele>
        <time>2019-02-12T14:56:21Z</time>
      </trkpt>
      <trkpt lat="45.70953" lon="6.31432">
        <ele>855</ele>
        <time>2019-02-12T14:56:28Z</time>
      </trkpt>
      <trkpt lat="45.70954" lon="6.31431">
        <ele>854</ele>
        <time>2019-02-12T14:56:37Z</time>
      </trkpt>
      <trkpt lat="45.70954" lon="6.31431">
        <ele>854</ele>
        <time>2019-02-12T14:56:39Z</time>
      </trkpt>
      <trkpt lat="45.70954" lon="6.31431">
        <ele>854</ele>
        <time>2019-02-12T14:56:49Z</time>
      </trkpt>
      <trkpt lat="45.70954" lon="6.31431">
        <ele>854</ele>
        <time>2019-02-12T14:56:51Z</time>
      </trkpt>
      <trkpt lat="45.70954" lon="6.31431">
        <ele>856</ele>
        <time>2019-02-12T14:56:57Z</time>
      </trkpt>
      <trkpt lat="45.70953" lon="6.31431">
        <ele>856</ele>
        <time>2019-02-12T14:57:05Z</time>
      </trkpt>
      <trkpt lat="45.70947" lon="6.31413">
        <ele>855</ele>
        <time>2019-02-12T14:57:13Z</time>
      </trkpt>
      <trkpt lat="45.70945" lon="6.31407">
        <ele>851</ele>
        <time>2019-02-12T14:57:19Z</time>
      </trkpt>
      <trkpt lat="45.70945" lon="6.31407">
        <ele>851</ele>
        <time>2019-02-12T14:57:22Z</time>
      </trkpt>
      <trkpt lat="45.70945" lon="6.31407">
        <ele>846</ele>
        <time>2019-02-12T14:57:32Z</time>
      </trkpt>
      <trkpt lat="45.70945" lon="6.31407">
        <ele>846</ele>
        <time>2019-02-12T14:57:33Z</time>
      </trkpt>
      <trkpt lat="45.70944" lon="6.31408">
        <ele>845</ele>
        <time>2019-02-12T14:57:39Z</time>
      </trkpt>
      <trkpt lat="45.70942" lon="6.31405">
        <ele>845</ele>
        <time>2019-02-12T14:57:47Z</time>
      </trkpt>
      <trkpt lat="45.70939" lon="6.31398">
        <ele>845</ele>
        <time>2019-02-12T14:57:51Z</time>
      </trkpt>
      <trkpt lat="45.70935" lon="6.31391">
        <ele>845</ele>
        <time>2019-02-12T14:58:01Z</time>
      </trkpt>
      <trkpt lat="45.70933" lon="6.31389">
        <ele>845</ele>
        <time>2019-02-12T14:58:03Z</time>
      </trkpt>
      <trkpt lat="45.70929" lon="6.31381">
        <ele>845</ele>
        <time>2019-02-12T14:58:10Z</time>
      </trkpt>
      <trkpt lat="45.70925" lon="6.31377">
        <ele>846</ele>
        <time>2019-02-12T14:58:16Z</time>
      </trkpt>
      <trkpt lat="45.7092" lon="6.31378">
        <ele>847</ele>
        <time>2019-02-12T14:58:25Z</time>
      </trkpt>
      <trkpt lat="45.70919" lon="6.31378">
        <ele>848</ele>
        <time>2019-02-12T14:58:27Z</time>
      </trkpt>
      <trkpt lat="45.70915" lon="6.31377">
        <ele>849</ele>
        <time>2019-02-12T14:58:33Z</time>
      </trkpt>
      <trkpt lat="45.70912" lon="6.31376">
        <ele>849</ele>
        <time>2019-02-12T14:58:39Z</time>
      </trkpt>
      <trkpt lat="45.70912" lon="6.31373">
        <ele>849</ele>
        <time>2019-02-12T14:58:45Z</time>
      </trkpt>
      <trkpt lat="45.70911" lon="6.31374">
        <ele>849</ele>
        <time>2019-02-12T14:58:51Z</time>
      </trkpt>
      <trkpt lat="45.70904" lon="6.31373">
        <ele>850</ele>
        <time>2019-02-12T14:58:59Z</time>
      </trkpt>
      <trkpt lat="45.709" lon="6.31375">
        <ele>849</ele>
        <time>2019-02-12T14:59:03Z</time>
      </trkpt>
      <trkpt lat="45.70896" lon="6.31374">
        <ele>850</ele>
        <time>2019-02-12T14:59:10Z</time>
      </trkpt>
      <trkpt lat="45.70888" lon="6.31372">
        <ele>850</ele>
        <time>2019-02-12T14:59:20Z</time>
      </trkpt>
      <trkpt lat="45.70886" lon="6.31372">
        <ele>850</ele>
        <time>2019-02-12T14:59:22Z</time>
      </trkpt>
      <trkpt lat="45.7088" lon="6.31372">
        <ele>849</ele>
        <time>2019-02-12T14:59:28Z</time>
      </trkpt>
      <trkpt lat="45.70876" lon="6.31371">
        <ele>849</ele>
        <time>2019-02-12T14:59:33Z</time>
      </trkpt>
      <trkpt lat="45.70872" lon="6.31371">
        <ele>849</ele>
        <time>2019-02-12T14:59:39Z</time>
      </trkpt>
      <trkpt lat="45.70867" lon="6.31371">
        <ele>850</ele>
        <time>2019-02-12T14:59:45Z</time>
      </trkpt>
      <trkpt lat="45.70856" lon="6.3137">
        <ele>850</ele>
        <time>2019-02-12T14:59:55Z</time>
      </trkpt>
      <trkpt lat="45.70851" lon="6.31366">
        <ele>850</ele>
        <time>2019-02-12T15:00:01Z</time>
      </trkpt>
      <trkpt lat="45.70848" lon="6.31365">
        <ele>849</ele>
        <time>2019-02-12T15:00:05Z</time>
      </trkpt>
      <trkpt lat="45.70846" lon="6.31361">
        <ele>850</ele>
        <time>2019-02-12T15:00:09Z</time>
      </trkpt>
      <trkpt lat="45.70842" lon="6.31365">
        <ele>847</ele>
        <time>2019-02-12T15:00:15Z</time>
      </trkpt>
      <trkpt lat="45.70842" lon="6.31363">
        <ele>849</ele>
        <time>2019-02-12T15:00:21Z</time>
      </trkpt>
      <trkpt lat="45.70837" lon="6.31363">
        <ele>849</ele>
        <time>2019-02-12T15:00:27Z</time>
      </trkpt>
      <trkpt lat="45.70832" lon="6.31362">
        <ele>849</ele>
        <time>2019-02-12T15:00:37Z</time>
      </trkpt>
      <trkpt lat="45.70826" lon="6.31362">
        <ele>847</ele>
        <time>2019-02-12T15:00:42Z</time>
      </trkpt>
      <trkpt lat="45.70818" lon="6.31364">
        <ele>846</ele>
        <time>2019-02-12T15:00:50Z</time>
      </trkpt>
      <trkpt lat="45.70817" lon="6.31363">
        <ele>846</ele>
        <time>2019-02-12T15:00:51Z</time>
      </trkpt>
      <trkpt lat="45.7081" lon="6.31358">
        <ele>845</ele>
        <time>2019-02-12T15:00:57Z</time>
      </trkpt>
      <trkpt lat="45.70805" lon="6.31356">
        <ele>846</ele>
        <time>2019-02-12T15:01:03Z</time>
      </trkpt>
      <trkpt lat="45.70797" lon="6.31354">
        <ele>847</ele>
        <time>2019-02-12T15:01:11Z</time>
      </trkpt>
      <trkpt lat="45.70791" lon="6.31354">
        <ele>845</ele>
        <time>2019-02-12T15:01:17Z</time>
      </trkpt>
      <trkpt lat="45.70785" lon="6.31355">
        <ele>846</ele>
        <time>2019-02-12T15:01:22Z</time>
      </trkpt>
      <trkpt lat="45.7078" lon="6.31355">
        <ele>846</ele>
        <time>2019-02-12T15:01:27Z</time>
      </trkpt>
      <trkpt lat="45.70776" lon="6.31354">
        <ele>847</ele>
        <time>2019-02-12T15:01:33Z</time>
      </trkpt>
      <trkpt lat="45.70765" lon="6.31354">
        <ele>846</ele>
        <time>2019-02-12T15:01:43Z</time>
      </trkpt>
      <trkpt lat="45.7076" lon="6.31349">
        <ele>844</ele>
        <time>2019-02-12T15:01:49Z</time>
      </trkpt>
      <trkpt lat="45.70756" lon="6.31341">
        <ele>841</ele>
        <time>2019-02-12T15:01:54Z</time>
      </trkpt>
      <trkpt lat="45.70753" lon="6.31342">
        <ele>841</ele>
        <time>2019-02-12T15:01:58Z</time>
      </trkpt>
      <trkpt lat="45.70749" lon="6.31338">
        <ele>839</ele>
        <time>2019-02-12T15:02:04Z</time>
      </trkpt>
      <trkpt lat="45.70745" lon="6.31337">
        <ele>838</ele>
        <time>2019-02-12T15:02:09Z</time>
      </trkpt>
      <trkpt lat="45.70739" lon="6.31334">
        <ele>837</ele>
        <time>2019-02-12T15:02:15Z</time>
      </trkpt>
      <trkpt lat="45.70735" lon="6.31331">
        <ele>837</ele>
        <time>2019-02-12T15:02:21Z</time>
      </trkpt>
      <trkpt lat="45.70728" lon="6.31331">
        <ele>837</ele>
        <time>2019-02-12T15:02:28Z</time>
      </trkpt>
      <trkpt lat="45.70725" lon="6.3133">
        <ele>835</ele>
        <time>2019-02-12T15:02:33Z</time>
      </trkpt>
      <trkpt lat="45.70718" lon="6.31328">
        <ele>834</ele>
        <time>2019-02-12T15:02:44Z</time>
      </trkpt>
      <trkpt lat="45.70713" lon="6.31327">
        <ele>833</ele>
        <time>2019-02-12T15:02:50Z</time>
      </trkpt>
      <trkpt lat="45.70712" lon="6.31325">
        <ele>833</ele>
        <time>2019-02-12T15:02:52Z</time>
      </trkpt>
      <trkpt lat="45.70708" lon="6.31325">
        <ele>833</ele>
        <time>2019-02-12T15:02:57Z</time>
      </trkpt>
      <trkpt lat="45.70702" lon="6.31323">
        <ele>832</ele>
        <time>2019-02-12T15:03:03Z</time>
      </trkpt>
      <trkpt lat="45.70694" lon="6.31322">
        <ele>831</ele>
        <time>2019-02-12T15:03:12Z</time>
      </trkpt>
      <trkpt lat="45.70692" lon="6.31322">
        <ele>832</ele>
        <time>2019-02-12T15:03:15Z</time>
      </trkpt>
      <trkpt lat="45.70686" lon="6.31322">
        <ele>832</ele>
        <time>2019-02-12T15:03:21Z</time>
      </trkpt>
      <trkpt lat="45.70678" lon="6.31317">
        <ele>831</ele>
        <time>2019-02-12T15:03:32Z</time>
      </trkpt>
      <trkpt lat="45.70673" lon="6.31317">
        <ele>830</ele>
        <time>2019-02-12T15:03:37Z</time>
      </trkpt>
      <trkpt lat="45.7067" lon="6.31318">
        <ele>831</ele>
        <time>2019-02-12T15:03:41Z</time>
      </trkpt>
      <trkpt lat="45.70671" lon="6.31318">
        <ele>832</ele>
        <time>2019-02-12T15:03:45Z</time>
      </trkpt>
      <trkpt lat="45.70669" lon="6.31314">
        <ele>831</ele>
        <time>2019-02-12T15:03:56Z</time>
      </trkpt>
      <trkpt lat="45.70664" lon="6.31313">
        <ele>829</ele>
        <time>2019-02-12T15:04:02Z</time>
      </trkpt>
      <trkpt lat="45.70662" lon="6.31312">
        <ele>829</ele>
        <time>2019-02-12T15:04:04Z</time>
      </trkpt>
      <trkpt lat="45.70662" lon="6.3131">
        <ele>829</ele>
        <time>2019-02-12T15:04:09Z</time>
      </trkpt>
      <trkpt lat="45.70662" lon="6.31309">
        <ele>829</ele>
        <time>2019-02-12T15:04:15Z</time>
      </trkpt>
      <trkpt lat="45.70657" lon="6.3131">
        <ele>830</ele>
        <time>2019-02-12T15:04:24Z</time>
      </trkpt>
      <trkpt lat="45.70654" lon="6.31311">
        <ele>831</ele>
        <time>2019-02-12T15:04:27Z</time>
      </trkpt>
      <trkpt lat="45.70647" lon="6.3131">
        <ele>832</ele>
        <time>2019-02-12T15:04:35Z</time>
      </trkpt>
      <trkpt lat="45.70643" lon="6.31309">
        <ele>830</ele>
        <time>2019-02-12T15:04:39Z</time>
      </trkpt>
      <trkpt lat="45.70626" lon="6.31301">
        <ele>827</ele>
        <time>2019-02-12T15:04:56Z</time>
      </trkpt>
      <trkpt lat="45.7062" lon="6.31305">
        <ele>825</ele>
        <time>2019-02-12T15:05:02Z</time>
      </trkpt>
      <trkpt lat="45.70618" lon="6.31302">
        <ele>824</ele>
        <time>2019-02-12T15:05:06Z</time>
      </trkpt>
      <trkpt lat="45.70611" lon="6.313">
        <ele>823</ele>
        <time>2019-02-12T15:05:13Z</time>
      </trkpt>
      <trkpt lat="45.7061" lon="6.31299">
        <ele>822</ele>
        <time>2019-02-12T15:05:15Z</time>
      </trkpt>
      <trkpt lat="45.70608" lon="6.31299">
        <ele>822</ele>
        <time>2019-02-12T15:05:21Z</time>
      </trkpt>
      <trkpt lat="45.70609" lon="6.31299">
        <ele>824</ele>
        <time>2019-02-12T15:05:27Z</time>
      </trkpt>
      <trkpt lat="45.70609" lon="6.31299">
        <ele>824</ele>
        <time>2019-02-12T15:05:33Z</time>
      </trkpt>
      <trkpt lat="45.70609" lon="6.31299">
        <ele>824</ele>
        <time>2019-02-12T15:05:39Z</time>
      </trkpt>
      <trkpt lat="45.70608" lon="6.31299">
        <ele>824</ele>
        <time>2019-02-12T15:05:48Z</time>
      </trkpt>
      <trkpt lat="45.70602" lon="6.31296">
        <ele>822</ele>
        <time>2019-02-12T15:05:56Z</time>
      </trkpt>
      <trkpt lat="45.70602" lon="6.31296">
        <ele>821</ele>
        <time>2019-02-12T15:05:57Z</time>
      </trkpt>
      <trkpt lat="45.70598" lon="6.31298">
        <ele>824</ele>
        <time>2019-02-12T15:06:06Z</time>
      </trkpt>
      <trkpt lat="45.70598" lon="6.31298">
        <ele>822</ele>
        <time>2019-02-12T15:06:09Z</time>
      </trkpt>
      <trkpt lat="45.70599" lon="6.31297">
        <ele>825</ele>
        <time>2019-02-12T15:06:19Z</time>
      </trkpt>
      <trkpt lat="45.70599" lon="6.31297">
        <ele>825</ele>
        <time>2019-02-12T15:06:24Z</time>
      </trkpt>
      <trkpt lat="45.70591" lon="6.31295">
        <ele>826</ele>
        <time>2019-02-12T15:06:32Z</time>
      </trkpt>
      <trkpt lat="45.7059" lon="6.31295">
        <ele>825</ele>
        <time>2019-02-12T15:06:33Z</time>
      </trkpt>
      <trkpt lat="45.70584" lon="6.31291">
        <ele>824</ele>
        <time>2019-02-12T15:06:39Z</time>
      </trkpt>
      <trkpt lat="45.70575" lon="6.31286">
        <ele>825</ele>
        <time>2019-02-12T15:06:49Z</time>
      </trkpt>
      <trkpt lat="45.70573" lon="6.31286">
        <ele>825</ele>
        <time>2019-02-12T15:06:51Z</time>
      </trkpt>
      <trkpt lat="45.70569" lon="6.31285">
        <ele>823</ele>
        <time>2019-02-12T15:06:57Z</time>
      </trkpt>
      <trkpt lat="45.70561" lon="6.31282">
        <ele>822</ele>
        <time>2019-02-12T15:07:06Z</time>
      </trkpt>
      <trkpt lat="45.70555" lon="6.31282">
        <ele>821</ele>
        <time>2019-02-12T15:07:12Z</time>
      </trkpt>
      <trkpt lat="45.70553" lon="6.3128">
        <ele>822</ele>
        <time>2019-02-12T15:07:15Z</time>
      </trkpt>
      <trkpt lat="45.70548" lon="6.31279">
        <ele>819</ele>
        <time>2019-02-12T15:07:24Z</time>
      </trkpt>
      <trkpt lat="45.70548" lon="6.3128">
        <ele>820</ele>
        <time>2019-02-12T15:07:27Z</time>
      </trkpt>
      <trkpt lat="45.70548" lon="6.31278">
        <ele>821</ele>
        <time>2019-02-12T15:07:33Z</time>
      </trkpt>
      <trkpt lat="45.70544" lon="6.3128">
        <ele>821</ele>
        <time>2019-02-12T15:07:39Z</time>
      </trkpt>
      <trkpt lat="45.70538" lon="6.31278">
        <ele>819</ele>
        <time>2019-02-12T15:07:49Z</time>
      </trkpt>
      <trkpt lat="45.70536" lon="6.31278">
        <ele>820</ele>
        <time>2019-02-12T15:07:53Z</time>
      </trkpt>
      <trkpt lat="45.70536" lon="6.31277">
        <ele>820</ele>
        <time>2019-02-12T15:07:57Z</time>
      </trkpt>
      <trkpt lat="45.70535" lon="6.31278">
        <ele>819</ele>
        <time>2019-02-12T15:08:05Z</time>
      </trkpt>
      <trkpt lat="45.70533" lon="6.31278">
        <ele>818</ele>
        <time>2019-02-12T15:08:14Z</time>
      </trkpt>
      <trkpt lat="45.70532" lon="6.31278">
        <ele>818</ele>
        <time>2019-02-12T15:08:15Z</time>
      </trkpt>
      <trkpt lat="45.70532" lon="6.31277">
        <ele>820</ele>
        <time>2019-02-12T15:08:21Z</time>
      </trkpt>
      <trkpt lat="45.70531" lon="6.31278">
        <ele>821</ele>
        <time>2019-02-12T15:08:31Z</time>
      </trkpt>
      <trkpt lat="45.70523" lon="6.31277">
        <ele>823</ele>
        <time>2019-02-12T15:08:37Z</time>
      </trkpt>
      <trkpt lat="45.70521" lon="6.31277">
        <ele>823</ele>
        <time>2019-02-12T15:08:39Z</time>
      </trkpt>
      <trkpt lat="45.70512" lon="6.31277">
        <ele>822</ele>
        <time>2019-02-12T15:08:50Z</time>
      </trkpt>
      <trkpt lat="45.70511" lon="6.31277">
        <ele>821</ele>
        <time>2019-02-12T15:08:51Z</time>
      </trkpt>
      <trkpt lat="45.70511" lon="6.31275">
        <ele>823</ele>
        <time>2019-02-12T15:08:57Z</time>
      </trkpt>
      <trkpt lat="45.70511" lon="6.31274">
        <ele>823</ele>
        <time>2019-02-12T15:09:03Z</time>
      </trkpt>
      <trkpt lat="45.7051" lon="6.31274">
        <ele>824</ele>
        <time>2019-02-12T15:09:10Z</time>
      </trkpt>
      <trkpt lat="45.7051" lon="6.31274">
        <ele>826</ele>
        <time>2019-02-12T15:09:15Z</time>
      </trkpt>
      <trkpt lat="45.70511" lon="6.31275">
        <ele>827</ele>
        <time>2019-02-12T15:09:21Z</time>
      </trkpt>
      <trkpt lat="45.70511" lon="6.31274">
        <ele>828</ele>
        <time>2019-02-12T15:09:27Z</time>
      </trkpt>
      <trkpt lat="45.70509" lon="6.31274">
        <ele>827</ele>
        <time>2019-02-12T15:09:38Z</time>
      </trkpt>
      <trkpt lat="45.70505" lon="6.31276">
        <ele>827</ele>
        <time>2019-02-12T15:09:42Z</time>
      </trkpt>
      <trkpt lat="45.70502" lon="6.31277">
        <ele>826</ele>
        <time>2019-02-12T15:09:47Z</time>
      </trkpt>
      <trkpt lat="45.70501" lon="6.31278">
        <ele>827</ele>
        <time>2019-02-12T15:09:51Z</time>
      </trkpt>
      <trkpt lat="45.70496" lon="6.31283">
        <ele>826</ele>
        <time>2019-02-12T15:09:57Z</time>
      </trkpt>
      <trkpt lat="45.7049" lon="6.31286">
        <ele>827</ele>
        <time>2019-02-12T15:10:03Z</time>
      </trkpt>
      <trkpt lat="45.70486" lon="6.31289">
        <ele>822</ele>
        <time>2019-02-12T15:10:09Z</time>
      </trkpt>
      <trkpt lat="45.7048" lon="6.31285">
        <ele>821</ele>
        <time>2019-02-12T15:10:15Z</time>
      </trkpt>
      <trkpt lat="45.70475" lon="6.31282">
        <ele>821</ele>
        <time>2019-02-12T15:10:21Z</time>
      </trkpt>
      <trkpt lat="45.70464" lon="6.31279">
        <ele>823</ele>
        <time>2019-02-12T15:10:31Z</time>
      </trkpt>
      <trkpt lat="45.70462" lon="6.31279">
        <ele>822</ele>
        <time>2019-02-12T15:10:33Z</time>
      </trkpt>
      <trkpt lat="45.70455" lon="6.31278">
        <ele>823</ele>
        <time>2019-02-12T15:10:39Z</time>
      </trkpt>
      <trkpt lat="45.70451" lon="6.31277">
        <ele>821</ele>
        <time>2019-02-12T15:10:45Z</time>
      </trkpt>
      <trkpt lat="45.70443" lon="6.31278">
        <ele>821</ele>
        <time>2019-02-12T15:10:52Z</time>
      </trkpt>
      <trkpt lat="45.70434" lon="6.3128">
        <ele>821</ele>
        <time>2019-02-12T15:11:02Z</time>
      </trkpt>
      <trkpt lat="45.70433" lon="6.31279">
        <ele>821</ele>
        <time>2019-02-12T15:11:03Z</time>
      </trkpt>
      <trkpt lat="45.70426" lon="6.31279">
        <ele>822</ele>
        <time>2019-02-12T15:11:10Z</time>
      </trkpt>
      <trkpt lat="45.70421" lon="6.31278">
        <ele>824</ele>
        <time>2019-02-12T15:11:15Z</time>
      </trkpt>
      <trkpt lat="45.70414" lon="6.31277">
        <ele>822</ele>
        <time>2019-02-12T15:11:24Z</time>
      </trkpt>
      <trkpt lat="45.70407" lon="6.31271">
        <ele>821</ele>
        <time>2019-02-12T15:11:32Z</time>
      </trkpt>
      <trkpt lat="45.70405" lon="6.31271">
        <ele>820</ele>
        <time>2019-02-12T15:11:34Z</time>
      </trkpt>
      <trkpt lat="45.70399" lon="6.31267">
        <ele>817</ele>
        <time>2019-02-12T15:11:44Z</time>
      </trkpt>
      <trkpt lat="45.70399" lon="6.31267">
        <ele>817</ele>
        <time>2019-02-12T15:11:45Z</time>
      </trkpt>
      <trkpt lat="45.70394" lon="6.31266">
        <ele>814</ele>
        <time>2019-02-12T15:11:51Z</time>
      </trkpt>
      <trkpt lat="45.70387" lon="6.31263">
        <ele>814</ele>
        <time>2019-02-12T15:11:58Z</time>
      </trkpt>
      <trkpt lat="45.70383" lon="6.31261">
        <ele>816</ele>
        <time>2019-02-12T15:12:05Z</time>
      </trkpt>
      <trkpt lat="45.70381" lon="6.31259">
        <ele>816</ele>
        <time>2019-02-12T15:12:09Z</time>
      </trkpt>
      <trkpt lat="45.70377" lon="6.31255">
        <ele>817</ele>
        <time>2019-02-12T15:12:19Z</time>
      </trkpt>
      <trkpt lat="45.70376" lon="6.31255">
        <ele>817</ele>
        <time>2019-02-12T15:12:21Z</time>
      </trkpt>
      <trkpt lat="45.70377" lon="6.31253">
        <ele>817</ele>
        <time>2019-02-12T15:12:28Z</time>
      </trkpt>
      <trkpt lat="45.70377" lon="6.31252">
        <ele>817</ele>
        <time>2019-02-12T15:12:33Z</time>
      </trkpt>
      <trkpt lat="45.70377" lon="6.31252">
        <ele>817</ele>
        <time>2019-02-12T15:12:42Z</time>
      </trkpt>
      <trkpt lat="45.70377" lon="6.31252">
        <ele>817</ele>
        <time>2019-02-12T15:12:45Z</time>
      </trkpt>
      <trkpt lat="45.70377" lon="6.31252">
        <ele>817</ele>
        <time>2019-02-12T15:12:52Z</time>
      </trkpt>
      <trkpt lat="45.70377" lon="6.31252">
        <ele>817</ele>
        <time>2019-02-12T15:12:58Z</time>
      </trkpt>
      <trkpt lat="45.70377" lon="6.31252">
        <ele>817</ele>
        <time>2019-02-12T15:13:03Z</time>
      </trkpt>
      <trkpt lat="45.70377" lon="6.3125">
        <ele>818</ele>
        <time>2019-02-12T15:13:11Z</time>
      </trkpt>
      <trkpt lat="45.70377" lon="6.31248">
        <ele>818</ele>
        <time>2019-02-12T15:13:20Z</time>
      </trkpt>
      <trkpt lat="45.70377" lon="6.31249">
        <ele>818</ele>
        <time>2019-02-12T15:13:21Z</time>
      </trkpt>
      <trkpt lat="45.70375" lon="6.31249">
        <ele>817</ele>
        <time>2019-02-12T15:13:27Z</time>
      </trkpt>
      <trkpt lat="45.70376" lon="6.31254">
        <ele>815</ele>
        <time>2019-02-12T15:13:37Z</time>
      </trkpt>
      <trkpt lat="45.70377" lon="6.31254">
        <ele>815</ele>
        <time>2019-02-12T15:13:40Z</time>
      </trkpt>
      <trkpt lat="45.70376" lon="6.31254">
        <ele>818</ele>
        <time>2019-02-12T15:13:45Z</time>
      </trkpt>
      <trkpt lat="45.70376" lon="6.31256">
        <ele>818</ele>
        <time>2019-02-12T15:13:51Z</time>
      </trkpt>
      <trkpt lat="45.70375" lon="6.31256">
        <ele>817</ele>
        <time>2019-02-12T15:14:01Z</time>
      </trkpt>
      <trkpt lat="45.70375" lon="6.31255">
        <ele>817</ele>
        <time>2019-02-12T15:14:04Z</time>
      </trkpt>
      <trkpt lat="45.7037" lon="6.31255">
        <ele>816</ele>
        <time>2019-02-12T15:14:10Z</time>
      </trkpt>
      <trkpt lat="45.70372" lon="6.31254">
        <ele>815</ele>
        <time>2019-02-12T15:14:15Z</time>
      </trkpt>
      <trkpt lat="45.70371" lon="6.31253">
        <ele>815</ele>
        <time>2019-02-12T15:14:22Z</time>
      </trkpt>
      <trkpt lat="45.7037" lon="6.31251">
        <ele>815</ele>
        <time>2019-02-12T15:14:28Z</time>
      </trkpt>
      <trkpt lat="45.70368" lon="6.31251">
        <ele>812</ele>
        <time>2019-02-12T15:14:33Z</time>
      </trkpt>
      <trkpt lat="45.70368" lon="6.3125">
        <ele>813</ele>
        <time>2019-02-12T15:14:39Z</time>
      </trkpt>
      <trkpt lat="45.70366" lon="6.31248">
        <ele>812</ele>
        <time>2019-02-12T15:14:45Z</time>
      </trkpt>
      <trkpt lat="45.70362" lon="6.31248">
        <ele>808</ele>
        <time>2019-02-12T15:14:51Z</time>
      </trkpt>
      <trkpt lat="45.70356" lon="6.31251">
        <ele>803</ele>
        <time>2019-02-12T15:14:59Z</time>
      </trkpt>
      <trkpt lat="45.70351" lon="6.31252">
        <ele>800</ele>
        <time>2019-02-12T15:15:07Z</time>
      </trkpt>
      <trkpt lat="45.7035" lon="6.31251">
        <ele>801</ele>
        <time>2019-02-12T15:15:09Z</time>
      </trkpt>
      <trkpt lat="45.70348" lon="6.3125">
        <ele>797</ele>
        <time>2019-02-12T15:15:15Z</time>
      </trkpt>
      <trkpt lat="45.70344" lon="6.31248">
        <ele>796</ele>
        <time>2019-02-12T15:15:21Z</time>
      </trkpt>
      <trkpt lat="45.70341" lon="6.31247">
        <ele>795</ele>
        <time>2019-02-12T15:15:29Z</time>
      </trkpt>
      <trkpt lat="45.70337" lon="6.31243">
        <ele>795</ele>
        <time>2019-02-12T15:15:35Z</time>
      </trkpt>
      <trkpt lat="45.70332" lon="6.31238">
        <ele>794</ele>
        <time>2019-02-12T15:15:40Z</time>
      </trkpt>
      <trkpt lat="45.70325" lon="6.31227">
        <ele>800</ele>
        <time>2019-02-12T15:15:49Z</time>
      </trkpt>
      <trkpt lat="45.70324" lon="6.31226">
        <ele>800</ele>
        <time>2019-02-12T15:15:51Z</time>
      </trkpt>
      <trkpt lat="45.70322" lon="6.31221">
        <ele>802</ele>
        <time>2019-02-12T15:15:57Z</time>
      </trkpt>
      <trkpt lat="45.7032" lon="6.31218">
        <ele>800</ele>
        <time>2019-02-12T15:16:03Z</time>
      </trkpt>
      <trkpt lat="45.70319" lon="6.31217">
        <ele>798</ele>
        <time>2019-02-12T15:16:09Z</time>
      </trkpt>
      <trkpt lat="45.70317" lon="6.31212">
        <ele>799</ele>
        <time>2019-02-12T15:16:15Z</time>
      </trkpt>
      <trkpt lat="45.70313" lon="6.31207">
        <ele>797</ele>
        <time>2019-02-12T15:16:21Z</time>
      </trkpt>
      <trkpt lat="45.70308" lon="6.31201">
        <ele>795</ele>
        <time>2019-02-12T15:16:29Z</time>
      </trkpt>
      <trkpt lat="45.70305" lon="6.31197">
        <ele>794</ele>
        <time>2019-02-12T15:16:33Z</time>
      </trkpt>
      <trkpt lat="45.70301" lon="6.31192">
        <ele>792</ele>
        <time>2019-02-12T15:16:39Z</time>
      </trkpt>
      <trkpt lat="45.70295" lon="6.31188">
        <ele>787</ele>
        <time>2019-02-12T15:16:50Z</time>
      </trkpt>
      <trkpt lat="45.70294" lon="6.31187">
        <ele>787</ele>
        <time>2019-02-12T15:16:51Z</time>
      </trkpt>
      <trkpt lat="45.70285" lon="6.31179">
        <ele>789</ele>
        <time>2019-02-12T15:16:59Z</time>
      </trkpt>
      <trkpt lat="45.7028" lon="6.31179">
        <ele>789</ele>
        <time>2019-02-12T15:17:03Z</time>
      </trkpt>
      <trkpt lat="45.7027" lon="6.31174">
        <ele>789</ele>
        <time>2019-02-12T15:17:14Z</time>
      </trkpt>
      <trkpt lat="45.70268" lon="6.31174">
        <ele>790</ele>
        <time>2019-02-12T15:17:15Z</time>
      </trkpt>
      <trkpt lat="45.70262" lon="6.31173">
        <ele>794</ele>
        <time>2019-02-12T15:17:24Z</time>
      </trkpt>
      <trkpt lat="45.70253" lon="6.31172">
        <ele>796</ele>
        <time>2019-02-12T15:17:32Z</time>
      </trkpt>
      <trkpt lat="45.70252" lon="6.31172">
        <ele>796</ele>
        <time>2019-02-12T15:17:33Z</time>
      </trkpt>
      <trkpt lat="45.70246" lon="6.31171">
        <ele>795</ele>
        <time>2019-02-12T15:17:40Z</time>
      </trkpt>
      <trkpt lat="45.70242" lon="6.31168">
        <ele>794</ele>
        <time>2019-02-12T15:17:45Z</time>
      </trkpt>
      <trkpt lat="45.70239" lon="6.31166">
        <ele>791</ele>
        <time>2019-02-12T15:17:51Z</time>
      </trkpt>
      <trkpt lat="45.70236" lon="6.31166">
        <ele>788</ele>
        <time>2019-02-12T15:17:57Z</time>
      </trkpt>
      <trkpt lat="45.7023" lon="6.31165">
        <ele>787</ele>
        <time>2019-02-12T15:18:04Z</time>
      </trkpt>
      <trkpt lat="45.70227" lon="6.31167">
        <ele>781</ele>
        <time>2019-02-12T15:18:09Z</time>
      </trkpt>
      <trkpt lat="45.70223" lon="6.31166">
        <ele>779</ele>
        <time>2019-02-12T15:18:15Z</time>
      </trkpt>
      <trkpt lat="45.70215" lon="6.31165">
        <ele>772</ele>
        <time>2019-02-12T15:18:26Z</time>
      </trkpt>
      <trkpt lat="45.70215" lon="6.31164">
        <ele>771</ele>
        <time>2019-02-12T15:18:27Z</time>
      </trkpt>
      <trkpt lat="45.7021" lon="6.31164">
        <ele>769</ele>
        <time>2019-02-12T15:18:33Z</time>
      </trkpt>
      <trkpt lat="45.70206" lon="6.31164">
        <ele>767</ele>
        <time>2019-02-12T15:18:39Z</time>
      </trkpt>
      <trkpt lat="45.70201" lon="6.31163">
        <ele>766</ele>
        <time>2019-02-12T15:18:45Z</time>
      </trkpt>
      <trkpt lat="45.70195" lon="6.31163">
        <ele>764</ele>
        <time>2019-02-12T15:18:53Z</time>
      </trkpt>
      <trkpt lat="45.70191" lon="6.31161">
        <ele>761</ele>
        <time>2019-02-12T15:18:58Z</time>
      </trkpt>
      <trkpt lat="45.70187" lon="6.31158">
        <ele>762</ele>
        <time>2019-02-12T15:19:03Z</time>
      </trkpt>
      <trkpt lat="45.70172" lon="6.31153">
        <ele>771</ele>
        <time>2019-02-12T15:19:13Z</time>
      </trkpt>
      <trkpt lat="45.70168" lon="6.31152">
        <ele>772</ele>
        <time>2019-02-12T15:19:16Z</time>
      </trkpt>
      <trkpt lat="45.70155" lon="6.31146">
        <ele>781</ele>
        <time>2019-02-12T15:19:25Z</time>
      </trkpt>
      <trkpt lat="45.70154" lon="6.31147">
        <ele>781</ele>
        <time>2019-02-12T15:19:27Z</time>
      </trkpt>
      <trkpt lat="45.70149" lon="6.31149">
        <ele>781</ele>
        <time>2019-02-12T15:19:33Z</time>
      </trkpt>
      <trkpt lat="45.70145" lon="6.31148">
        <ele>777</ele>
        <time>2019-02-12T15:19:40Z</time>
      </trkpt>
      <trkpt lat="45.7014" lon="6.31143">
        <ele>773</ele>
        <time>2019-02-12T15:19:48Z</time>
      </trkpt>
      <trkpt lat="45.70133" lon="6.31139">
        <ele>774</ele>
        <time>2019-02-12T15:19:55Z</time>
      </trkpt>
      <trkpt lat="45.70131" lon="6.31137">
        <ele>774</ele>
        <time>2019-02-12T15:19:57Z</time>
      </trkpt>
      <trkpt lat="45.70122" lon="6.31127">
        <ele>775</ele>
        <time>2019-02-12T15:20:07Z</time>
      </trkpt>
      <trkpt lat="45.70117" lon="6.31118">
        <ele>777</ele>
        <time>2019-02-12T15:20:14Z</time>
      </trkpt>
      <trkpt lat="45.70116" lon="6.31117">
        <ele>778</ele>
        <time>2019-02-12T15:20:15Z</time>
      </trkpt>
      <trkpt lat="45.70114" lon="6.31104">
        <ele>779</ele>
        <time>2019-02-12T15:20:24Z</time>
      </trkpt>
      <trkpt lat="45.70114" lon="6.31099">
        <ele>778</ele>
        <time>2019-02-12T15:20:28Z</time>
      </trkpt>
      <trkpt lat="45.70116" lon="6.31092">
        <ele>779</ele>
        <time>2019-02-12T15:20:34Z</time>
      </trkpt>
      <trkpt lat="45.70116" lon="6.31084">
        <ele>780</ele>
        <time>2019-02-12T15:20:39Z</time>
      </trkpt>
      <trkpt lat="45.70119" lon="6.3107">
        <ele>780</ele>
        <time>2019-02-12T15:20:50Z</time>
      </trkpt>
      <trkpt lat="45.70119" lon="6.31068">
        <ele>780</ele>
        <time>2019-02-12T15:20:52Z</time>
      </trkpt>
      <trkpt lat="45.70118" lon="6.31064">
        <ele>778</ele>
        <time>2019-02-12T15:20:57Z</time>
      </trkpt>
      <trkpt lat="45.70115" lon="6.31058">
        <ele>777</ele>
        <time>2019-02-12T15:21:03Z</time>
      </trkpt>
      <trkpt lat="45.70111" lon="6.31057">
        <ele>777</ele>
        <time>2019-02-12T15:21:09Z</time>
      </trkpt>
      <trkpt lat="45.70107" lon="6.31052">
        <ele>778</ele>
        <time>2019-02-12T15:21:15Z</time>
      </trkpt>
      <trkpt lat="45.70104" lon="6.31044">
        <ele>775</ele>
        <time>2019-02-12T15:21:23Z</time>
      </trkpt>
      <trkpt lat="45.70103" lon="6.3104">
        <ele>773</ele>
        <time>2019-02-12T15:21:27Z</time>
      </trkpt>
      <trkpt lat="45.701" lon="6.31034">
        <ele>772</ele>
        <time>2019-02-12T15:21:35Z</time>
      </trkpt>
      <trkpt lat="45.70096" lon="6.31026">
        <ele>776</ele>
        <time>2019-02-12T15:21:43Z</time>
      </trkpt>
      <trkpt lat="45.701" lon="6.31025">
        <ele>772</ele>
        <time>2019-02-12T15:21:45Z</time>
      </trkpt>
      <trkpt lat="45.701" lon="6.31022">
        <ele>770</ele>
        <time>2019-02-12T15:21:51Z</time>
      </trkpt>
      <trkpt lat="45.70099" lon="6.31016">
        <ele>772</ele>
        <time>2019-02-12T15:21:57Z</time>
      </trkpt>
      <trkpt lat="45.70101" lon="6.31013">
        <ele>770</ele>
        <time>2019-02-12T15:22:03Z</time>
      </trkpt>
      <trkpt lat="45.70096" lon="6.31004">
        <ele>779</ele>
        <time>2019-02-12T15:22:12Z</time>
      </trkpt>
      <trkpt lat="45.70097" lon="6.31001">
        <ele>779</ele>
        <time>2019-02-12T15:22:16Z</time>
      </trkpt>
      <trkpt lat="45.70097" lon="6.31">
        <ele>778</ele>
        <time>2019-02-12T15:22:21Z</time>
      </trkpt>
      <trkpt lat="45.70096" lon="6.31">
        <ele>780</ele>
        <time>2019-02-12T15:22:29Z</time>
      </trkpt>
      <trkpt lat="45.70096" lon="6.30999">
        <ele>780</ele>
        <time>2019-02-12T15:22:33Z</time>
      </trkpt>
      <trkpt lat="45.70096" lon="6.30999">
        <ele>781</ele>
        <time>2019-02-12T15:22:39Z</time>
      </trkpt>
      <trkpt lat="45.70096" lon="6.30998">
        <ele>781</ele>
        <time>2019-02-12T15:22:45Z</time>
      </trkpt>
      <trkpt lat="45.70096" lon="6.30998">
        <ele>781</ele>
        <time>2019-02-12T15:22:53Z</time>
      </trkpt>
      <trkpt lat="45.70096" lon="6.30998">
        <ele>781</ele>
        <time>2019-02-12T15:22:59Z</time>
      </trkpt>
      <trkpt lat="45.70096" lon="6.30998">
        <ele>781</ele>
        <time>2019-02-12T15:23:05Z</time>
      </trkpt>
      <trkpt lat="45.70098" lon="6.30999">
        <ele>779</ele>
        <time>2019-02-12T15:23:13Z</time>
      </trkpt>
      <trkpt lat="45.70099" lon="6.30996">
        <ele>780</ele>
        <time>2019-02-12T15:23:17Z</time>
      </trkpt>
      <trkpt lat="45.70099" lon="6.30996">
        <ele>781</ele>
        <time>2019-02-12T15:23:21Z</time>
      </trkpt>
      <trkpt lat="45.70099" lon="6.30996">
        <ele>780</ele>
        <time>2019-02-12T15:23:27Z</time>
      </trkpt>
      <trkpt lat="45.70099" lon="6.30995">
        <ele>781</ele>
        <time>2019-02-12T15:23:33Z</time>
      </trkpt>
      <trkpt lat="45.70098" lon="6.30995">
        <ele>781</ele>
        <time>2019-02-12T15:23:39Z</time>
      </trkpt>
      <trkpt lat="45.70098" lon="6.30995">
        <ele>782</ele>
        <time>2019-02-12T15:23:45Z</time>
      </trkpt>
      <trkpt lat="45.70099" lon="6.30995">
        <ele>783</ele>
        <time>2019-02-12T15:23:51Z</time>
      </trkpt>
      <trkpt lat="45.70099" lon="6.30995">
        <ele>784</ele>
        <time>2019-02-12T15:23:57Z</time>
      </trkpt>
      <trkpt lat="45.70099" lon="6.30995">
        <ele>784</ele>
        <time>2019-02-12T15:24:05Z</time>
      </trkpt>
      <trkpt lat="45.70099" lon="6.30991">
        <ele>786</ele>
        <time>2019-02-12T15:24:14Z</time>
      </trkpt>
      <trkpt lat="45.70099" lon="6.30992">
        <ele>785</ele>
        <time>2019-02-12T15:24:16Z</time>
      </trkpt>
      <trkpt lat="45.70099" lon="6.30991">
        <ele>787</ele>
        <time>2019-02-12T15:24:21Z</time>
      </trkpt>
      <trkpt lat="45.701" lon="6.30991">
        <ele>785</ele>
        <time>2019-02-12T15:24:27Z</time>
      </trkpt>
      <trkpt lat="45.701" lon="6.30992">
        <ele>786</ele>
        <time>2019-02-12T15:24:33Z</time>
      </trkpt>
      <trkpt lat="45.701" lon="6.30993">
        <ele>787</ele>
        <time>2019-02-12T15:24:42Z</time>
      </trkpt>
      <trkpt lat="45.70098" lon="6.30994">
        <ele>787</ele>
        <time>2019-02-12T15:24:47Z</time>
      </trkpt>
      <trkpt lat="45.70099" lon="6.30995">
        <ele>789</ele>
        <time>2019-02-12T15:24:54Z</time>
      </trkpt>
      <trkpt lat="45.70099" lon="6.30993">
        <ele>791</ele>
        <time>2019-02-12T15:24:57Z</time>
      </trkpt>
      <trkpt lat="45.70099" lon="6.30994">
        <ele>790</ele>
        <time>2019-02-12T15:25:04Z</time>
      </trkpt>
      <trkpt lat="45.70099" lon="6.30994">
        <ele>790</ele>
        <time>2019-02-12T15:25:09Z</time>
      </trkpt>
      <trkpt lat="45.70099" lon="6.30994">
        <ele>790</ele>
        <time>2019-02-12T15:25:17Z</time>
      </trkpt>
      <trkpt lat="45.70099" lon="6.30994">
        <ele>790</ele>
        <time>2019-02-12T15:25:22Z</time>
      </trkpt>
      <trkpt lat="45.70099" lon="6.30991">
        <ele>792</ele>
        <time>2019-02-12T15:25:32Z</time>
      </trkpt>
      <trkpt lat="45.70099" lon="6.30991">
        <ele>792</ele>
        <time>2019-02-12T15:25:33Z</time>
      </trkpt>
      <trkpt lat="45.70099" lon="6.30991">
        <ele>792</ele>
        <time>2019-02-12T15:25:43Z</time>
      </trkpt>
      <trkpt lat="45.70097" lon="6.30989">
        <ele>790</ele>
        <time>2019-02-12T15:25:45Z</time>
      </trkpt>
      <trkpt lat="45.70097" lon="6.30988">
        <ele>788</ele>
        <time>2019-02-12T15:25:51Z</time>
      </trkpt>
      <trkpt lat="45.70098" lon="6.30988">
        <ele>788</ele>
        <time>2019-02-12T15:25:57Z</time>
      </trkpt>
      <trkpt lat="45.70097" lon="6.30991">
        <ele>789</ele>
        <time>2019-02-12T15:26:08Z</time>
      </trkpt>
      <trkpt lat="45.70098" lon="6.30991">
        <ele>788</ele>
        <time>2019-02-12T15:26:09Z</time>
      </trkpt>
      <trkpt lat="45.70098" lon="6.30993">
        <ele>786</ele>
        <time>2019-02-12T15:26:19Z</time>
      </trkpt>
      <trkpt lat="45.70098" lon="6.30991">
        <ele>786</ele>
        <time>2019-02-12T15:26:24Z</time>
      </trkpt>
      <trkpt lat="45.70098" lon="6.30991">
        <ele>785</ele>
        <time>2019-02-12T15:26:27Z</time>
      </trkpt>
      <trkpt lat="45.70094" lon="6.30988">
        <ele>780</ele>
        <time>2019-02-12T15:26:34Z</time>
      </trkpt>
      <trkpt lat="45.70091" lon="6.30985">
        <ele>780</ele>
        <time>2019-02-12T15:26:43Z</time>
      </trkpt>
      <trkpt lat="45.70091" lon="6.30985">
        <ele>780</ele>
        <time>2019-02-12T15:26:45Z</time>
      </trkpt>
      <trkpt lat="45.70092" lon="6.30986">
        <ele>780</ele>
        <time>2019-02-12T15:26:51Z</time>
      </trkpt>
      <trkpt lat="45.70092" lon="6.30986">
        <ele>780</ele>
        <time>2019-02-12T15:26:57Z</time>
      </trkpt>
      <trkpt lat="45.70092" lon="6.30985">
        <ele>781</ele>
        <time>2019-02-12T15:27:03Z</time>
      </trkpt>
      <trkpt lat="45.70091" lon="6.30985">
        <ele>782</ele>
        <time>2019-02-12T15:27:09Z</time>
      </trkpt>
      <trkpt lat="45.70091" lon="6.30984">
        <ele>780</ele>
        <time>2019-02-12T15:27:18Z</time>
      </trkpt>
      <trkpt lat="45.70092" lon="6.30987">
        <ele>777</ele>
        <time>2019-02-12T15:27:21Z</time>
      </trkpt>
      <trkpt lat="45.70093" lon="6.3099">
        <ele>776</ele>
        <time>2019-02-12T15:27:27Z</time>
      </trkpt>
      <trkpt lat="45.70094" lon="6.30989">
        <ele>776</ele>
        <time>2019-02-12T15:27:33Z</time>
      </trkpt>
      <trkpt lat="45.70097" lon="6.30994">
        <ele>777</ele>
        <time>2019-02-12T15:27:44Z</time>
      </trkpt>
      <trkpt lat="45.70097" lon="6.30995">
        <ele>777</ele>
        <time>2019-02-12T15:27:45Z</time>
      </trkpt>
      <trkpt lat="45.70096" lon="6.30994">
        <ele>774</ele>
        <time>2019-02-12T15:27:51Z</time>
      </trkpt>
      <trkpt lat="45.70096" lon="6.30996">
        <ele>774</ele>
        <time>2019-02-12T15:27:57Z</time>
      </trkpt>
      <trkpt lat="45.70097" lon="6.30997">
        <ele>779</ele>
        <time>2019-02-12T15:28:08Z</time>
      </trkpt>
      <trkpt lat="45.70096" lon="6.30998">
        <ele>780</ele>
        <time>2019-02-12T15:28:13Z</time>
      </trkpt>
      <trkpt lat="45.70096" lon="6.30997">
        <ele>781</ele>
        <time>2019-02-12T15:28:15Z</time>
      </trkpt>
      <trkpt lat="45.70095" lon="6.30992">
        <ele>781</ele>
        <time>2019-02-12T15:28:21Z</time>
      </trkpt>
      <trkpt lat="45.70095" lon="6.30994">
        <ele>777</ele>
        <time>2019-02-12T15:28:27Z</time>
      </trkpt>
      <trkpt lat="45.70097" lon="6.30995">
        <ele>777</ele>
        <time>2019-02-12T15:28:38Z</time>
      </trkpt>
      <trkpt lat="45.70097" lon="6.30996">
        <ele>778</ele>
        <time>2019-02-12T15:28:42Z</time>
      </trkpt>
      <trkpt lat="45.70098" lon="6.30995">
        <ele>781</ele>
        <time>2019-02-12T15:28:50Z</time>
      </trkpt>
      <trkpt lat="45.70098" lon="6.30996">
        <ele>781</ele>
        <time>2019-02-12T15:28:53Z</time>
      </trkpt>
      <trkpt lat="45.70099" lon="6.30996">
        <ele>782</ele>
        <time>2019-02-12T15:28:57Z</time>
      </trkpt>
      <trkpt lat="45.70098" lon="6.30995">
        <ele>783</ele>
        <time>2019-02-12T15:29:03Z</time>
      </trkpt>
      <trkpt lat="45.70098" lon="6.30995">
        <ele>783</ele>
        <time>2019-02-12T15:29:09Z</time>
      </trkpt>
      <trkpt lat="45.70098" lon="6.30995">
        <ele>782</ele>
        <time>2019-02-12T15:29:15Z</time>
      </trkpt>
      <trkpt lat="45.70098" lon="6.30995">
        <ele>782</ele>
        <time>2019-02-12T15:29:21Z</time>
      </trkpt>
      <trkpt lat="45.70098" lon="6.30994">
        <ele>783</ele>
        <time>2019-02-12T15:29:27Z</time>
      </trkpt>
      <trkpt lat="45.70098" lon="6.30994">
        <ele>783</ele>
        <time>2019-02-12T15:29:33Z</time>
      </trkpt>
    </trkseg>
  </trk>
</gpx>